<?xml version="1.0" encoding="UTF-8" standalone="no" ?>
<gpx xmlns="http://www.topografix.com/GPX/1/1" xmlns:xsi="http://www.w3.org/2001/XMLSchema-instance" xsi:schemaLocation="http://www.topografix.com/GPX/1/1 http://www.topografix.com/GPX/1/1/gpx.xsd" version="1.1" creator="VisuGPX - https://www.visugpx.com">
  <metadata>
    <name>Entrainement_Raid_St_Sylvestre_Montcalmes_13km_D200m</name>
    <desc><![CDATA[Ideal pour entrainement Raid. Attention départ sévère, puis plateau pour endurance et enfin descente difficile dans la salsepareille !!!
Par Laurent Aldon]]></desc>
  </metadata>
  <wpt lat="43.72952" lon="3.57785">
    <ele>294.19</ele>
    <name><![CDATA[Montcalmes]]></name>
  </wpt>
  <wpt lat="43.73203" lon="3.5599">
    <ele>282.426</ele>
    <name><![CDATA[Pylone]]></name>
  </wpt>
  <wpt lat="43.71495" lon="3.59263">
    <ele>143.663</ele>
    <name><![CDATA[StSylvestre]]></name>
  </wpt>
  <trk>
    <name><![CDATA[StSylvestre]]></name>
    <trkseg>
      <trkpt lat="43.71484" lon="3.59254">
        <ele>140.468</ele>
        <time>2008-08-20T07:07:25Z</time>
      </trkpt>
      <trkpt lat="43.71495" lon="3.59263">
        <ele>143.663</ele>
        <time>2008-08-20T07:07:37Z</time>
      </trkpt>
      <trkpt lat="43.71511" lon="3.59271">
        <ele>146.35</ele>
        <time>2008-08-20T07:07:55Z</time>
      </trkpt>
      <trkpt lat="43.71514" lon="3.59274">
        <ele>144.394</ele>
        <time>2008-08-20T07:08:10Z</time>
      </trkpt>
      <trkpt lat="43.71519" lon="3.59274">
        <ele>146.109</ele>
        <time>2008-08-20T07:08:57Z</time>
      </trkpt>
      <trkpt lat="43.71521" lon="3.59276">
        <ele>146.07</ele>
        <time>2008-08-20T07:09:00Z</time>
      </trkpt>
      <trkpt lat="43.71538" lon="3.593">
        <ele>148.008</ele>
        <time>2008-08-20T07:09:21Z</time>
      </trkpt>
      <trkpt lat="43.71556" lon="3.5932">
        <ele>150.167</ele>
        <time>2008-08-20T07:09:41Z</time>
      </trkpt>
      <trkpt lat="43.71557" lon="3.59321">
        <ele>150.239</ele>
        <time>2008-08-20T07:09:42Z</time>
      </trkpt>
      <trkpt lat="43.71574" lon="3.5933">
        <ele>150.504</ele>
        <time>2008-08-20T07:09:58Z</time>
      </trkpt>
      <trkpt lat="43.71601" lon="3.59344">
        <ele>149.753</ele>
        <time>2008-08-20T07:10:22Z</time>
      </trkpt>
      <trkpt lat="43.71627" lon="3.59362">
        <ele>148.522</ele>
        <time>2008-08-20T07:10:47Z</time>
      </trkpt>
      <trkpt lat="43.71627" lon="3.59363">
        <ele>149.495</ele>
        <time>2008-08-20T07:10:58Z</time>
      </trkpt>
      <trkpt lat="43.71618" lon="3.59354">
        <ele>149.529</ele>
        <time>2008-08-20T07:11:08Z</time>
      </trkpt>
      <trkpt lat="43.71612" lon="3.59349">
        <ele>149.92</ele>
        <time>2008-08-20T07:11:14Z</time>
      </trkpt>
      <trkpt lat="43.71607" lon="3.59346">
        <ele>149.998</ele>
        <time>2008-08-20T07:11:18Z</time>
      </trkpt>
      <trkpt lat="43.71581" lon="3.59331">
        <ele>150.829</ele>
        <time>2008-08-20T07:11:40Z</time>
      </trkpt>
      <trkpt lat="43.71559" lon="3.59319">
        <ele>150.575</ele>
        <time>2008-08-20T07:12:00Z</time>
      </trkpt>
      <trkpt lat="43.71544" lon="3.59304">
        <ele>149.534</ele>
        <time>2008-08-20T07:12:15Z</time>
      </trkpt>
      <trkpt lat="43.7154" lon="3.593">
        <ele>149.598</ele>
        <time>2008-08-20T07:12:19Z</time>
      </trkpt>
      <trkpt lat="43.71544" lon="3.59282">
        <ele>149.306</ele>
        <time>2008-08-20T07:12:31Z</time>
      </trkpt>
      <trkpt lat="43.71552" lon="3.59279">
        <ele>151.19</ele>
        <time>2008-08-20T07:12:39Z</time>
      </trkpt>
      <trkpt lat="43.71555" lon="3.59283">
        <ele>151.733</ele>
        <time>2008-08-20T07:12:43Z</time>
      </trkpt>
      <trkpt lat="43.71561" lon="3.59289">
        <ele>151.095</ele>
        <time>2008-08-20T07:12:58Z</time>
      </trkpt>
      <trkpt lat="43.71581" lon="3.5929">
        <ele>154.055</ele>
        <time>2008-08-20T07:13:16Z</time>
      </trkpt>
      <trkpt lat="43.716" lon="3.59286">
        <ele>156.145</ele>
        <time>2008-08-20T07:13:35Z</time>
      </trkpt>
      <trkpt lat="43.71605" lon="3.59286">
        <ele>157.243</ele>
        <time>2008-08-20T07:13:40Z</time>
      </trkpt>
      <trkpt lat="43.71625" lon="3.59282">
        <ele>159.87</ele>
        <time>2008-08-20T07:14:00Z</time>
      </trkpt>
      <trkpt lat="43.71646" lon="3.59281">
        <ele>159.751</ele>
        <time>2008-08-20T07:14:17Z</time>
      </trkpt>
      <trkpt lat="43.71668" lon="3.59275">
        <ele>161.309</ele>
        <time>2008-08-20T07:14:36Z</time>
      </trkpt>
      <trkpt lat="43.71674" lon="3.59273">
        <ele>161.41</ele>
        <time>2008-08-20T07:14:48Z</time>
      </trkpt>
      <trkpt lat="43.71686" lon="3.59273">
        <ele>162.473</ele>
        <time>2008-08-20T07:15:02Z</time>
      </trkpt>
      <trkpt lat="43.71704" lon="3.59276">
        <ele>164.086</ele>
        <time>2008-08-20T07:15:19Z</time>
      </trkpt>
      <trkpt lat="43.71713" lon="3.59279">
        <ele>165.069</ele>
        <time>2008-08-20T07:15:36Z</time>
      </trkpt>
      <trkpt lat="43.71725" lon="3.59281">
        <ele>166.037</ele>
        <time>2008-08-20T07:15:51Z</time>
      </trkpt>
      <trkpt lat="43.71734" lon="3.59279">
        <ele>167.218</ele>
        <time>2008-08-20T07:16:02Z</time>
      </trkpt>
      <trkpt lat="43.71747" lon="3.59278">
        <ele>167.808</ele>
        <time>2008-08-20T07:16:16Z</time>
      </trkpt>
      <trkpt lat="43.71761" lon="3.59279">
        <ele>170.31</ele>
        <time>2008-08-20T07:16:30Z</time>
      </trkpt>
      <trkpt lat="43.71771" lon="3.59279">
        <ele>174.338</ele>
        <time>2008-08-20T07:16:40Z</time>
      </trkpt>
      <trkpt lat="43.71786" lon="3.59271">
        <ele>173.959</ele>
        <time>2008-08-20T07:16:58Z</time>
      </trkpt>
      <trkpt lat="43.71796" lon="3.59267">
        <ele>174.055</ele>
        <time>2008-08-20T07:17:10Z</time>
      </trkpt>
      <trkpt lat="43.71804" lon="3.59266">
        <ele>176.507</ele>
        <time>2008-08-20T07:17:19Z</time>
      </trkpt>
      <trkpt lat="43.71813" lon="3.59263">
        <ele>178.604</ele>
        <time>2008-08-20T07:17:32Z</time>
      </trkpt>
      <trkpt lat="43.71814" lon="3.59262">
        <ele>179.623</ele>
        <time>2008-08-20T07:17:35Z</time>
      </trkpt>
      <trkpt lat="43.71816" lon="3.59262">
        <ele>180.612</ele>
        <time>2008-08-20T07:17:37Z</time>
      </trkpt>
      <trkpt lat="43.71821" lon="3.59257">
        <ele>181.64</ele>
        <time>2008-08-20T07:17:42Z</time>
      </trkpt>
      <trkpt lat="43.71824" lon="3.59255">
        <ele>182.352</ele>
        <time>2008-08-20T07:17:45Z</time>
      </trkpt>
      <trkpt lat="43.71835" lon="3.59241">
        <ele>184.423</ele>
        <time>2008-08-20T07:17:59Z</time>
      </trkpt>
      <trkpt lat="43.71848" lon="3.5923">
        <ele>185.608</ele>
        <time>2008-08-20T07:18:14Z</time>
      </trkpt>
      <trkpt lat="43.7185" lon="3.59229">
        <ele>185.759</ele>
        <time>2008-08-20T07:18:16Z</time>
      </trkpt>
      <trkpt lat="43.71855" lon="3.59223">
        <ele>186.194</ele>
        <time>2008-08-20T07:18:22Z</time>
      </trkpt>
      <trkpt lat="43.71866" lon="3.59212">
        <ele>187.864</ele>
        <time>2008-08-20T07:18:35Z</time>
      </trkpt>
      <trkpt lat="43.71879" lon="3.59201">
        <ele>188.132</ele>
        <time>2008-08-20T07:18:49Z</time>
      </trkpt>
      <trkpt lat="43.7189" lon="3.59195">
        <ele>188.673</ele>
        <time>2008-08-20T07:19:02Z</time>
      </trkpt>
      <trkpt lat="43.71892" lon="3.59193">
        <ele>189.346</ele>
        <time>2008-08-20T07:19:04Z</time>
      </trkpt>
      <trkpt lat="43.71903" lon="3.59185">
        <ele>189.702</ele>
        <time>2008-08-20T07:19:15Z</time>
      </trkpt>
      <trkpt lat="43.71909" lon="3.5918">
        <ele>190.573</ele>
        <time>2008-08-20T07:19:21Z</time>
      </trkpt>
      <trkpt lat="43.71923" lon="3.59169">
        <ele>190.181</ele>
        <time>2008-08-20T07:19:35Z</time>
      </trkpt>
      <trkpt lat="43.71935" lon="3.59159">
        <ele>192.358</ele>
        <time>2008-08-20T07:19:47Z</time>
      </trkpt>
      <trkpt lat="43.71946" lon="3.59148">
        <ele>192.601</ele>
        <time>2008-08-20T07:19:58Z</time>
      </trkpt>
      <trkpt lat="43.71947" lon="3.59146">
        <ele>193.298</ele>
        <time>2008-08-20T07:20:00Z</time>
      </trkpt>
      <trkpt lat="43.71963" lon="3.59135">
        <ele>194.069</ele>
        <time>2008-08-20T07:20:14Z</time>
      </trkpt>
      <trkpt lat="43.71971" lon="3.59127">
        <ele>193.889</ele>
        <time>2008-08-20T07:20:23Z</time>
      </trkpt>
      <trkpt lat="43.7198" lon="3.59123">
        <ele>193.965</ele>
        <time>2008-08-20T07:20:35Z</time>
      </trkpt>
      <trkpt lat="43.71982" lon="3.59121">
        <ele>194.503</ele>
        <time>2008-08-20T07:20:37Z</time>
      </trkpt>
      <trkpt lat="43.71992" lon="3.5911">
        <ele>194.766</ele>
        <time>2008-08-20T07:20:48Z</time>
      </trkpt>
      <trkpt lat="43.7201" lon="3.59098">
        <ele>196.058</ele>
        <time>2008-08-20T07:21:04Z</time>
      </trkpt>
      <trkpt lat="43.72022" lon="3.59088">
        <ele>197.637</ele>
        <time>2008-08-20T07:21:16Z</time>
      </trkpt>
      <trkpt lat="43.72027" lon="3.59082">
        <ele>197.647</ele>
        <time>2008-08-20T07:21:22Z</time>
      </trkpt>
      <trkpt lat="43.72028" lon="3.5908">
        <ele>197.581</ele>
        <time>2008-08-20T07:21:24Z</time>
      </trkpt>
      <trkpt lat="43.72035" lon="3.59072">
        <ele>198.171</ele>
        <time>2008-08-20T07:21:33Z</time>
      </trkpt>
      <trkpt lat="43.7204" lon="3.59069">
        <ele>199.018</ele>
        <time>2008-08-20T07:21:37Z</time>
      </trkpt>
      <trkpt lat="43.72054" lon="3.59053">
        <ele>199.887</ele>
        <time>2008-08-20T07:21:53Z</time>
      </trkpt>
      <trkpt lat="43.7206" lon="3.59045">
        <ele>201.717</ele>
        <time>2008-08-20T07:22:00Z</time>
      </trkpt>
      <trkpt lat="43.72071" lon="3.59033">
        <ele>202.724</ele>
        <time>2008-08-20T07:22:12Z</time>
      </trkpt>
      <trkpt lat="43.72087" lon="3.59016">
        <ele>204.044</ele>
        <time>2008-08-20T07:22:29Z</time>
      </trkpt>
      <trkpt lat="43.72093" lon="3.59009">
        <ele>206.235</ele>
        <time>2008-08-20T07:22:37Z</time>
      </trkpt>
      <trkpt lat="43.72106" lon="3.58997">
        <ele>208.864</ele>
        <time>2008-08-20T07:22:51Z</time>
      </trkpt>
      <trkpt lat="43.72116" lon="3.5899">
        <ele>211.493</ele>
        <time>2008-08-20T07:23:02Z</time>
      </trkpt>
      <trkpt lat="43.72126" lon="3.5898">
        <ele>215.27</ele>
        <time>2008-08-20T07:23:17Z</time>
      </trkpt>
      <trkpt lat="43.72131" lon="3.58972">
        <ele>218.397</ele>
        <time>2008-08-20T07:23:26Z</time>
      </trkpt>
      <trkpt lat="43.72134" lon="3.58968">
        <ele>218.423</ele>
        <time>2008-08-20T07:23:30Z</time>
      </trkpt>
      <trkpt lat="43.72142" lon="3.58951">
        <ele>220.724</ele>
        <time>2008-08-20T07:23:44Z</time>
      </trkpt>
      <trkpt lat="43.72148" lon="3.58942">
        <ele>223.922</ele>
        <time>2008-08-20T07:23:53Z</time>
      </trkpt>
      <trkpt lat="43.72151" lon="3.58936">
        <ele>225.438</ele>
        <time>2008-08-20T07:23:59Z</time>
      </trkpt>
      <trkpt lat="43.72153" lon="3.58921">
        <ele>227.849</ele>
        <time>2008-08-20T07:24:08Z</time>
      </trkpt>
      <trkpt lat="43.72159" lon="3.58906">
        <ele>230.058</ele>
        <time>2008-08-20T07:24:21Z</time>
      </trkpt>
      <trkpt lat="43.72161" lon="3.58891">
        <ele>232.06</ele>
        <time>2008-08-20T07:24:31Z</time>
      </trkpt>
      <trkpt lat="43.72163" lon="3.58887">
        <ele>233.505</ele>
        <time>2008-08-20T07:24:35Z</time>
      </trkpt>
      <trkpt lat="43.72165" lon="3.58885">
        <ele>233.539</ele>
        <time>2008-08-20T07:24:37Z</time>
      </trkpt>
      <trkpt lat="43.72172" lon="3.58871">
        <ele>235.8</ele>
        <time>2008-08-20T07:24:51Z</time>
      </trkpt>
      <trkpt lat="43.72179" lon="3.58863">
        <ele>236.682</ele>
        <time>2008-08-20T07:25:01Z</time>
      </trkpt>
      <trkpt lat="43.72182" lon="3.58863">
        <ele>240.09</ele>
        <time>2008-08-20T07:25:05Z</time>
      </trkpt>
      <trkpt lat="43.72185" lon="3.58864">
        <ele>241.184</ele>
        <time>2008-08-20T07:25:09Z</time>
      </trkpt>
      <trkpt lat="43.72189" lon="3.58861">
        <ele>242.306</ele>
        <time>2008-08-20T07:25:14Z</time>
      </trkpt>
      <trkpt lat="43.72191" lon="3.58859">
        <ele>242.738</ele>
        <time>2008-08-20T07:25:16Z</time>
      </trkpt>
      <trkpt lat="43.72196" lon="3.58842">
        <ele>244.704</ele>
        <time>2008-08-20T07:25:30Z</time>
      </trkpt>
      <trkpt lat="43.72201" lon="3.5883">
        <ele>247.113</ele>
        <time>2008-08-20T07:25:43Z</time>
      </trkpt>
      <trkpt lat="43.72203" lon="3.58827">
        <ele>247.177</ele>
        <time>2008-08-20T07:25:47Z</time>
      </trkpt>
      <trkpt lat="43.72204" lon="3.58823">
        <ele>249.021</ele>
        <time>2008-08-20T07:25:51Z</time>
      </trkpt>
      <trkpt lat="43.72208" lon="3.58806">
        <ele>249.722</ele>
        <time>2008-08-20T07:26:04Z</time>
      </trkpt>
      <trkpt lat="43.72211" lon="3.58792">
        <ele>251.192</ele>
        <time>2008-08-20T07:26:14Z</time>
      </trkpt>
      <trkpt lat="43.72213" lon="3.58775">
        <ele>253.704</ele>
        <time>2008-08-20T07:26:27Z</time>
      </trkpt>
      <trkpt lat="43.72219" lon="3.58762">
        <ele>255.953</ele>
        <time>2008-08-20T07:26:39Z</time>
      </trkpt>
      <trkpt lat="43.72221" lon="3.58751">
        <ele>257.232</ele>
        <time>2008-08-20T07:26:48Z</time>
      </trkpt>
      <trkpt lat="43.72222" lon="3.58733">
        <ele>259.33</ele>
        <time>2008-08-20T07:27:02Z</time>
      </trkpt>
      <trkpt lat="43.72222" lon="3.58714">
        <ele>261.164</ele>
        <time>2008-08-20T07:27:15Z</time>
      </trkpt>
      <trkpt lat="43.72226" lon="3.58696">
        <ele>262.622</ele>
        <time>2008-08-20T07:27:29Z</time>
      </trkpt>
      <trkpt lat="43.72227" lon="3.5868">
        <ele>263.452</ele>
        <time>2008-08-20T07:27:40Z</time>
      </trkpt>
      <trkpt lat="43.72227" lon="3.58679">
        <ele>263.636</ele>
        <time>2008-08-20T07:27:41Z</time>
      </trkpt>
      <trkpt lat="43.72238" lon="3.58667">
        <ele>265.021</ele>
        <time>2008-08-20T07:27:54Z</time>
      </trkpt>
      <trkpt lat="43.7224" lon="3.58663">
        <ele>266.355</ele>
        <time>2008-08-20T07:27:57Z</time>
      </trkpt>
      <trkpt lat="43.72247" lon="3.58644">
        <ele>268.685</ele>
        <time>2008-08-20T07:28:10Z</time>
      </trkpt>
      <trkpt lat="43.72253" lon="3.58629">
        <ele>270.93</ele>
        <time>2008-08-20T07:28:20Z</time>
      </trkpt>
      <trkpt lat="43.72264" lon="3.58615">
        <ele>271.373</ele>
        <time>2008-08-20T07:28:33Z</time>
      </trkpt>
      <trkpt lat="43.72275" lon="3.58607">
        <ele>273.572</ele>
        <time>2008-08-20T07:28:43Z</time>
      </trkpt>
      <trkpt lat="43.7228" lon="3.58604">
        <ele>275.398</ele>
        <time>2008-08-20T07:28:48Z</time>
      </trkpt>
      <trkpt lat="43.72284" lon="3.58601">
        <ele>273.932</ele>
        <time>2008-08-20T07:28:53Z</time>
      </trkpt>
      <trkpt lat="43.72286" lon="3.58598">
        <ele>276.81</ele>
        <time>2008-08-20T07:28:56Z</time>
      </trkpt>
      <trkpt lat="43.72288" lon="3.58595">
        <ele>277.241</ele>
        <time>2008-08-20T07:28:58Z</time>
      </trkpt>
      <trkpt lat="43.72295" lon="3.58577">
        <ele>277.942</ele>
        <time>2008-08-20T07:29:11Z</time>
      </trkpt>
      <trkpt lat="43.72296" lon="3.58572">
        <ele>278.375</ele>
        <time>2008-08-20T07:29:14Z</time>
      </trkpt>
      <trkpt lat="43.72299" lon="3.58546">
        <ele>278.722</ele>
        <time>2008-08-20T07:29:29Z</time>
      </trkpt>
      <trkpt lat="43.72309" lon="3.58531">
        <ele>280.114</ele>
        <time>2008-08-20T07:29:41Z</time>
      </trkpt>
      <trkpt lat="43.72313" lon="3.58527">
        <ele>280.836</ele>
        <time>2008-08-20T07:29:45Z</time>
      </trkpt>
      <trkpt lat="43.72318" lon="3.58523">
        <ele>282.575</ele>
        <time>2008-08-20T07:29:49Z</time>
      </trkpt>
      <trkpt lat="43.72327" lon="3.58516">
        <ele>281.831</ele>
        <time>2008-08-20T07:29:58Z</time>
      </trkpt>
      <trkpt lat="43.72331" lon="3.58512">
        <ele>282.001</ele>
        <time>2008-08-20T07:30:02Z</time>
      </trkpt>
      <trkpt lat="43.72347" lon="3.58505">
        <ele>283.728</ele>
        <time>2008-08-20T07:30:16Z</time>
      </trkpt>
      <trkpt lat="43.72348" lon="3.58504">
        <ele>283.737</ele>
        <time>2008-08-20T07:30:17Z</time>
      </trkpt>
      <trkpt lat="43.72359" lon="3.5849">
        <ele>284.825</ele>
        <time>2008-08-20T07:30:30Z</time>
      </trkpt>
      <trkpt lat="43.72374" lon="3.5848">
        <ele>285.73</ele>
        <time>2008-08-20T07:30:43Z</time>
      </trkpt>
      <trkpt lat="43.7238" lon="3.58477">
        <ele>287.422</ele>
        <time>2008-08-20T07:30:47Z</time>
      </trkpt>
      <trkpt lat="43.72383" lon="3.58476">
        <ele>284.894</ele>
        <time>2008-08-20T07:30:49Z</time>
      </trkpt>
      <trkpt lat="43.72393" lon="3.58464">
        <ele>284.979</ele>
        <time>2008-08-20T07:30:59Z</time>
      </trkpt>
      <trkpt lat="43.72404" lon="3.58458">
        <ele>285.517</ele>
        <time>2008-08-20T07:31:07Z</time>
      </trkpt>
      <trkpt lat="43.72419" lon="3.58448">
        <ele>286.615</ele>
        <time>2008-08-20T07:31:19Z</time>
      </trkpt>
      <trkpt lat="43.72426" lon="3.58445">
        <ele>285.757</ele>
        <time>2008-08-20T07:31:24Z</time>
      </trkpt>
      <trkpt lat="43.72442" lon="3.58437">
        <ele>285.993</ele>
        <time>2008-08-20T07:31:38Z</time>
      </trkpt>
      <trkpt lat="43.72447" lon="3.58433">
        <ele>286.818</ele>
        <time>2008-08-20T07:31:42Z</time>
      </trkpt>
      <trkpt lat="43.72452" lon="3.58428">
        <ele>286.585</ele>
        <time>2008-08-20T07:31:52Z</time>
      </trkpt>
      <trkpt lat="43.72451" lon="3.58429">
        <ele>287.524</ele>
        <time>2008-08-20T07:32:11Z</time>
      </trkpt>
      <trkpt lat="43.7245" lon="3.5843">
        <ele>286.247</ele>
        <time>2008-08-20T07:32:34Z</time>
      </trkpt>
      <trkpt lat="43.72451" lon="3.58432">
        <ele>286.129</ele>
        <time>2008-08-20T07:32:50Z</time>
      </trkpt>
      <trkpt lat="43.72452" lon="3.5843">
        <ele>285.84</ele>
        <time>2008-08-20T07:32:55Z</time>
      </trkpt>
      <trkpt lat="43.72454" lon="3.58428">
        <ele>286.778</ele>
        <time>2008-08-20T07:33:06Z</time>
      </trkpt>
      <trkpt lat="43.72456" lon="3.58426">
        <ele>287.035</ele>
        <time>2008-08-20T07:33:11Z</time>
      </trkpt>
      <trkpt lat="43.72461" lon="3.58423">
        <ele>285.755</ele>
        <time>2008-08-20T07:33:17Z</time>
      </trkpt>
      <trkpt lat="43.72465" lon="3.58419">
        <ele>287.255</ele>
        <time>2008-08-20T07:33:21Z</time>
      </trkpt>
      <trkpt lat="43.72475" lon="3.58407">
        <ele>286.29</ele>
        <time>2008-08-20T07:33:32Z</time>
      </trkpt>
      <trkpt lat="43.72479" lon="3.58405">
        <ele>286.385</ele>
        <time>2008-08-20T07:33:39Z</time>
      </trkpt>
      <trkpt lat="43.72485" lon="3.58397">
        <ele>285.455</ele>
        <time>2008-08-20T07:33:48Z</time>
      </trkpt>
      <trkpt lat="43.72488" lon="3.58389">
        <ele>285.106</ele>
        <time>2008-08-20T07:33:55Z</time>
      </trkpt>
      <trkpt lat="43.72492" lon="3.58378">
        <ele>285.053</ele>
        <time>2008-08-20T07:34:07Z</time>
      </trkpt>
      <trkpt lat="43.72495" lon="3.58369">
        <ele>285.016</ele>
        <time>2008-08-20T07:34:37Z</time>
      </trkpt>
      <trkpt lat="43.72499" lon="3.58358">
        <ele>283.238</ele>
        <time>2008-08-20T07:34:45Z</time>
      </trkpt>
      <trkpt lat="43.72501" lon="3.58356">
        <ele>283.738</ele>
        <time>2008-08-20T07:34:47Z</time>
      </trkpt>
      <trkpt lat="43.72507" lon="3.58337">
        <ele>283.529</ele>
        <time>2008-08-20T07:35:00Z</time>
      </trkpt>
      <trkpt lat="43.72518" lon="3.58321">
        <ele>282.87</ele>
        <time>2008-08-20T07:35:14Z</time>
      </trkpt>
      <trkpt lat="43.72526" lon="3.58313">
        <ele>282.501</ele>
        <time>2008-08-20T07:35:23Z</time>
      </trkpt>
      <trkpt lat="43.72535" lon="3.58303">
        <ele>282.136</ele>
        <time>2008-08-20T07:35:35Z</time>
      </trkpt>
      <trkpt lat="43.72541" lon="3.58297">
        <ele>282.256</ele>
        <time>2008-08-20T07:35:45Z</time>
      </trkpt>
      <trkpt lat="43.72554" lon="3.5829">
        <ele>281.14</ele>
        <time>2008-08-20T07:35:57Z</time>
      </trkpt>
      <trkpt lat="43.72563" lon="3.58283">
        <ele>281.227</ele>
        <time>2008-08-20T07:36:16Z</time>
      </trkpt>
      <trkpt lat="43.72563" lon="3.58282">
        <ele>281.63</ele>
        <time>2008-08-20T07:36:56Z</time>
      </trkpt>
      <trkpt lat="43.72574" lon="3.5827">
        <ele>281.161</ele>
        <time>2008-08-20T07:37:15Z</time>
      </trkpt>
      <trkpt lat="43.72595" lon="3.58258">
        <ele>281.577</ele>
        <time>2008-08-20T07:37:34Z</time>
      </trkpt>
      <trkpt lat="43.72614" lon="3.58253">
        <ele>281.186</ele>
        <time>2008-08-20T07:37:50Z</time>
      </trkpt>
      <trkpt lat="43.72623" lon="3.58254">
        <ele>280.908</ele>
        <time>2008-08-20T07:37:58Z</time>
      </trkpt>
      <trkpt lat="43.72629" lon="3.58251">
        <ele>279.759</ele>
        <time>2008-08-20T07:38:02Z</time>
      </trkpt>
      <trkpt lat="43.72641" lon="3.58242">
        <ele>280.087</ele>
        <time>2008-08-20T07:38:13Z</time>
      </trkpt>
      <trkpt lat="43.72653" lon="3.58234">
        <ele>278.33</ele>
        <time>2008-08-20T07:38:23Z</time>
      </trkpt>
      <trkpt lat="43.72655" lon="3.58231">
        <ele>278.711</ele>
        <time>2008-08-20T07:38:25Z</time>
      </trkpt>
      <trkpt lat="43.7266" lon="3.58222">
        <ele>277.307</ele>
        <time>2008-08-20T07:38:32Z</time>
      </trkpt>
      <trkpt lat="43.72647" lon="3.5821">
        <ele>279.155</ele>
        <time>2008-08-20T07:38:44Z</time>
      </trkpt>
      <trkpt lat="43.72644" lon="3.58209">
        <ele>279.209</ele>
        <time>2008-08-20T07:38:46Z</time>
      </trkpt>
      <trkpt lat="43.72638" lon="3.58205">
        <ele>278.542</ele>
        <time>2008-08-20T07:38:51Z</time>
      </trkpt>
      <trkpt lat="43.72617" lon="3.58194">
        <ele>278.922</ele>
        <time>2008-08-20T07:39:09Z</time>
      </trkpt>
      <trkpt lat="43.72598" lon="3.58177">
        <ele>278.928</ele>
        <time>2008-08-20T07:39:27Z</time>
      </trkpt>
      <trkpt lat="43.72586" lon="3.58157">
        <ele>280.665</ele>
        <time>2008-08-20T07:39:41Z</time>
      </trkpt>
      <trkpt lat="43.72583" lon="3.5815">
        <ele>280.312</ele>
        <time>2008-08-20T07:39:45Z</time>
      </trkpt>
      <trkpt lat="43.72579" lon="3.58141">
        <ele>280.865</ele>
        <time>2008-08-20T07:39:50Z</time>
      </trkpt>
      <trkpt lat="43.72575" lon="3.58135">
        <ele>280.526</ele>
        <time>2008-08-20T07:39:55Z</time>
      </trkpt>
      <trkpt lat="43.72563" lon="3.58107">
        <ele>280.496</ele>
        <time>2008-08-20T07:40:12Z</time>
      </trkpt>
      <trkpt lat="43.72562" lon="3.58106">
        <ele>280.35</ele>
        <time>2008-08-20T07:40:13Z</time>
      </trkpt>
      <trkpt lat="43.72557" lon="3.58098">
        <ele>280.673</ele>
        <time>2008-08-20T07:40:19Z</time>
      </trkpt>
      <trkpt lat="43.72542" lon="3.58076">
        <ele>280.684</ele>
        <time>2008-08-20T07:40:35Z</time>
      </trkpt>
      <trkpt lat="43.72527" lon="3.58052">
        <ele>281.056</ele>
        <time>2008-08-20T07:40:52Z</time>
      </trkpt>
      <trkpt lat="43.72515" lon="3.58029">
        <ele>280.892</ele>
        <time>2008-08-20T07:41:08Z</time>
      </trkpt>
      <trkpt lat="43.72503" lon="3.58011">
        <ele>280.098</ele>
        <time>2008-08-20T07:41:22Z</time>
      </trkpt>
      <trkpt lat="43.72487" lon="3.57997">
        <ele>279.862</ele>
        <time>2008-08-20T07:41:36Z</time>
      </trkpt>
      <trkpt lat="43.72485" lon="3.57996">
        <ele>280.011</ele>
        <time>2008-08-20T07:41:37Z</time>
      </trkpt>
      <trkpt lat="43.72473" lon="3.57988">
        <ele>279.679</ele>
        <time>2008-08-20T07:41:48Z</time>
      </trkpt>
      <trkpt lat="43.72454" lon="3.57972">
        <ele>279.487</ele>
        <time>2008-08-20T07:42:05Z</time>
      </trkpt>
      <trkpt lat="43.72439" lon="3.57957">
        <ele>279.267</ele>
        <time>2008-08-20T07:42:19Z</time>
      </trkpt>
      <trkpt lat="43.72427" lon="3.57942">
        <ele>279.61</ele>
        <time>2008-08-20T07:42:32Z</time>
      </trkpt>
      <trkpt lat="43.72421" lon="3.57935">
        <ele>279.47</ele>
        <time>2008-08-20T07:42:37Z</time>
      </trkpt>
      <trkpt lat="43.72416" lon="3.57925">
        <ele>279.506</ele>
        <time>2008-08-20T07:42:43Z</time>
      </trkpt>
      <trkpt lat="43.72413" lon="3.57896">
        <ele>281.213</ele>
        <time>2008-08-20T07:42:58Z</time>
      </trkpt>
      <trkpt lat="43.72406" lon="3.57865">
        <ele>280.96</ele>
        <time>2008-08-20T07:43:17Z</time>
      </trkpt>
      <trkpt lat="43.724" lon="3.57844">
        <ele>280.648</ele>
        <time>2008-08-20T07:43:27Z</time>
      </trkpt>
      <trkpt lat="43.724" lon="3.5782">
        <ele>280.759</ele>
        <time>2008-08-20T07:43:41Z</time>
      </trkpt>
      <trkpt lat="43.72403" lon="3.57796">
        <ele>282.523</ele>
        <time>2008-08-20T07:43:54Z</time>
      </trkpt>
      <trkpt lat="43.72409" lon="3.57767">
        <ele>283.471</ele>
        <time>2008-08-20T07:44:10Z</time>
      </trkpt>
      <trkpt lat="43.7241" lon="3.57761">
        <ele>282.931</ele>
        <time>2008-08-20T07:44:13Z</time>
      </trkpt>
      <trkpt lat="43.72405" lon="3.57733">
        <ele>285.401</ele>
        <time>2008-08-20T07:44:28Z</time>
      </trkpt>
      <trkpt lat="43.72405" lon="3.57719">
        <ele>285.152</ele>
        <time>2008-08-20T07:44:35Z</time>
      </trkpt>
      <trkpt lat="43.72405" lon="3.57704">
        <ele>284.164</ele>
        <time>2008-08-20T07:44:45Z</time>
      </trkpt>
      <trkpt lat="43.72406" lon="3.57678">
        <ele>283.304</ele>
        <time>2008-08-20T07:44:59Z</time>
      </trkpt>
      <trkpt lat="43.72403" lon="3.57653">
        <ele>282.803</ele>
        <time>2008-08-20T07:45:12Z</time>
      </trkpt>
      <trkpt lat="43.72402" lon="3.57649">
        <ele>282.579</ele>
        <time>2008-08-20T07:45:14Z</time>
      </trkpt>
      <trkpt lat="43.724" lon="3.57647">
        <ele>282.48</ele>
        <time>2008-08-20T07:45:16Z</time>
      </trkpt>
      <trkpt lat="43.72397" lon="3.57631">
        <ele>282.548</ele>
        <time>2008-08-20T07:45:25Z</time>
      </trkpt>
      <trkpt lat="43.72389" lon="3.57607">
        <ele>282.911</ele>
        <time>2008-08-20T07:45:38Z</time>
      </trkpt>
      <trkpt lat="43.72381" lon="3.57593">
        <ele>282.887</ele>
        <time>2008-08-20T07:45:47Z</time>
      </trkpt>
      <trkpt lat="43.72373" lon="3.57571">
        <ele>280.88</ele>
        <time>2008-08-20T07:46:01Z</time>
      </trkpt>
      <trkpt lat="43.72373" lon="3.57569">
        <ele>284.558</ele>
        <time>2008-08-20T07:46:02Z</time>
      </trkpt>
      <trkpt lat="43.72373" lon="3.57568">
        <ele>282.229</ele>
        <time>2008-08-20T07:46:03Z</time>
      </trkpt>
      <trkpt lat="43.72372" lon="3.57551">
        <ele>281.414</ele>
        <time>2008-08-20T07:46:13Z</time>
      </trkpt>
      <trkpt lat="43.72371" lon="3.57532">
        <ele>280.542</ele>
        <time>2008-08-20T07:46:23Z</time>
      </trkpt>
      <trkpt lat="43.72369" lon="3.57526">
        <ele>280.449</ele>
        <time>2008-08-20T07:46:26Z</time>
      </trkpt>
      <trkpt lat="43.72367" lon="3.57508">
        <ele>279.487</ele>
        <time>2008-08-20T07:46:37Z</time>
      </trkpt>
      <trkpt lat="43.72368" lon="3.57501">
        <ele>279.902</ele>
        <time>2008-08-20T07:46:41Z</time>
      </trkpt>
      <trkpt lat="43.72369" lon="3.57479">
        <ele>279.327</ele>
        <time>2008-08-20T07:46:53Z</time>
      </trkpt>
      <trkpt lat="43.72373" lon="3.57455">
        <ele>279.1</ele>
        <time>2008-08-20T07:47:05Z</time>
      </trkpt>
      <trkpt lat="43.72373" lon="3.57438">
        <ele>278.64</ele>
        <time>2008-08-20T07:47:17Z</time>
      </trkpt>
      <trkpt lat="43.72377" lon="3.57412">
        <ele>277.177</ele>
        <time>2008-08-20T07:47:30Z</time>
      </trkpt>
      <trkpt lat="43.72383" lon="3.57391">
        <ele>276.582</ele>
        <time>2008-08-20T07:47:43Z</time>
      </trkpt>
      <trkpt lat="43.72386" lon="3.5737">
        <ele>276.979</ele>
        <time>2008-08-20T07:47:56Z</time>
      </trkpt>
      <trkpt lat="43.72388" lon="3.5736">
        <ele>276.558</ele>
        <time>2008-08-20T07:48:02Z</time>
      </trkpt>
      <trkpt lat="43.72387" lon="3.57343">
        <ele>275.138</ele>
        <time>2008-08-20T07:48:12Z</time>
      </trkpt>
      <trkpt lat="43.72385" lon="3.5733">
        <ele>275.152</ele>
        <time>2008-08-20T07:48:19Z</time>
      </trkpt>
      <trkpt lat="43.72384" lon="3.57323">
        <ele>275.955</ele>
        <time>2008-08-20T07:48:23Z</time>
      </trkpt>
      <trkpt lat="43.72384" lon="3.57301">
        <ele>276.144</ele>
        <time>2008-08-20T07:48:35Z</time>
      </trkpt>
      <trkpt lat="43.72388" lon="3.57277">
        <ele>275.114</ele>
        <time>2008-08-20T07:48:49Z</time>
      </trkpt>
      <trkpt lat="43.72388" lon="3.57272">
        <ele>278.591</ele>
        <time>2008-08-20T07:48:52Z</time>
      </trkpt>
      <trkpt lat="43.72389" lon="3.57271">
        <ele>277.58</ele>
        <time>2008-08-20T07:48:53Z</time>
      </trkpt>
      <trkpt lat="43.7239" lon="3.57267">
        <ele>276.566</ele>
        <time>2008-08-20T07:48:55Z</time>
      </trkpt>
      <trkpt lat="43.72392" lon="3.57259">
        <ele>273.941</ele>
        <time>2008-08-20T07:49:00Z</time>
      </trkpt>
      <trkpt lat="43.72394" lon="3.57257">
        <ele>275.601</ele>
        <time>2008-08-20T07:49:02Z</time>
      </trkpt>
      <trkpt lat="43.72405" lon="3.57231">
        <ele>275.296</ele>
        <time>2008-08-20T07:49:19Z</time>
      </trkpt>
      <trkpt lat="43.72413" lon="3.57212">
        <ele>274.991</ele>
        <time>2008-08-20T07:49:32Z</time>
      </trkpt>
      <trkpt lat="43.72418" lon="3.57189">
        <ele>274.666</ele>
        <time>2008-08-20T07:49:46Z</time>
      </trkpt>
      <trkpt lat="43.72424" lon="3.57172">
        <ele>274.238</ele>
        <time>2008-08-20T07:49:59Z</time>
      </trkpt>
      <trkpt lat="43.72436" lon="3.57158">
        <ele>273.771</ele>
        <time>2008-08-20T07:50:09Z</time>
      </trkpt>
      <trkpt lat="43.72438" lon="3.57155">
        <ele>273.991</ele>
        <time>2008-08-20T07:50:11Z</time>
      </trkpt>
      <trkpt lat="43.72457" lon="3.57138">
        <ele>272.828</ele>
        <time>2008-08-20T07:50:30Z</time>
      </trkpt>
      <trkpt lat="43.72477" lon="3.57121">
        <ele>273.207</ele>
        <time>2008-08-20T07:50:48Z</time>
      </trkpt>
      <trkpt lat="43.72499" lon="3.57101">
        <ele>273.451</ele>
        <time>2008-08-20T07:51:07Z</time>
      </trkpt>
      <trkpt lat="43.725" lon="3.571">
        <ele>273.705</ele>
        <time>2008-08-20T07:51:08Z</time>
      </trkpt>
      <trkpt lat="43.72513" lon="3.57086">
        <ele>273.729</ele>
        <time>2008-08-20T07:51:20Z</time>
      </trkpt>
      <trkpt lat="43.72532" lon="3.57067">
        <ele>274.448</ele>
        <time>2008-08-20T07:51:37Z</time>
      </trkpt>
      <trkpt lat="43.72547" lon="3.57052">
        <ele>273.855</ele>
        <time>2008-08-20T07:51:51Z</time>
      </trkpt>
      <trkpt lat="43.72552" lon="3.57047">
        <ele>275.983</ele>
        <time>2008-08-20T07:51:56Z</time>
      </trkpt>
      <trkpt lat="43.72556" lon="3.57042">
        <ele>274.548</ele>
        <time>2008-08-20T07:52:00Z</time>
      </trkpt>
      <trkpt lat="43.7256" lon="3.57037">
        <ele>273.849</ele>
        <time>2008-08-20T07:52:04Z</time>
      </trkpt>
      <trkpt lat="43.72572" lon="3.57025">
        <ele>273.596</ele>
        <time>2008-08-20T07:52:15Z</time>
      </trkpt>
      <trkpt lat="43.72585" lon="3.57002">
        <ele>274.46</ele>
        <time>2008-08-20T07:52:31Z</time>
      </trkpt>
      <trkpt lat="43.72599" lon="3.56971">
        <ele>274.176</ele>
        <time>2008-08-20T07:52:49Z</time>
      </trkpt>
      <trkpt lat="43.72608" lon="3.5695">
        <ele>275.012</ele>
        <time>2008-08-20T07:53:02Z</time>
      </trkpt>
      <trkpt lat="43.72609" lon="3.56941">
        <ele>274.593</ele>
        <time>2008-08-20T07:53:08Z</time>
      </trkpt>
      <trkpt lat="43.72616" lon="3.56909">
        <ele>274.142</ele>
        <time>2008-08-20T07:53:26Z</time>
      </trkpt>
      <trkpt lat="43.72618" lon="3.56896">
        <ele>274.902</ele>
        <time>2008-08-20T07:53:33Z</time>
      </trkpt>
      <trkpt lat="43.72619" lon="3.56883">
        <ele>274.468</ele>
        <time>2008-08-20T07:53:40Z</time>
      </trkpt>
      <trkpt lat="43.72625" lon="3.56855">
        <ele>274.982</ele>
        <time>2008-08-20T07:53:55Z</time>
      </trkpt>
      <trkpt lat="43.72627" lon="3.5683">
        <ele>274.434</ele>
        <time>2008-08-20T07:54:08Z</time>
      </trkpt>
      <trkpt lat="43.72624" lon="3.56817">
        <ele>274.321</ele>
        <time>2008-08-20T07:54:16Z</time>
      </trkpt>
      <trkpt lat="43.72623" lon="3.56806">
        <ele>274.604</ele>
        <time>2008-08-20T07:54:22Z</time>
      </trkpt>
      <trkpt lat="43.72621" lon="3.56789">
        <ele>273.944</ele>
        <time>2008-08-20T07:54:31Z</time>
      </trkpt>
      <trkpt lat="43.72621" lon="3.5678">
        <ele>274.575</ele>
        <time>2008-08-20T07:54:36Z</time>
      </trkpt>
      <trkpt lat="43.72622" lon="3.5677">
        <ele>273.769</ele>
        <time>2008-08-20T07:54:41Z</time>
      </trkpt>
      <trkpt lat="43.72639" lon="3.56737">
        <ele>273.219</ele>
        <time>2008-08-20T07:54:57Z</time>
      </trkpt>
      <trkpt lat="43.72647" lon="3.56714">
        <ele>273.529</ele>
        <time>2008-08-20T07:55:10Z</time>
      </trkpt>
      <trkpt lat="43.72657" lon="3.5669">
        <ele>272.93</ele>
        <time>2008-08-20T07:55:24Z</time>
      </trkpt>
      <trkpt lat="43.72667" lon="3.56667">
        <ele>272.431</ele>
        <time>2008-08-20T07:55:37Z</time>
      </trkpt>
      <trkpt lat="43.72672" lon="3.56657">
        <ele>272.856</ele>
        <time>2008-08-20T07:55:43Z</time>
      </trkpt>
      <trkpt lat="43.72676" lon="3.5665">
        <ele>272.555</ele>
        <time>2008-08-20T07:55:48Z</time>
      </trkpt>
      <trkpt lat="43.72693" lon="3.56638">
        <ele>273.765</ele>
        <time>2008-08-20T07:56:03Z</time>
      </trkpt>
      <trkpt lat="43.72714" lon="3.56638">
        <ele>274.199</ele>
        <time>2008-08-20T07:56:17Z</time>
      </trkpt>
      <trkpt lat="43.72722" lon="3.56639">
        <ele>274.788</ele>
        <time>2008-08-20T07:56:22Z</time>
      </trkpt>
      <trkpt lat="43.72731" lon="3.56641">
        <ele>274.455</ele>
        <time>2008-08-20T07:56:26Z</time>
      </trkpt>
      <trkpt lat="43.72738" lon="3.56638">
        <ele>274.819</ele>
        <time>2008-08-20T07:56:36Z</time>
      </trkpt>
      <trkpt lat="43.72751" lon="3.56615">
        <ele>275.602</ele>
        <time>2008-08-20T07:56:53Z</time>
      </trkpt>
      <trkpt lat="43.72753" lon="3.56612">
        <ele>275.183</ele>
        <time>2008-08-20T07:56:55Z</time>
      </trkpt>
      <trkpt lat="43.72765" lon="3.56597">
        <ele>276.394</ele>
        <time>2008-08-20T07:57:07Z</time>
      </trkpt>
      <trkpt lat="43.72781" lon="3.56581">
        <ele>276.042</ele>
        <time>2008-08-20T07:57:22Z</time>
      </trkpt>
      <trkpt lat="43.72789" lon="3.5657">
        <ele>274.113</ele>
        <time>2008-08-20T07:57:32Z</time>
      </trkpt>
      <trkpt lat="43.72793" lon="3.56566">
        <ele>274.628</ele>
        <time>2008-08-20T07:57:36Z</time>
      </trkpt>
      <trkpt lat="43.728" lon="3.56551">
        <ele>274.479</ele>
        <time>2008-08-20T07:57:47Z</time>
      </trkpt>
      <trkpt lat="43.72801" lon="3.56541">
        <ele>274.559</ele>
        <time>2008-08-20T07:57:56Z</time>
      </trkpt>
      <trkpt lat="43.72806" lon="3.56519">
        <ele>274.551</ele>
        <time>2008-08-20T07:58:07Z</time>
      </trkpt>
      <trkpt lat="43.72806" lon="3.56518">
        <ele>274.97</ele>
        <time>2008-08-20T07:58:08Z</time>
      </trkpt>
      <trkpt lat="43.7281" lon="3.56494">
        <ele>275.181</ele>
        <time>2008-08-20T07:58:20Z</time>
      </trkpt>
      <trkpt lat="43.72813" lon="3.5647">
        <ele>275.903</ele>
        <time>2008-08-20T07:58:33Z</time>
      </trkpt>
      <trkpt lat="43.72815" lon="3.5645">
        <ele>276.396</ele>
        <time>2008-08-20T07:58:43Z</time>
      </trkpt>
      <trkpt lat="43.72816" lon="3.56444">
        <ele>275.544</ele>
        <time>2008-08-20T07:58:46Z</time>
      </trkpt>
      <trkpt lat="43.72815" lon="3.56416">
        <ele>275.825</ele>
        <time>2008-08-20T07:59:01Z</time>
      </trkpt>
      <trkpt lat="43.72815" lon="3.56402">
        <ele>275.594</ele>
        <time>2008-08-20T07:59:09Z</time>
      </trkpt>
      <trkpt lat="43.72815" lon="3.56391">
        <ele>275.998</ele>
        <time>2008-08-20T07:59:16Z</time>
      </trkpt>
      <trkpt lat="43.72826" lon="3.56362">
        <ele>276.011</ele>
        <time>2008-08-20T07:59:32Z</time>
      </trkpt>
      <trkpt lat="43.72836" lon="3.56335">
        <ele>275.949</ele>
        <time>2008-08-20T07:59:47Z</time>
      </trkpt>
      <trkpt lat="43.72839" lon="3.56317">
        <ele>276.175</ele>
        <time>2008-08-20T07:59:58Z</time>
      </trkpt>
      <trkpt lat="43.72841" lon="3.56303">
        <ele>276.899</ele>
        <time>2008-08-20T08:00:05Z</time>
      </trkpt>
      <trkpt lat="43.72837" lon="3.56288">
        <ele>276.32</ele>
        <time>2008-08-20T08:00:14Z</time>
      </trkpt>
      <trkpt lat="43.72837" lon="3.5628">
        <ele>275.99</ele>
        <time>2008-08-20T08:00:18Z</time>
      </trkpt>
      <trkpt lat="43.72838" lon="3.56263">
        <ele>276.822</ele>
        <time>2008-08-20T08:00:28Z</time>
      </trkpt>
      <trkpt lat="43.72839" lon="3.56261">
        <ele>277.032</ele>
        <time>2008-08-20T08:00:30Z</time>
      </trkpt>
      <trkpt lat="43.7284" lon="3.56262">
        <ele>276.244</ele>
        <time>2008-08-20T08:00:41Z</time>
      </trkpt>
      <trkpt lat="43.72843" lon="3.56262">
        <ele>277.566</ele>
        <time>2008-08-20T08:01:37Z</time>
      </trkpt>
      <trkpt lat="43.72843" lon="3.56262">
        <ele>275.847</ele>
        <time>2008-08-20T08:01:42Z</time>
      </trkpt>
      <trkpt lat="43.72845" lon="3.56263">
        <ele>278.89</ele>
        <time>2008-08-20T08:02:23Z</time>
      </trkpt>
      <trkpt lat="43.72846" lon="3.56263">
        <ele>278.185</ele>
        <time>2008-08-20T08:02:24Z</time>
      </trkpt>
      <trkpt lat="43.72852" lon="3.56265">
        <ele>278.164</ele>
        <time>2008-08-20T08:02:39Z</time>
      </trkpt>
      <trkpt lat="43.72868" lon="3.56271">
        <ele>278.172</ele>
        <time>2008-08-20T08:02:52Z</time>
      </trkpt>
      <trkpt lat="43.72884" lon="3.56278">
        <ele>278.381</ele>
        <time>2008-08-20T08:03:04Z</time>
      </trkpt>
      <trkpt lat="43.72888" lon="3.56279">
        <ele>278.368</ele>
        <time>2008-08-20T08:03:08Z</time>
      </trkpt>
      <trkpt lat="43.72892" lon="3.56279">
        <ele>278.519</ele>
        <time>2008-08-20T08:03:12Z</time>
      </trkpt>
      <trkpt lat="43.72898" lon="3.56279">
        <ele>278.147</ele>
        <time>2008-08-20T08:03:17Z</time>
      </trkpt>
      <trkpt lat="43.7291" lon="3.56266">
        <ele>277.375</ele>
        <time>2008-08-20T08:03:31Z</time>
      </trkpt>
      <trkpt lat="43.72917" lon="3.5626">
        <ele>277.297</ele>
        <time>2008-08-20T08:03:36Z</time>
      </trkpt>
      <trkpt lat="43.72923" lon="3.56253">
        <ele>277.123</ele>
        <time>2008-08-20T08:03:42Z</time>
      </trkpt>
      <trkpt lat="43.72926" lon="3.56251">
        <ele>277.444</ele>
        <time>2008-08-20T08:03:46Z</time>
      </trkpt>
      <trkpt lat="43.72928" lon="3.56246">
        <ele>277.348</ele>
        <time>2008-08-20T08:03:49Z</time>
      </trkpt>
      <trkpt lat="43.72943" lon="3.56228">
        <ele>276.74</ele>
        <time>2008-08-20T08:04:04Z</time>
      </trkpt>
      <trkpt lat="43.72954" lon="3.56215">
        <ele>276.245</ele>
        <time>2008-08-20T08:04:17Z</time>
      </trkpt>
      <trkpt lat="43.72963" lon="3.56205">
        <ele>275.95</ele>
        <time>2008-08-20T08:04:26Z</time>
      </trkpt>
      <trkpt lat="43.72971" lon="3.56202">
        <ele>276.031</ele>
        <time>2008-08-20T08:04:32Z</time>
      </trkpt>
      <trkpt lat="43.7298" lon="3.56203">
        <ele>275.51</ele>
        <time>2008-08-20T08:04:38Z</time>
      </trkpt>
      <trkpt lat="43.73" lon="3.56209">
        <ele>276.121</ele>
        <time>2008-08-20T08:04:52Z</time>
      </trkpt>
      <trkpt lat="43.73021" lon="3.56213">
        <ele>276.57</ele>
        <time>2008-08-20T08:05:08Z</time>
      </trkpt>
      <trkpt lat="43.73037" lon="3.56199">
        <ele>277.556</ele>
        <time>2008-08-20T08:05:22Z</time>
      </trkpt>
      <trkpt lat="43.73055" lon="3.5618">
        <ele>277.035</ele>
        <time>2008-08-20T08:05:39Z</time>
      </trkpt>
      <trkpt lat="43.73071" lon="3.56167">
        <ele>278.477</ele>
        <time>2008-08-20T08:05:53Z</time>
      </trkpt>
      <trkpt lat="43.73082" lon="3.56156">
        <ele>278.983</ele>
        <time>2008-08-20T08:06:04Z</time>
      </trkpt>
      <trkpt lat="43.73094" lon="3.56139">
        <ele>280.519</ele>
        <time>2008-08-20T08:06:16Z</time>
      </trkpt>
      <trkpt lat="43.73095" lon="3.56137">
        <ele>280.557</ele>
        <time>2008-08-20T08:06:17Z</time>
      </trkpt>
      <trkpt lat="43.73099" lon="3.56128">
        <ele>281.395</ele>
        <time>2008-08-20T08:06:23Z</time>
      </trkpt>
      <trkpt lat="43.73102" lon="3.56115">
        <ele>281.685</ele>
        <time>2008-08-20T08:06:30Z</time>
      </trkpt>
      <trkpt lat="43.73107" lon="3.56099">
        <ele>281.261</ele>
        <time>2008-08-20T08:06:39Z</time>
      </trkpt>
      <trkpt lat="43.73107" lon="3.56092">
        <ele>282.68</ele>
        <time>2008-08-20T08:06:42Z</time>
      </trkpt>
      <trkpt lat="43.73107" lon="3.56089">
        <ele>282.442</ele>
        <time>2008-08-20T08:06:44Z</time>
      </trkpt>
      <trkpt lat="43.73107" lon="3.56084">
        <ele>282.132</ele>
        <time>2008-08-20T08:06:47Z</time>
      </trkpt>
      <trkpt lat="43.73113" lon="3.56079">
        <ele>282.869</ele>
        <time>2008-08-20T08:06:52Z</time>
      </trkpt>
      <trkpt lat="43.73112" lon="3.5607">
        <ele>282.333</ele>
        <time>2008-08-20T08:06:57Z</time>
      </trkpt>
      <trkpt lat="43.7311" lon="3.56058">
        <ele>282.808</ele>
        <time>2008-08-20T08:07:02Z</time>
      </trkpt>
      <trkpt lat="43.73114" lon="3.56048">
        <ele>283.519</ele>
        <time>2008-08-20T08:07:09Z</time>
      </trkpt>
      <trkpt lat="43.73124" lon="3.5604">
        <ele>284.397</ele>
        <time>2008-08-20T08:07:19Z</time>
      </trkpt>
      <trkpt lat="43.73127" lon="3.56037">
        <ele>284.742</ele>
        <time>2008-08-20T08:07:22Z</time>
      </trkpt>
      <trkpt lat="43.73134" lon="3.56033">
        <ele>285.537</ele>
        <time>2008-08-20T08:07:27Z</time>
      </trkpt>
      <trkpt lat="43.73148" lon="3.56026">
        <ele>286.193</ele>
        <time>2008-08-20T08:07:38Z</time>
      </trkpt>
      <trkpt lat="43.73163" lon="3.56016">
        <ele>286.474</ele>
        <time>2008-08-20T08:07:53Z</time>
      </trkpt>
      <trkpt lat="43.73173" lon="3.56012">
        <ele>285.945</ele>
        <time>2008-08-20T08:08:01Z</time>
      </trkpt>
      <trkpt lat="43.73191" lon="3.56016">
        <ele>286.587</ele>
        <time>2008-08-20T08:08:16Z</time>
      </trkpt>
      <trkpt lat="43.73198" lon="3.56004">
        <ele>284.678</ele>
        <time>2008-08-20T08:08:29Z</time>
      </trkpt>
      <trkpt lat="43.73201" lon="3.55997">
        <ele>285.739</ele>
        <time>2008-08-20T08:08:40Z</time>
      </trkpt>
      <trkpt lat="43.73203" lon="3.55995">
        <ele>285.259</ele>
        <time>2008-08-20T08:08:52Z</time>
      </trkpt>
      <trkpt lat="43.73203" lon="3.55994">
        <ele>285.238</ele>
        <time>2008-08-20T08:09:12Z</time>
      </trkpt>
      <trkpt lat="43.73203" lon="3.55994">
        <ele>285.077</ele>
        <time>2008-08-20T08:09:35Z</time>
      </trkpt>
      <trkpt lat="43.73203" lon="3.55994">
        <ele>285.386</ele>
        <time>2008-08-20T08:10:01Z</time>
      </trkpt>
      <trkpt lat="43.73204" lon="3.55992">
        <ele>286.101</ele>
        <time>2008-08-20T08:10:27Z</time>
      </trkpt>
      <trkpt lat="43.73204" lon="3.55991">
        <ele>283.472</ele>
        <time>2008-08-20T08:10:46Z</time>
      </trkpt>
      <trkpt lat="43.73204" lon="3.55992">
        <ele>283.385</ele>
        <time>2008-08-20T08:11:16Z</time>
      </trkpt>
      <trkpt lat="43.73204" lon="3.55991">
        <ele>284.631</ele>
        <time>2008-08-20T08:11:59Z</time>
      </trkpt>
      <trkpt lat="43.73204" lon="3.55991">
        <ele>285.584</ele>
        <time>2008-08-20T08:12:27Z</time>
      </trkpt>
      <trkpt lat="43.73204" lon="3.5599">
        <ele>285.731</ele>
        <time>2008-08-20T08:13:11Z</time>
      </trkpt>
      <trkpt lat="43.73203" lon="3.5599">
        <ele>282.426</ele>
        <time>2008-08-20T08:13:23Z</time>
      </trkpt>
      <trkpt lat="43.73203" lon="3.55991">
        <ele>286.22</ele>
        <time>2008-08-20T08:13:29Z</time>
      </trkpt>
      <trkpt lat="43.73203" lon="3.55992">
        <ele>286.133</ele>
        <time>2008-08-20T08:13:30Z</time>
      </trkpt>
      <trkpt lat="43.73203" lon="3.55994">
        <ele>285.624</ele>
        <time>2008-08-20T08:13:32Z</time>
      </trkpt>
      <trkpt lat="43.73203" lon="3.55997">
        <ele>286.295</ele>
        <time>2008-08-20T08:13:46Z</time>
      </trkpt>
      <trkpt lat="43.73204" lon="3.55999">
        <ele>287.156</ele>
        <time>2008-08-20T08:14:20Z</time>
      </trkpt>
      <trkpt lat="43.73204" lon="3.55999">
        <ele>284.59</ele>
        <time>2008-08-20T08:14:23Z</time>
      </trkpt>
      <trkpt lat="43.73204" lon="3.55999">
        <ele>284.4</ele>
        <time>2008-08-20T08:14:31Z</time>
      </trkpt>
      <trkpt lat="43.73201" lon="3.55999">
        <ele>285.436</ele>
        <time>2008-08-20T08:14:59Z</time>
      </trkpt>
      <trkpt lat="43.73204" lon="3.55998">
        <ele>284.368</ele>
        <time>2008-08-20T08:15:28Z</time>
      </trkpt>
      <trkpt lat="43.73203" lon="3.55998">
        <ele>286.551</ele>
        <time>2008-08-20T08:16:30Z</time>
      </trkpt>
      <trkpt lat="43.73201" lon="3.55998">
        <ele>285.419</ele>
        <time>2008-08-20T08:16:45Z</time>
      </trkpt>
      <trkpt lat="43.73201" lon="3.55998">
        <ele>285.799</ele>
        <time>2008-08-20T08:17:14Z</time>
      </trkpt>
      <trkpt lat="43.73202" lon="3.55998">
        <ele>286.865</ele>
        <time>2008-08-20T08:17:31Z</time>
      </trkpt>
      <trkpt lat="43.73202" lon="3.55996">
        <ele>285.535</ele>
        <time>2008-08-20T08:17:48Z</time>
      </trkpt>
      <trkpt lat="43.73202" lon="3.55996">
        <ele>284.885</ele>
        <time>2008-08-20T08:18:18Z</time>
      </trkpt>
      <trkpt lat="43.73202" lon="3.55997">
        <ele>279.173</ele>
        <time>2008-08-20T08:18:34Z</time>
      </trkpt>
      <trkpt lat="43.73202" lon="3.55997">
        <ele>288.953</ele>
        <time>2008-08-20T08:18:35Z</time>
      </trkpt>
      <trkpt lat="43.73202" lon="3.55997">
        <ele>284.328</ele>
        <time>2008-08-20T08:18:36Z</time>
      </trkpt>
      <trkpt lat="43.73202" lon="3.55997">
        <ele>278.118</ele>
        <time>2008-08-20T08:18:54Z</time>
      </trkpt>
      <trkpt lat="43.73202" lon="3.55997">
        <ele>281.09</ele>
        <time>2008-08-20T08:18:55Z</time>
      </trkpt>
      <trkpt lat="43.73202" lon="3.55997">
        <ele>284.632</ele>
        <time>2008-08-20T08:18:56Z</time>
      </trkpt>
      <trkpt lat="43.73203" lon="3.55997">
        <ele>283.281</ele>
        <time>2008-08-20T08:18:57Z</time>
      </trkpt>
      <trkpt lat="43.73203" lon="3.55997">
        <ele>286.565</ele>
        <time>2008-08-20T08:19:00Z</time>
      </trkpt>
      <trkpt lat="43.73203" lon="3.55998">
        <ele>286.568</ele>
        <time>2008-08-20T08:19:01Z</time>
      </trkpt>
      <trkpt lat="43.73203" lon="3.55998">
        <ele>282.277</ele>
        <time>2008-08-20T08:19:02Z</time>
      </trkpt>
      <trkpt lat="43.73203" lon="3.55999">
        <ele>283.914</ele>
        <time>2008-08-20T08:19:03Z</time>
      </trkpt>
      <trkpt lat="43.73202" lon="3.56">
        <ele>287.402</ele>
        <time>2008-08-20T08:19:04Z</time>
      </trkpt>
      <trkpt lat="43.73201" lon="3.56">
        <ele>286.933</ele>
        <time>2008-08-20T08:19:05Z</time>
      </trkpt>
      <trkpt lat="43.73199" lon="3.5601">
        <ele>286.949</ele>
        <time>2008-08-20T08:19:16Z</time>
      </trkpt>
      <trkpt lat="43.732" lon="3.56012">
        <ele>285.378</ele>
        <time>2008-08-20T08:19:37Z</time>
      </trkpt>
      <trkpt lat="43.732" lon="3.56013">
        <ele>284.78</ele>
        <time>2008-08-20T08:19:49Z</time>
      </trkpt>
      <trkpt lat="43.732" lon="3.56019">
        <ele>285.815</ele>
        <time>2008-08-20T08:19:54Z</time>
      </trkpt>
      <trkpt lat="43.73197" lon="3.5602">
        <ele>285.537</ele>
        <time>2008-08-20T08:19:57Z</time>
      </trkpt>
      <trkpt lat="43.7319" lon="3.56022">
        <ele>285.601</ele>
        <time>2008-08-20T08:20:02Z</time>
      </trkpt>
      <trkpt lat="43.73185" lon="3.56019">
        <ele>286.076</ele>
        <time>2008-08-20T08:20:07Z</time>
      </trkpt>
      <trkpt lat="43.73172" lon="3.56016">
        <ele>285.924</ele>
        <time>2008-08-20T08:20:21Z</time>
      </trkpt>
      <trkpt lat="43.73169" lon="3.56017">
        <ele>286.064</ele>
        <time>2008-08-20T08:20:24Z</time>
      </trkpt>
      <trkpt lat="43.73156" lon="3.56027">
        <ele>285.38</ele>
        <time>2008-08-20T08:20:38Z</time>
      </trkpt>
      <trkpt lat="43.73143" lon="3.56033">
        <ele>285.057</ele>
        <time>2008-08-20T08:20:53Z</time>
      </trkpt>
      <trkpt lat="43.73141" lon="3.56034">
        <ele>284.433</ele>
        <time>2008-08-20T08:20:55Z</time>
      </trkpt>
      <trkpt lat="43.73128" lon="3.56042">
        <ele>284.928</ele>
        <time>2008-08-20T08:21:07Z</time>
      </trkpt>
      <trkpt lat="43.73123" lon="3.56045">
        <ele>284.525</ele>
        <time>2008-08-20T08:21:12Z</time>
      </trkpt>
      <trkpt lat="43.73112" lon="3.56062">
        <ele>283.571</ele>
        <time>2008-08-20T08:21:27Z</time>
      </trkpt>
      <trkpt lat="43.73112" lon="3.56064">
        <ele>283.564</ele>
        <time>2008-08-20T08:21:28Z</time>
      </trkpt>
      <trkpt lat="43.73109" lon="3.56085">
        <ele>282.799</ele>
        <time>2008-08-20T08:21:40Z</time>
      </trkpt>
      <trkpt lat="43.73108" lon="3.56088">
        <ele>283.311</ele>
        <time>2008-08-20T08:21:42Z</time>
      </trkpt>
      <trkpt lat="43.73107" lon="3.56102">
        <ele>282.796</ele>
        <time>2008-08-20T08:21:51Z</time>
      </trkpt>
      <trkpt lat="43.73107" lon="3.56106">
        <ele>282.029</ele>
        <time>2008-08-20T08:21:53Z</time>
      </trkpt>
      <trkpt lat="43.73103" lon="3.56114">
        <ele>281.497</ele>
        <time>2008-08-20T08:22:00Z</time>
      </trkpt>
      <trkpt lat="43.73101" lon="3.56119">
        <ele>280.149</ele>
        <time>2008-08-20T08:22:03Z</time>
      </trkpt>
      <trkpt lat="43.73101" lon="3.56127">
        <ele>279.798</ele>
        <time>2008-08-20T08:22:09Z</time>
      </trkpt>
      <trkpt lat="43.73096" lon="3.56148">
        <ele>279.319</ele>
        <time>2008-08-20T08:22:24Z</time>
      </trkpt>
      <trkpt lat="43.73085" lon="3.56162">
        <ele>278.45</ele>
        <time>2008-08-20T08:22:36Z</time>
      </trkpt>
      <trkpt lat="43.73078" lon="3.5617">
        <ele>278.303</ele>
        <time>2008-08-20T08:22:46Z</time>
      </trkpt>
      <trkpt lat="43.73066" lon="3.56177">
        <ele>277.366</ele>
        <time>2008-08-20T08:22:56Z</time>
      </trkpt>
      <trkpt lat="43.73057" lon="3.56182">
        <ele>277.245</ele>
        <time>2008-08-20T08:23:03Z</time>
      </trkpt>
      <trkpt lat="43.7305" lon="3.56191">
        <ele>276.664</ele>
        <time>2008-08-20T08:23:10Z</time>
      </trkpt>
      <trkpt lat="43.73037" lon="3.56204">
        <ele>276.572</ele>
        <time>2008-08-20T08:23:24Z</time>
      </trkpt>
      <trkpt lat="43.73032" lon="3.56208">
        <ele>276.265</ele>
        <time>2008-08-20T08:23:29Z</time>
      </trkpt>
      <trkpt lat="43.73029" lon="3.56212">
        <ele>276.122</ele>
        <time>2008-08-20T08:23:33Z</time>
      </trkpt>
      <trkpt lat="43.73009" lon="3.56216">
        <ele>275.366</ele>
        <time>2008-08-20T08:23:51Z</time>
      </trkpt>
      <trkpt lat="43.73008" lon="3.56216">
        <ele>275.575</ele>
        <time>2008-08-20T08:23:53Z</time>
      </trkpt>
      <trkpt lat="43.72995" lon="3.56208">
        <ele>275.444</ele>
        <time>2008-08-20T08:24:05Z</time>
      </trkpt>
      <trkpt lat="43.72981" lon="3.56206">
        <ele>274.908</ele>
        <time>2008-08-20T08:24:17Z</time>
      </trkpt>
      <trkpt lat="43.72979" lon="3.56206">
        <ele>274.672</ele>
        <time>2008-08-20T08:24:19Z</time>
      </trkpt>
      <trkpt lat="43.72965" lon="3.56212">
        <ele>274.696</ele>
        <time>2008-08-20T08:24:30Z</time>
      </trkpt>
      <trkpt lat="43.72953" lon="3.56222">
        <ele>274.335</ele>
        <time>2008-08-20T08:24:43Z</time>
      </trkpt>
      <trkpt lat="43.72938" lon="3.56234">
        <ele>275.162</ele>
        <time>2008-08-20T08:25:00Z</time>
      </trkpt>
      <trkpt lat="43.72928" lon="3.56249">
        <ele>275.333</ele>
        <time>2008-08-20T08:25:12Z</time>
      </trkpt>
      <trkpt lat="43.72927" lon="3.56251">
        <ele>275.525</ele>
        <time>2008-08-20T08:25:14Z</time>
      </trkpt>
      <trkpt lat="43.72923" lon="3.56256">
        <ele>274.797</ele>
        <time>2008-08-20T08:25:18Z</time>
      </trkpt>
      <trkpt lat="43.72919" lon="3.5626">
        <ele>275.957</ele>
        <time>2008-08-20T08:25:22Z</time>
      </trkpt>
      <trkpt lat="43.7291" lon="3.5628">
        <ele>275.46</ele>
        <time>2008-08-20T08:25:36Z</time>
      </trkpt>
      <trkpt lat="43.72911" lon="3.56286">
        <ele>275.836</ele>
        <time>2008-08-20T08:25:40Z</time>
      </trkpt>
      <trkpt lat="43.72912" lon="3.56289">
        <ele>276.053</ele>
        <time>2008-08-20T08:25:43Z</time>
      </trkpt>
      <trkpt lat="43.72921" lon="3.56294">
        <ele>275.473</ele>
        <time>2008-08-20T08:25:53Z</time>
      </trkpt>
      <trkpt lat="43.72921" lon="3.56294">
        <ele>275.049</ele>
        <time>2008-08-20T08:25:54Z</time>
      </trkpt>
      <trkpt lat="43.72923" lon="3.56295">
        <ele>275.275</ele>
        <time>2008-08-20T08:25:56Z</time>
      </trkpt>
      <trkpt lat="43.72932" lon="3.56296">
        <ele>274.538</ele>
        <time>2008-08-20T08:26:04Z</time>
      </trkpt>
      <trkpt lat="43.72945" lon="3.563">
        <ele>275.255</ele>
        <time>2008-08-20T08:26:16Z</time>
      </trkpt>
      <trkpt lat="43.72946" lon="3.56301">
        <ele>275.031</ele>
        <time>2008-08-20T08:26:17Z</time>
      </trkpt>
      <trkpt lat="43.72956" lon="3.56307">
        <ele>275.193</ele>
        <time>2008-08-20T08:26:27Z</time>
      </trkpt>
      <trkpt lat="43.72967" lon="3.56312">
        <ele>275.947</ele>
        <time>2008-08-20T08:26:39Z</time>
      </trkpt>
      <trkpt lat="43.72977" lon="3.56315">
        <ele>276.1</ele>
        <time>2008-08-20T08:26:48Z</time>
      </trkpt>
      <trkpt lat="43.72979" lon="3.56316">
        <ele>276.503</ele>
        <time>2008-08-20T08:26:49Z</time>
      </trkpt>
      <trkpt lat="43.72982" lon="3.56316">
        <ele>276.022</ele>
        <time>2008-08-20T08:26:52Z</time>
      </trkpt>
      <trkpt lat="43.7299" lon="3.56317">
        <ele>276.784</ele>
        <time>2008-08-20T08:27:03Z</time>
      </trkpt>
      <trkpt lat="43.7299" lon="3.56316">
        <ele>277.543</ele>
        <time>2008-08-20T08:27:18Z</time>
      </trkpt>
      <trkpt lat="43.72991" lon="3.56318">
        <ele>275.753</ele>
        <time>2008-08-20T08:27:19Z</time>
      </trkpt>
      <trkpt lat="43.73004" lon="3.56326">
        <ele>277.876</ele>
        <time>2008-08-20T08:27:34Z</time>
      </trkpt>
      <trkpt lat="43.73024" lon="3.56333">
        <ele>276.641</ele>
        <time>2008-08-20T08:27:55Z</time>
      </trkpt>
      <trkpt lat="43.73046" lon="3.56341">
        <ele>277.044</ele>
        <time>2008-08-20T08:28:18Z</time>
      </trkpt>
      <trkpt lat="43.73057" lon="3.56347">
        <ele>275.869</ele>
        <time>2008-08-20T08:28:30Z</time>
      </trkpt>
      <trkpt lat="43.73069" lon="3.56351">
        <ele>276.752</ele>
        <time>2008-08-20T08:28:41Z</time>
      </trkpt>
      <trkpt lat="43.73086" lon="3.56358">
        <ele>277.77</ele>
        <time>2008-08-20T08:28:56Z</time>
      </trkpt>
      <trkpt lat="43.73104" lon="3.56363">
        <ele>278.623</ele>
        <time>2008-08-20T08:29:11Z</time>
      </trkpt>
      <trkpt lat="43.73121" lon="3.56371">
        <ele>279.107</ele>
        <time>2008-08-20T08:29:28Z</time>
      </trkpt>
      <trkpt lat="43.73124" lon="3.56372">
        <ele>280.638</ele>
        <time>2008-08-20T08:29:32Z</time>
      </trkpt>
      <trkpt lat="43.73133" lon="3.56377">
        <ele>281.398</ele>
        <time>2008-08-20T08:29:46Z</time>
      </trkpt>
      <trkpt lat="43.73155" lon="3.56385">
        <ele>281.979</ele>
        <time>2008-08-20T08:30:06Z</time>
      </trkpt>
      <trkpt lat="43.73178" lon="3.56393">
        <ele>283.2</ele>
        <time>2008-08-20T08:30:27Z</time>
      </trkpt>
      <trkpt lat="43.73195" lon="3.56399">
        <ele>284.301</ele>
        <time>2008-08-20T08:30:43Z</time>
      </trkpt>
      <trkpt lat="43.73204" lon="3.56403">
        <ele>284.147</ele>
        <time>2008-08-20T08:30:51Z</time>
      </trkpt>
      <trkpt lat="43.73222" lon="3.5641">
        <ele>283.66</ele>
        <time>2008-08-20T08:31:07Z</time>
      </trkpt>
      <trkpt lat="43.73226" lon="3.56411">
        <ele>285.284</ele>
        <time>2008-08-20T08:31:10Z</time>
      </trkpt>
      <trkpt lat="43.7324" lon="3.56416">
        <ele>285.532</ele>
        <time>2008-08-20T08:31:23Z</time>
      </trkpt>
      <trkpt lat="43.73253" lon="3.56419">
        <ele>285.493</ele>
        <time>2008-08-20T08:31:40Z</time>
      </trkpt>
      <trkpt lat="43.73253" lon="3.5642">
        <ele>285.788</ele>
        <time>2008-08-20T08:31:41Z</time>
      </trkpt>
      <trkpt lat="43.73253" lon="3.56423">
        <ele>285.4</ele>
        <time>2008-08-20T08:31:52Z</time>
      </trkpt>
      <trkpt lat="43.73252" lon="3.56422">
        <ele>286.57</ele>
        <time>2008-08-20T08:32:04Z</time>
      </trkpt>
      <trkpt lat="43.73252" lon="3.56422">
        <ele>283.537</ele>
        <time>2008-08-20T08:32:05Z</time>
      </trkpt>
      <trkpt lat="43.73252" lon="3.56422">
        <ele>286.659</ele>
        <time>2008-08-20T08:32:06Z</time>
      </trkpt>
      <trkpt lat="43.73252" lon="3.56422">
        <ele>283.115</ele>
        <time>2008-08-20T08:32:07Z</time>
      </trkpt>
      <trkpt lat="43.73252" lon="3.56421">
        <ele>286.488</ele>
        <time>2008-08-20T08:32:12Z</time>
      </trkpt>
      <trkpt lat="43.73254" lon="3.56422">
        <ele>284.212</ele>
        <time>2008-08-20T08:32:30Z</time>
      </trkpt>
      <trkpt lat="43.73262" lon="3.56425">
        <ele>284.821</ele>
        <time>2008-08-20T08:32:43Z</time>
      </trkpt>
      <trkpt lat="43.73282" lon="3.56433">
        <ele>284.375</ele>
        <time>2008-08-20T08:33:01Z</time>
      </trkpt>
      <trkpt lat="43.73283" lon="3.56434">
        <ele>284.693</ele>
        <time>2008-08-20T08:33:13Z</time>
      </trkpt>
      <trkpt lat="43.73293" lon="3.5644">
        <ele>283.576</ele>
        <time>2008-08-20T08:33:27Z</time>
      </trkpt>
      <trkpt lat="43.733" lon="3.56444">
        <ele>282.688</ele>
        <time>2008-08-20T08:33:33Z</time>
      </trkpt>
      <trkpt lat="43.73304" lon="3.56446">
        <ele>282.573</ele>
        <time>2008-08-20T08:33:37Z</time>
      </trkpt>
      <trkpt lat="43.7332" lon="3.56449">
        <ele>282.222</ele>
        <time>2008-08-20T08:33:52Z</time>
      </trkpt>
      <trkpt lat="43.73331" lon="3.56453">
        <ele>281.573</ele>
        <time>2008-08-20T08:34:03Z</time>
      </trkpt>
      <trkpt lat="43.73351" lon="3.56463">
        <ele>280.428</ele>
        <time>2008-08-20T08:34:21Z</time>
      </trkpt>
      <trkpt lat="43.73359" lon="3.56469">
        <ele>280.789</ele>
        <time>2008-08-20T08:34:28Z</time>
      </trkpt>
      <trkpt lat="43.73363" lon="3.56469">
        <ele>280.221</ele>
        <time>2008-08-20T08:34:31Z</time>
      </trkpt>
      <trkpt lat="43.73365" lon="3.5647">
        <ele>280.433</ele>
        <time>2008-08-20T08:34:33Z</time>
      </trkpt>
      <trkpt lat="43.73369" lon="3.56472">
        <ele>279.87</ele>
        <time>2008-08-20T08:34:37Z</time>
      </trkpt>
      <trkpt lat="43.73389" lon="3.5648">
        <ele>280.99</ele>
        <time>2008-08-20T08:34:54Z</time>
      </trkpt>
      <trkpt lat="43.73403" lon="3.56486">
        <ele>280.725</ele>
        <time>2008-08-20T08:35:06Z</time>
      </trkpt>
      <trkpt lat="43.7342" lon="3.56492">
        <ele>280.333</ele>
        <time>2008-08-20T08:35:20Z</time>
      </trkpt>
      <trkpt lat="43.73435" lon="3.56498">
        <ele>280.255</ele>
        <time>2008-08-20T08:35:33Z</time>
      </trkpt>
      <trkpt lat="43.73442" lon="3.56501">
        <ele>279.418</ele>
        <time>2008-08-20T08:35:38Z</time>
      </trkpt>
      <trkpt lat="43.73458" lon="3.56504">
        <ele>278.787</ele>
        <time>2008-08-20T08:35:55Z</time>
      </trkpt>
      <trkpt lat="43.73465" lon="3.56506">
        <ele>278.64</ele>
        <time>2008-08-20T08:36:06Z</time>
      </trkpt>
      <trkpt lat="43.73476" lon="3.5651">
        <ele>279.141</ele>
        <time>2008-08-20T08:36:18Z</time>
      </trkpt>
      <trkpt lat="43.73488" lon="3.56515">
        <ele>277.523</ele>
        <time>2008-08-20T08:36:28Z</time>
      </trkpt>
      <trkpt lat="43.73494" lon="3.56517">
        <ele>279.255</ele>
        <time>2008-08-20T08:36:33Z</time>
      </trkpt>
      <trkpt lat="43.73517" lon="3.56526">
        <ele>279.01</ele>
        <time>2008-08-20T08:36:53Z</time>
      </trkpt>
      <trkpt lat="43.73522" lon="3.56529">
        <ele>278.983</ele>
        <time>2008-08-20T08:36:58Z</time>
      </trkpt>
      <trkpt lat="43.73527" lon="3.56529">
        <ele>278.639</ele>
        <time>2008-08-20T08:37:03Z</time>
      </trkpt>
      <trkpt lat="43.7354" lon="3.56535">
        <ele>277.934</ele>
        <time>2008-08-20T08:37:15Z</time>
      </trkpt>
      <trkpt lat="43.73541" lon="3.56535">
        <ele>277.258</ele>
        <time>2008-08-20T08:37:16Z</time>
      </trkpt>
      <trkpt lat="43.73547" lon="3.56538">
        <ele>277.503</ele>
        <time>2008-08-20T08:37:22Z</time>
      </trkpt>
      <trkpt lat="43.73566" lon="3.56545">
        <ele>277.033</ele>
        <time>2008-08-20T08:37:38Z</time>
      </trkpt>
      <trkpt lat="43.73579" lon="3.56551">
        <ele>277.09</ele>
        <time>2008-08-20T08:37:50Z</time>
      </trkpt>
      <trkpt lat="43.73585" lon="3.56553">
        <ele>277.03</ele>
        <time>2008-08-20T08:37:54Z</time>
      </trkpt>
      <trkpt lat="43.73592" lon="3.56556">
        <ele>277.4</ele>
        <time>2008-08-20T08:38:01Z</time>
      </trkpt>
      <trkpt lat="43.73595" lon="3.56557">
        <ele>277.694</ele>
        <time>2008-08-20T08:38:04Z</time>
      </trkpt>
      <trkpt lat="43.73604" lon="3.5656">
        <ele>277.901</ele>
        <time>2008-08-20T08:38:11Z</time>
      </trkpt>
      <trkpt lat="43.73622" lon="3.56569">
        <ele>277.789</ele>
        <time>2008-08-20T08:38:26Z</time>
      </trkpt>
      <trkpt lat="43.73624" lon="3.56568">
        <ele>277.793</ele>
        <time>2008-08-20T08:38:30Z</time>
      </trkpt>
      <trkpt lat="43.73622" lon="3.56567">
        <ele>278.73</ele>
        <time>2008-08-20T08:38:40Z</time>
      </trkpt>
      <trkpt lat="43.73625" lon="3.56569">
        <ele>278.795</ele>
        <time>2008-08-20T08:38:49Z</time>
      </trkpt>
      <trkpt lat="43.73631" lon="3.56574">
        <ele>279.289</ele>
        <time>2008-08-20T08:38:54Z</time>
      </trkpt>
      <trkpt lat="43.73644" lon="3.56579">
        <ele>279.957</ele>
        <time>2008-08-20T08:39:08Z</time>
      </trkpt>
      <trkpt lat="43.73648" lon="3.56581">
        <ele>279.931</ele>
        <time>2008-08-20T08:39:12Z</time>
      </trkpt>
      <trkpt lat="43.7365" lon="3.56583">
        <ele>279.75</ele>
        <time>2008-08-20T08:39:14Z</time>
      </trkpt>
      <trkpt lat="43.73673" lon="3.56589">
        <ele>279.889</ele>
        <time>2008-08-20T08:39:31Z</time>
      </trkpt>
      <trkpt lat="43.73676" lon="3.56592">
        <ele>280.123</ele>
        <time>2008-08-20T08:39:36Z</time>
      </trkpt>
      <trkpt lat="43.73679" lon="3.56593">
        <ele>280.656</ele>
        <time>2008-08-20T08:39:38Z</time>
      </trkpt>
      <trkpt lat="43.73682" lon="3.56596">
        <ele>279.772</ele>
        <time>2008-08-20T08:39:42Z</time>
      </trkpt>
      <trkpt lat="43.73695" lon="3.56601">
        <ele>280</ele>
        <time>2008-08-20T08:39:52Z</time>
      </trkpt>
      <trkpt lat="43.73703" lon="3.56603">
        <ele>280.28</ele>
        <time>2008-08-20T08:39:58Z</time>
      </trkpt>
      <trkpt lat="43.73713" lon="3.56607">
        <ele>280.156</ele>
        <time>2008-08-20T08:40:05Z</time>
      </trkpt>
      <trkpt lat="43.73728" lon="3.56611">
        <ele>279.37</ele>
        <time>2008-08-20T08:40:17Z</time>
      </trkpt>
      <trkpt lat="43.73741" lon="3.56614">
        <ele>278.073</ele>
        <time>2008-08-20T08:40:31Z</time>
      </trkpt>
      <trkpt lat="43.73748" lon="3.56626">
        <ele>277.429</ele>
        <time>2008-08-20T08:40:48Z</time>
      </trkpt>
      <trkpt lat="43.73755" lon="3.56644">
        <ele>276.327</ele>
        <time>2008-08-20T08:41:06Z</time>
      </trkpt>
      <trkpt lat="43.73752" lon="3.5666">
        <ele>276.56</ele>
        <time>2008-08-20T08:41:22Z</time>
      </trkpt>
      <trkpt lat="43.7375" lon="3.56674">
        <ele>277.653</ele>
        <time>2008-08-20T08:41:39Z</time>
      </trkpt>
      <trkpt lat="43.73749" lon="3.56686">
        <ele>277.943</ele>
        <time>2008-08-20T08:41:48Z</time>
      </trkpt>
      <trkpt lat="43.73749" lon="3.5669">
        <ele>278.341</ele>
        <time>2008-08-20T08:41:51Z</time>
      </trkpt>
      <trkpt lat="43.73751" lon="3.56712">
        <ele>278.549</ele>
        <time>2008-08-20T08:42:08Z</time>
      </trkpt>
      <trkpt lat="43.73751" lon="3.56719">
        <ele>277.911</ele>
        <time>2008-08-20T08:42:13Z</time>
      </trkpt>
      <trkpt lat="43.7375" lon="3.56724">
        <ele>279.234</ele>
        <time>2008-08-20T08:42:16Z</time>
      </trkpt>
      <trkpt lat="43.73749" lon="3.5673">
        <ele>277.916</ele>
        <time>2008-08-20T08:42:20Z</time>
      </trkpt>
      <trkpt lat="43.73748" lon="3.56739">
        <ele>279.215</ele>
        <time>2008-08-20T08:42:26Z</time>
      </trkpt>
      <trkpt lat="43.73748" lon="3.56744">
        <ele>278.797</ele>
        <time>2008-08-20T08:42:30Z</time>
      </trkpt>
      <trkpt lat="43.73748" lon="3.56747">
        <ele>279.148</ele>
        <time>2008-08-20T08:42:32Z</time>
      </trkpt>
      <trkpt lat="43.73747" lon="3.56754">
        <ele>280.073</ele>
        <time>2008-08-20T08:42:36Z</time>
      </trkpt>
      <trkpt lat="43.73747" lon="3.56758">
        <ele>279.393</ele>
        <time>2008-08-20T08:42:39Z</time>
      </trkpt>
      <trkpt lat="43.73745" lon="3.56781">
        <ele>279.481</ele>
        <time>2008-08-20T08:42:54Z</time>
      </trkpt>
      <trkpt lat="43.73741" lon="3.56792">
        <ele>279.334</ele>
        <time>2008-08-20T08:43:02Z</time>
      </trkpt>
      <trkpt lat="43.73741" lon="3.56803">
        <ele>280.256</ele>
        <time>2008-08-20T08:43:09Z</time>
      </trkpt>
      <trkpt lat="43.73734" lon="3.56814">
        <ele>279.674</ele>
        <time>2008-08-20T08:43:18Z</time>
      </trkpt>
      <trkpt lat="43.73726" lon="3.56834">
        <ele>279.504</ele>
        <time>2008-08-20T08:43:31Z</time>
      </trkpt>
      <trkpt lat="43.73724" lon="3.56849">
        <ele>279.466</ele>
        <time>2008-08-20T08:43:41Z</time>
      </trkpt>
      <trkpt lat="43.73713" lon="3.56869">
        <ele>278.722</ele>
        <time>2008-08-20T08:43:56Z</time>
      </trkpt>
      <trkpt lat="43.73705" lon="3.56888">
        <ele>280.399</ele>
        <time>2008-08-20T08:44:10Z</time>
      </trkpt>
      <trkpt lat="43.73704" lon="3.56891">
        <ele>279.853</ele>
        <time>2008-08-20T08:44:12Z</time>
      </trkpt>
      <trkpt lat="43.73703" lon="3.56902">
        <ele>280.596</ele>
        <time>2008-08-20T08:44:19Z</time>
      </trkpt>
      <trkpt lat="43.73696" lon="3.56922">
        <ele>280.103</ele>
        <time>2008-08-20T08:44:32Z</time>
      </trkpt>
      <trkpt lat="43.73696" lon="3.56924">
        <ele>280.249</ele>
        <time>2008-08-20T08:44:33Z</time>
      </trkpt>
      <trkpt lat="43.73696" lon="3.56933">
        <ele>280.387</ele>
        <time>2008-08-20T08:44:37Z</time>
      </trkpt>
      <trkpt lat="43.737" lon="3.56952">
        <ele>279.662</ele>
        <time>2008-08-20T08:44:48Z</time>
      </trkpt>
      <trkpt lat="43.73701" lon="3.56962">
        <ele>278.843</ele>
        <time>2008-08-20T08:44:55Z</time>
      </trkpt>
      <trkpt lat="43.73697" lon="3.56968">
        <ele>278.446</ele>
        <time>2008-08-20T08:44:59Z</time>
      </trkpt>
      <trkpt lat="43.73695" lon="3.5697">
        <ele>278.652</ele>
        <time>2008-08-20T08:45:01Z</time>
      </trkpt>
      <trkpt lat="43.73694" lon="3.56973">
        <ele>278.583</ele>
        <time>2008-08-20T08:45:04Z</time>
      </trkpt>
      <trkpt lat="43.73688" lon="3.56984">
        <ele>278.026</ele>
        <time>2008-08-20T08:45:11Z</time>
      </trkpt>
      <trkpt lat="43.73685" lon="3.56986">
        <ele>277.95</ele>
        <time>2008-08-20T08:45:14Z</time>
      </trkpt>
      <trkpt lat="43.73683" lon="3.5699">
        <ele>277.707</ele>
        <time>2008-08-20T08:45:17Z</time>
      </trkpt>
      <trkpt lat="43.73676" lon="3.57007">
        <ele>278.084</ele>
        <time>2008-08-20T08:45:29Z</time>
      </trkpt>
      <trkpt lat="43.73674" lon="3.57032">
        <ele>277.325</ele>
        <time>2008-08-20T08:45:43Z</time>
      </trkpt>
      <trkpt lat="43.73674" lon="3.57034">
        <ele>277.838</ele>
        <time>2008-08-20T08:45:45Z</time>
      </trkpt>
      <trkpt lat="43.73673" lon="3.5704">
        <ele>277.841</ele>
        <time>2008-08-20T08:45:49Z</time>
      </trkpt>
      <trkpt lat="43.73676" lon="3.57065">
        <ele>277.019</ele>
        <time>2008-08-20T08:46:03Z</time>
      </trkpt>
      <trkpt lat="43.73675" lon="3.57078">
        <ele>276.445</ele>
        <time>2008-08-20T08:46:12Z</time>
      </trkpt>
      <trkpt lat="43.73673" lon="3.57081">
        <ele>276.228</ele>
        <time>2008-08-20T08:46:14Z</time>
      </trkpt>
      <trkpt lat="43.73672" lon="3.57086">
        <ele>275.577</ele>
        <time>2008-08-20T08:46:18Z</time>
      </trkpt>
      <trkpt lat="43.7367" lon="3.57091">
        <ele>276.567</ele>
        <time>2008-08-20T08:46:22Z</time>
      </trkpt>
      <trkpt lat="43.73669" lon="3.57099">
        <ele>276.645</ele>
        <time>2008-08-20T08:46:26Z</time>
      </trkpt>
      <trkpt lat="43.73667" lon="3.57109">
        <ele>277.148</ele>
        <time>2008-08-20T08:46:33Z</time>
      </trkpt>
      <trkpt lat="43.73662" lon="3.57122">
        <ele>275.582</ele>
        <time>2008-08-20T08:46:45Z</time>
      </trkpt>
      <trkpt lat="43.7366" lon="3.57125">
        <ele>275.438</ele>
        <time>2008-08-20T08:46:49Z</time>
      </trkpt>
      <trkpt lat="43.73654" lon="3.5713">
        <ele>275.448</ele>
        <time>2008-08-20T08:46:56Z</time>
      </trkpt>
      <trkpt lat="43.73651" lon="3.57132">
        <ele>274.943</ele>
        <time>2008-08-20T08:46:58Z</time>
      </trkpt>
      <trkpt lat="43.73648" lon="3.57138">
        <ele>274.947</ele>
        <time>2008-08-20T08:47:02Z</time>
      </trkpt>
      <trkpt lat="43.73645" lon="3.57143">
        <ele>274.49</ele>
        <time>2008-08-20T08:47:07Z</time>
      </trkpt>
      <trkpt lat="43.73637" lon="3.57162">
        <ele>273.513</ele>
        <time>2008-08-20T08:47:19Z</time>
      </trkpt>
      <trkpt lat="43.73634" lon="3.57168">
        <ele>273.712</ele>
        <time>2008-08-20T08:47:23Z</time>
      </trkpt>
      <trkpt lat="43.73632" lon="3.57178">
        <ele>273.917</ele>
        <time>2008-08-20T08:47:30Z</time>
      </trkpt>
      <trkpt lat="43.7363" lon="3.57182">
        <ele>273.836</ele>
        <time>2008-08-20T08:47:33Z</time>
      </trkpt>
      <trkpt lat="43.7363" lon="3.57189">
        <ele>273.614</ele>
        <time>2008-08-20T08:47:38Z</time>
      </trkpt>
      <trkpt lat="43.73626" lon="3.57205">
        <ele>272.767</ele>
        <time>2008-08-20T08:47:47Z</time>
      </trkpt>
      <trkpt lat="43.73627" lon="3.57209">
        <ele>273.885</ele>
        <time>2008-08-20T08:47:49Z</time>
      </trkpt>
      <trkpt lat="43.73623" lon="3.57236">
        <ele>274.108</ele>
        <time>2008-08-20T08:48:04Z</time>
      </trkpt>
      <trkpt lat="43.73614" lon="3.57275">
        <ele>274.037</ele>
        <time>2008-08-20T08:48:28Z</time>
      </trkpt>
      <trkpt lat="43.73605" lon="3.57306">
        <ele>274.836</ele>
        <time>2008-08-20T08:48:47Z</time>
      </trkpt>
      <trkpt lat="43.73592" lon="3.57326">
        <ele>275.303</ele>
        <time>2008-08-20T08:49:00Z</time>
      </trkpt>
      <trkpt lat="43.7359" lon="3.5733">
        <ele>274.709</ele>
        <time>2008-08-20T08:49:03Z</time>
      </trkpt>
      <trkpt lat="43.73582" lon="3.57349">
        <ele>275.747</ele>
        <time>2008-08-20T08:49:15Z</time>
      </trkpt>
      <trkpt lat="43.73577" lon="3.57356">
        <ele>276.184</ele>
        <time>2008-08-20T08:49:19Z</time>
      </trkpt>
      <trkpt lat="43.73574" lon="3.57366">
        <ele>275.83</ele>
        <time>2008-08-20T08:49:24Z</time>
      </trkpt>
      <trkpt lat="43.73566" lon="3.57384">
        <ele>276.011</ele>
        <time>2008-08-20T08:49:36Z</time>
      </trkpt>
      <trkpt lat="43.73564" lon="3.5739">
        <ele>275.939</ele>
        <time>2008-08-20T08:49:40Z</time>
      </trkpt>
      <trkpt lat="43.73561" lon="3.57395">
        <ele>276.69</ele>
        <time>2008-08-20T08:49:43Z</time>
      </trkpt>
      <trkpt lat="43.73558" lon="3.574">
        <ele>277.202</ele>
        <time>2008-08-20T08:49:47Z</time>
      </trkpt>
      <trkpt lat="43.73554" lon="3.57409">
        <ele>278.351</ele>
        <time>2008-08-20T08:49:53Z</time>
      </trkpt>
      <trkpt lat="43.73546" lon="3.57414">
        <ele>278.237</ele>
        <time>2008-08-20T08:50:00Z</time>
      </trkpt>
      <trkpt lat="43.73533" lon="3.57412">
        <ele>279.004</ele>
        <time>2008-08-20T08:50:09Z</time>
      </trkpt>
      <trkpt lat="43.7352" lon="3.57409">
        <ele>278.813</ele>
        <time>2008-08-20T08:50:20Z</time>
      </trkpt>
      <trkpt lat="43.73514" lon="3.57409">
        <ele>278.876</ele>
        <time>2008-08-20T08:50:25Z</time>
      </trkpt>
      <trkpt lat="43.73511" lon="3.57408">
        <ele>279.375</ele>
        <time>2008-08-20T08:50:28Z</time>
      </trkpt>
      <trkpt lat="43.735" lon="3.57403">
        <ele>280.171</ele>
        <time>2008-08-20T08:50:36Z</time>
      </trkpt>
      <trkpt lat="43.73482" lon="3.57397">
        <ele>280.462</ele>
        <time>2008-08-20T08:50:50Z</time>
      </trkpt>
      <trkpt lat="43.73477" lon="3.57397">
        <ele>280.051</ele>
        <time>2008-08-20T08:50:54Z</time>
      </trkpt>
      <trkpt lat="43.73464" lon="3.57392">
        <ele>280.306</ele>
        <time>2008-08-20T08:51:05Z</time>
      </trkpt>
      <trkpt lat="43.73444" lon="3.57388">
        <ele>280.177</ele>
        <time>2008-08-20T08:51:21Z</time>
      </trkpt>
      <trkpt lat="43.73443" lon="3.57388">
        <ele>280.89</ele>
        <time>2008-08-20T08:51:22Z</time>
      </trkpt>
      <trkpt lat="43.73433" lon="3.57387">
        <ele>281.524</ele>
        <time>2008-08-20T08:51:29Z</time>
      </trkpt>
      <trkpt lat="43.7343" lon="3.57385">
        <ele>281.58</ele>
        <time>2008-08-20T08:51:31Z</time>
      </trkpt>
      <trkpt lat="43.73415" lon="3.5738">
        <ele>281.576</ele>
        <time>2008-08-20T08:51:41Z</time>
      </trkpt>
      <trkpt lat="43.73402" lon="3.57375">
        <ele>281.944</ele>
        <time>2008-08-20T08:51:52Z</time>
      </trkpt>
      <trkpt lat="43.73398" lon="3.57369">
        <ele>281.801</ele>
        <time>2008-08-20T08:51:57Z</time>
      </trkpt>
      <trkpt lat="43.73389" lon="3.57356">
        <ele>282.511</ele>
        <time>2008-08-20T08:52:08Z</time>
      </trkpt>
      <trkpt lat="43.73387" lon="3.57351">
        <ele>282.438</ele>
        <time>2008-08-20T08:52:13Z</time>
      </trkpt>
      <trkpt lat="43.7338" lon="3.57339">
        <ele>282.404</ele>
        <time>2008-08-20T08:52:22Z</time>
      </trkpt>
      <trkpt lat="43.73367" lon="3.57323">
        <ele>281.976</ele>
        <time>2008-08-20T08:52:36Z</time>
      </trkpt>
      <trkpt lat="43.73352" lon="3.57305">
        <ele>282.637</ele>
        <time>2008-08-20T08:52:49Z</time>
      </trkpt>
      <trkpt lat="43.73342" lon="3.57293">
        <ele>282.805</ele>
        <time>2008-08-20T08:53:00Z</time>
      </trkpt>
      <trkpt lat="43.73341" lon="3.57292">
        <ele>282.788</ele>
        <time>2008-08-20T08:53:01Z</time>
      </trkpt>
      <trkpt lat="43.73335" lon="3.57286">
        <ele>282.084</ele>
        <time>2008-08-20T08:53:07Z</time>
      </trkpt>
      <trkpt lat="43.73328" lon="3.57279">
        <ele>282.328</ele>
        <time>2008-08-20T08:53:13Z</time>
      </trkpt>
      <trkpt lat="43.73315" lon="3.57265">
        <ele>281.492</ele>
        <time>2008-08-20T08:53:24Z</time>
      </trkpt>
      <trkpt lat="43.73303" lon="3.57252">
        <ele>282.372</ele>
        <time>2008-08-20T08:53:37Z</time>
      </trkpt>
      <trkpt lat="43.7329" lon="3.5724">
        <ele>283.258</ele>
        <time>2008-08-20T08:53:51Z</time>
      </trkpt>
      <trkpt lat="43.73271" lon="3.57223">
        <ele>284.192</ele>
        <time>2008-08-20T08:54:04Z</time>
      </trkpt>
      <trkpt lat="43.7327" lon="3.57221">
        <ele>283.312</ele>
        <time>2008-08-20T08:54:06Z</time>
      </trkpt>
      <trkpt lat="43.73267" lon="3.57215">
        <ele>283.968</ele>
        <time>2008-08-20T08:54:10Z</time>
      </trkpt>
      <trkpt lat="43.73264" lon="3.57212">
        <ele>283.944</ele>
        <time>2008-08-20T08:54:13Z</time>
      </trkpt>
      <trkpt lat="43.73263" lon="3.57209">
        <ele>283.394</ele>
        <time>2008-08-20T08:54:16Z</time>
      </trkpt>
      <trkpt lat="43.73245" lon="3.57191">
        <ele>283.3</ele>
        <time>2008-08-20T08:54:33Z</time>
      </trkpt>
      <trkpt lat="43.73228" lon="3.57173">
        <ele>283.831</ele>
        <time>2008-08-20T08:54:46Z</time>
      </trkpt>
      <trkpt lat="43.73209" lon="3.57158">
        <ele>283.345</ele>
        <time>2008-08-20T08:55:03Z</time>
      </trkpt>
      <trkpt lat="43.73188" lon="3.57145">
        <ele>283.718</ele>
        <time>2008-08-20T08:55:20Z</time>
      </trkpt>
      <trkpt lat="43.73178" lon="3.57138">
        <ele>283.2</ele>
        <time>2008-08-20T08:55:28Z</time>
      </trkpt>
      <trkpt lat="43.73171" lon="3.57133">
        <ele>283.034</ele>
        <time>2008-08-20T08:55:33Z</time>
      </trkpt>
      <trkpt lat="43.73165" lon="3.57128">
        <ele>283.688</ele>
        <time>2008-08-20T08:55:39Z</time>
      </trkpt>
      <trkpt lat="43.73145" lon="3.57112">
        <ele>283.822</ele>
        <time>2008-08-20T08:55:56Z</time>
      </trkpt>
      <trkpt lat="43.73138" lon="3.57106">
        <ele>284.296</ele>
        <time>2008-08-20T08:56:01Z</time>
      </trkpt>
      <trkpt lat="43.73115" lon="3.57094">
        <ele>284.782</ele>
        <time>2008-08-20T08:56:18Z</time>
      </trkpt>
      <trkpt lat="43.73093" lon="3.57104">
        <ele>286.269</ele>
        <time>2008-08-20T08:56:35Z</time>
      </trkpt>
      <trkpt lat="43.73079" lon="3.5713">
        <ele>288.332</ele>
        <time>2008-08-20T08:56:54Z</time>
      </trkpt>
      <trkpt lat="43.73077" lon="3.5714">
        <ele>288.609</ele>
        <time>2008-08-20T08:57:00Z</time>
      </trkpt>
      <trkpt lat="43.73074" lon="3.57154">
        <ele>286.77</ele>
        <time>2008-08-20T08:57:08Z</time>
      </trkpt>
      <trkpt lat="43.73071" lon="3.57174">
        <ele>288.089</ele>
        <time>2008-08-20T08:57:19Z</time>
      </trkpt>
      <trkpt lat="43.73067" lon="3.57198">
        <ele>288.806</ele>
        <time>2008-08-20T08:57:31Z</time>
      </trkpt>
      <trkpt lat="43.73066" lon="3.57205">
        <ele>289.782</ele>
        <time>2008-08-20T08:57:35Z</time>
      </trkpt>
      <trkpt lat="43.73061" lon="3.57237">
        <ele>291.44</ele>
        <time>2008-08-20T08:57:52Z</time>
      </trkpt>
      <trkpt lat="43.73056" lon="3.57266">
        <ele>290.29</ele>
        <time>2008-08-20T08:58:09Z</time>
      </trkpt>
      <trkpt lat="43.73052" lon="3.57281">
        <ele>291.009</ele>
        <time>2008-08-20T08:58:18Z</time>
      </trkpt>
      <trkpt lat="43.73049" lon="3.57293">
        <ele>290.992</ele>
        <time>2008-08-20T08:58:25Z</time>
      </trkpt>
      <trkpt lat="43.73047" lon="3.57302">
        <ele>291.662</ele>
        <time>2008-08-20T08:58:31Z</time>
      </trkpt>
      <trkpt lat="43.73041" lon="3.57329">
        <ele>291.928</ele>
        <time>2008-08-20T08:58:45Z</time>
      </trkpt>
      <trkpt lat="43.73038" lon="3.57337">
        <ele>291.243</ele>
        <time>2008-08-20T08:58:50Z</time>
      </trkpt>
      <trkpt lat="43.73028" lon="3.57359">
        <ele>291.332</ele>
        <time>2008-08-20T08:59:03Z</time>
      </trkpt>
      <trkpt lat="43.73027" lon="3.57363">
        <ele>292.303</ele>
        <time>2008-08-20T08:59:06Z</time>
      </trkpt>
      <trkpt lat="43.73023" lon="3.57375">
        <ele>292.392</ele>
        <time>2008-08-20T08:59:17Z</time>
      </trkpt>
      <trkpt lat="43.73022" lon="3.57391">
        <ele>293.278</ele>
        <time>2008-08-20T08:59:39Z</time>
      </trkpt>
      <trkpt lat="43.73022" lon="3.57392">
        <ele>292.861</ele>
        <time>2008-08-20T08:59:40Z</time>
      </trkpt>
      <trkpt lat="43.73018" lon="3.57427">
        <ele>293.608</ele>
        <time>2008-08-20T09:00:02Z</time>
      </trkpt>
      <trkpt lat="43.73014" lon="3.5744">
        <ele>293.561</ele>
        <time>2008-08-20T09:00:12Z</time>
      </trkpt>
      <trkpt lat="43.73011" lon="3.57451">
        <ele>294.013</ele>
        <time>2008-08-20T09:00:19Z</time>
      </trkpt>
      <trkpt lat="43.73008" lon="3.57459">
        <ele>293.253</ele>
        <time>2008-08-20T09:00:24Z</time>
      </trkpt>
      <trkpt lat="43.73006" lon="3.57464">
        <ele>292.92</ele>
        <time>2008-08-20T09:00:28Z</time>
      </trkpt>
      <trkpt lat="43.73004" lon="3.5747">
        <ele>292.999</ele>
        <time>2008-08-20T09:00:32Z</time>
      </trkpt>
      <trkpt lat="43.73003" lon="3.57473">
        <ele>292.968</ele>
        <time>2008-08-20T09:00:34Z</time>
      </trkpt>
      <trkpt lat="43.72998" lon="3.57488">
        <ele>293.203</ele>
        <time>2008-08-20T09:00:42Z</time>
      </trkpt>
      <trkpt lat="43.72989" lon="3.57509">
        <ele>292.256</ele>
        <time>2008-08-20T09:00:56Z</time>
      </trkpt>
      <trkpt lat="43.72985" lon="3.5752">
        <ele>291.935</ele>
        <time>2008-08-20T09:01:03Z</time>
      </trkpt>
      <trkpt lat="43.72976" lon="3.57546">
        <ele>292.076</ele>
        <time>2008-08-20T09:01:18Z</time>
      </trkpt>
      <trkpt lat="43.72976" lon="3.57565">
        <ele>292.24</ele>
        <time>2008-08-20T09:01:28Z</time>
      </trkpt>
      <trkpt lat="43.72977" lon="3.57567">
        <ele>292.737</ele>
        <time>2008-08-20T09:01:29Z</time>
      </trkpt>
      <trkpt lat="43.72976" lon="3.57597">
        <ele>292.248</ele>
        <time>2008-08-20T09:01:45Z</time>
      </trkpt>
      <trkpt lat="43.72975" lon="3.57619">
        <ele>292.058</ele>
        <time>2008-08-20T09:01:57Z</time>
      </trkpt>
      <trkpt lat="43.72976" lon="3.57623">
        <ele>291.76</ele>
        <time>2008-08-20T09:01:59Z</time>
      </trkpt>
      <trkpt lat="43.72975" lon="3.57633">
        <ele>292.086</ele>
        <time>2008-08-20T09:02:05Z</time>
      </trkpt>
      <trkpt lat="43.72974" lon="3.5764">
        <ele>292.09</ele>
        <time>2008-08-20T09:02:09Z</time>
      </trkpt>
      <trkpt lat="43.72973" lon="3.57651">
        <ele>292.522</ele>
        <time>2008-08-20T09:02:16Z</time>
      </trkpt>
      <trkpt lat="43.72973" lon="3.57675">
        <ele>292.713</ele>
        <time>2008-08-20T09:02:29Z</time>
      </trkpt>
      <trkpt lat="43.72974" lon="3.57679">
        <ele>292.795</ele>
        <time>2008-08-20T09:02:32Z</time>
      </trkpt>
      <trkpt lat="43.72974" lon="3.57688">
        <ele>292.61</ele>
        <time>2008-08-20T09:02:44Z</time>
      </trkpt>
      <trkpt lat="43.72973" lon="3.57691">
        <ele>293.022</ele>
        <time>2008-08-20T09:02:53Z</time>
      </trkpt>
      <trkpt lat="43.72967" lon="3.57693">
        <ele>295.955</ele>
        <time>2008-08-20T09:02:59Z</time>
      </trkpt>
      <trkpt lat="43.72966" lon="3.57694">
        <ele>291.58</ele>
        <time>2008-08-20T09:03:00Z</time>
      </trkpt>
      <trkpt lat="43.72966" lon="3.57694">
        <ele>292.167</ele>
        <time>2008-08-20T09:03:01Z</time>
      </trkpt>
      <trkpt lat="43.72965" lon="3.57695">
        <ele>293.75</ele>
        <time>2008-08-20T09:03:03Z</time>
      </trkpt>
      <trkpt lat="43.72963" lon="3.57697">
        <ele>289.663</ele>
        <time>2008-08-20T09:03:06Z</time>
      </trkpt>
      <trkpt lat="43.72963" lon="3.57697">
        <ele>293.292</ele>
        <time>2008-08-20T09:03:07Z</time>
      </trkpt>
      <trkpt lat="43.72963" lon="3.57697">
        <ele>294.401</ele>
        <time>2008-08-20T09:03:09Z</time>
      </trkpt>
      <trkpt lat="43.72966" lon="3.57702">
        <ele>294.214</ele>
        <time>2008-08-20T09:03:21Z</time>
      </trkpt>
      <trkpt lat="43.72966" lon="3.57703">
        <ele>291.043</ele>
        <time>2008-08-20T09:03:30Z</time>
      </trkpt>
      <trkpt lat="43.72966" lon="3.57702">
        <ele>291.484</ele>
        <time>2008-08-20T09:03:31Z</time>
      </trkpt>
      <trkpt lat="43.72966" lon="3.57702">
        <ele>298.717</ele>
        <time>2008-08-20T09:03:34Z</time>
      </trkpt>
      <trkpt lat="43.72966" lon="3.57702">
        <ele>295.758</ele>
        <time>2008-08-20T09:03:35Z</time>
      </trkpt>
      <trkpt lat="43.72966" lon="3.57702">
        <ele>294.943</ele>
        <time>2008-08-20T09:03:37Z</time>
      </trkpt>
      <trkpt lat="43.72966" lon="3.57702">
        <ele>301.245</ele>
        <time>2008-08-20T09:03:44Z</time>
      </trkpt>
      <trkpt lat="43.72966" lon="3.57702">
        <ele>296.795</ele>
        <time>2008-08-20T09:03:45Z</time>
      </trkpt>
      <trkpt lat="43.72966" lon="3.57702">
        <ele>295.266</ele>
        <time>2008-08-20T09:03:47Z</time>
      </trkpt>
      <trkpt lat="43.72964" lon="3.57704">
        <ele>294.573</ele>
        <time>2008-08-20T09:04:42Z</time>
      </trkpt>
      <trkpt lat="43.72965" lon="3.5771">
        <ele>294.247</ele>
        <time>2008-08-20T09:04:54Z</time>
      </trkpt>
      <trkpt lat="43.72962" lon="3.57713">
        <ele>293.182</ele>
        <time>2008-08-20T09:05:15Z</time>
      </trkpt>
      <trkpt lat="43.72961" lon="3.57719">
        <ele>292.771</ele>
        <time>2008-08-20T09:05:29Z</time>
      </trkpt>
      <trkpt lat="43.7296" lon="3.57719">
        <ele>292.846</ele>
        <time>2008-08-20T09:05:40Z</time>
      </trkpt>
      <trkpt lat="43.72958" lon="3.57718">
        <ele>292.964</ele>
        <time>2008-08-20T09:05:49Z</time>
      </trkpt>
      <trkpt lat="43.72958" lon="3.57724">
        <ele>291.952</ele>
        <time>2008-08-20T09:06:08Z</time>
      </trkpt>
      <trkpt lat="43.7296" lon="3.57731">
        <ele>294.065</ele>
        <time>2008-08-20T09:06:21Z</time>
      </trkpt>
      <trkpt lat="43.72962" lon="3.57733">
        <ele>295.051</ele>
        <time>2008-08-20T09:06:41Z</time>
      </trkpt>
      <trkpt lat="43.72962" lon="3.57734">
        <ele>295.86</ele>
        <time>2008-08-20T09:06:43Z</time>
      </trkpt>
      <trkpt lat="43.72965" lon="3.57744">
        <ele>296.429</ele>
        <time>2008-08-20T09:06:58Z</time>
      </trkpt>
      <trkpt lat="43.72966" lon="3.57742">
        <ele>296.321</ele>
        <time>2008-08-20T09:07:35Z</time>
      </trkpt>
      <trkpt lat="43.7297" lon="3.57748">
        <ele>296.346</ele>
        <time>2008-08-20T09:07:45Z</time>
      </trkpt>
      <trkpt lat="43.72972" lon="3.57749">
        <ele>296.938</ele>
        <time>2008-08-20T09:07:49Z</time>
      </trkpt>
      <trkpt lat="43.72977" lon="3.57743">
        <ele>296.73</ele>
        <time>2008-08-20T09:08:00Z</time>
      </trkpt>
      <trkpt lat="43.7298" lon="3.5774">
        <ele>296.738</ele>
        <time>2008-08-20T09:08:12Z</time>
      </trkpt>
      <trkpt lat="43.72981" lon="3.57747">
        <ele>290.538</ele>
        <time>2008-08-20T09:08:21Z</time>
      </trkpt>
      <trkpt lat="43.72982" lon="3.57748">
        <ele>290.516</ele>
        <time>2008-08-20T09:08:22Z</time>
      </trkpt>
      <trkpt lat="43.72982" lon="3.57748">
        <ele>296.182</ele>
        <time>2008-08-20T09:08:23Z</time>
      </trkpt>
      <trkpt lat="43.72983" lon="3.5775">
        <ele>295.884</ele>
        <time>2008-08-20T09:08:37Z</time>
      </trkpt>
      <trkpt lat="43.72984" lon="3.5775">
        <ele>294.946</ele>
        <time>2008-08-20T09:08:39Z</time>
      </trkpt>
      <trkpt lat="43.72984" lon="3.57755">
        <ele>295.705</ele>
        <time>2008-08-20T09:08:48Z</time>
      </trkpt>
      <trkpt lat="43.72985" lon="3.57758">
        <ele>295.176</ele>
        <time>2008-08-20T09:08:56Z</time>
      </trkpt>
      <trkpt lat="43.72986" lon="3.57765">
        <ele>294.598</ele>
        <time>2008-08-20T09:09:08Z</time>
      </trkpt>
      <trkpt lat="43.72983" lon="3.57771">
        <ele>294.655</ele>
        <time>2008-08-20T09:09:18Z</time>
      </trkpt>
      <trkpt lat="43.72976" lon="3.57762">
        <ele>295.646</ele>
        <time>2008-08-20T09:09:28Z</time>
      </trkpt>
      <trkpt lat="43.72981" lon="3.57769">
        <ele>294.313</ele>
        <time>2008-08-20T09:09:47Z</time>
      </trkpt>
      <trkpt lat="43.7298" lon="3.57767">
        <ele>295.45</ele>
        <time>2008-08-20T09:10:02Z</time>
      </trkpt>
      <trkpt lat="43.72979" lon="3.57768">
        <ele>293.589</ele>
        <time>2008-08-20T09:10:19Z</time>
      </trkpt>
      <trkpt lat="43.72985" lon="3.57775">
        <ele>293.7</ele>
        <time>2008-08-20T09:10:35Z</time>
      </trkpt>
      <trkpt lat="43.72984" lon="3.57781">
        <ele>293.619</ele>
        <time>2008-08-20T09:10:40Z</time>
      </trkpt>
      <trkpt lat="43.72981" lon="3.57785">
        <ele>294.372</ele>
        <time>2008-08-20T09:10:52Z</time>
      </trkpt>
      <trkpt lat="43.72978" lon="3.57787">
        <ele>293.533</ele>
        <time>2008-08-20T09:11:03Z</time>
      </trkpt>
      <trkpt lat="43.72978" lon="3.57789">
        <ele>294.243</ele>
        <time>2008-08-20T09:11:07Z</time>
      </trkpt>
      <trkpt lat="43.7298" lon="3.57792">
        <ele>293.02</ele>
        <time>2008-08-20T09:11:09Z</time>
      </trkpt>
      <trkpt lat="43.72989" lon="3.57795">
        <ele>293.228</ele>
        <time>2008-08-20T09:11:21Z</time>
      </trkpt>
      <trkpt lat="43.7299" lon="3.57793">
        <ele>293.601</ele>
        <time>2008-08-20T09:11:35Z</time>
      </trkpt>
      <trkpt lat="43.72993" lon="3.57791">
        <ele>294.301</ele>
        <time>2008-08-20T09:11:40Z</time>
      </trkpt>
      <trkpt lat="43.72996" lon="3.57789">
        <ele>295.795</ele>
        <time>2008-08-20T09:11:55Z</time>
      </trkpt>
      <trkpt lat="43.72994" lon="3.57792">
        <ele>294.733</ele>
        <time>2008-08-20T09:12:51Z</time>
      </trkpt>
      <trkpt lat="43.7299" lon="3.57795">
        <ele>294.556</ele>
        <time>2008-08-20T09:13:00Z</time>
      </trkpt>
      <trkpt lat="43.7299" lon="3.57793">
        <ele>294.506</ele>
        <time>2008-08-20T09:13:25Z</time>
      </trkpt>
      <trkpt lat="43.7299" lon="3.5779">
        <ele>294.623</ele>
        <time>2008-08-20T09:13:46Z</time>
      </trkpt>
      <trkpt lat="43.72985" lon="3.57789">
        <ele>294.398</ele>
        <time>2008-08-20T09:14:12Z</time>
      </trkpt>
      <trkpt lat="43.72983" lon="3.57789">
        <ele>294.613</ele>
        <time>2008-08-20T09:14:14Z</time>
      </trkpt>
      <trkpt lat="43.72981" lon="3.5779">
        <ele>294.539</ele>
        <time>2008-08-20T09:14:16Z</time>
      </trkpt>
      <trkpt lat="43.72974" lon="3.57786">
        <ele>294.564</ele>
        <time>2008-08-20T09:14:23Z</time>
      </trkpt>
      <trkpt lat="43.72969" lon="3.57788">
        <ele>294.3</ele>
        <time>2008-08-20T09:14:36Z</time>
      </trkpt>
      <trkpt lat="43.72963" lon="3.57778">
        <ele>294.174</ele>
        <time>2008-08-20T09:14:51Z</time>
      </trkpt>
      <trkpt lat="43.72962" lon="3.57778">
        <ele>294.184</ele>
        <time>2008-08-20T09:14:52Z</time>
      </trkpt>
      <trkpt lat="43.72952" lon="3.57785">
        <ele>294.19</ele>
        <time>2008-08-20T09:15:05Z</time>
      </trkpt>
      <trkpt lat="43.72963" lon="3.57779">
        <ele>292.954</ele>
        <time>2008-08-20T09:41:18Z</time>
      </trkpt>
      <trkpt lat="43.72971" lon="3.57789">
        <ele>294.79</ele>
        <time>2008-08-20T09:41:29Z</time>
      </trkpt>
      <trkpt lat="43.7298" lon="3.57794">
        <ele>296.148</ele>
        <time>2008-08-20T09:41:39Z</time>
      </trkpt>
      <trkpt lat="43.72981" lon="3.57799">
        <ele>297.269</ele>
        <time>2008-08-20T09:41:43Z</time>
      </trkpt>
      <trkpt lat="43.72973" lon="3.57827">
        <ele>298.155</ele>
        <time>2008-08-20T09:42:04Z</time>
      </trkpt>
      <trkpt lat="43.72957" lon="3.57851">
        <ele>298.529</ele>
        <time>2008-08-20T09:42:26Z</time>
      </trkpt>
      <trkpt lat="43.72952" lon="3.57859">
        <ele>297.211</ele>
        <time>2008-08-20T09:42:33Z</time>
      </trkpt>
      <trkpt lat="43.72954" lon="3.57865">
        <ele>296.639</ele>
        <time>2008-08-20T09:42:37Z</time>
      </trkpt>
      <trkpt lat="43.72956" lon="3.57867">
        <ele>296.992</ele>
        <time>2008-08-20T09:42:39Z</time>
      </trkpt>
      <trkpt lat="43.72968" lon="3.57866">
        <ele>298.625</ele>
        <time>2008-08-20T09:42:49Z</time>
      </trkpt>
      <trkpt lat="43.72984" lon="3.57866">
        <ele>298.691</ele>
        <time>2008-08-20T09:43:03Z</time>
      </trkpt>
      <trkpt lat="43.73005" lon="3.5788">
        <ele>298.996</ele>
        <time>2008-08-20T09:43:21Z</time>
      </trkpt>
      <trkpt lat="43.73019" lon="3.57886">
        <ele>298.735</ele>
        <time>2008-08-20T09:43:32Z</time>
      </trkpt>
      <trkpt lat="43.73042" lon="3.57885">
        <ele>298.668</ele>
        <time>2008-08-20T09:43:50Z</time>
      </trkpt>
      <trkpt lat="43.73048" lon="3.57882">
        <ele>300.338</ele>
        <time>2008-08-20T09:43:55Z</time>
      </trkpt>
      <trkpt lat="43.73065" lon="3.57874">
        <ele>300.818</ele>
        <time>2008-08-20T09:44:10Z</time>
      </trkpt>
      <trkpt lat="43.73075" lon="3.57872">
        <ele>301.114</ele>
        <time>2008-08-20T09:44:17Z</time>
      </trkpt>
      <trkpt lat="43.73087" lon="3.57867">
        <ele>301.595</ele>
        <time>2008-08-20T09:44:28Z</time>
      </trkpt>
      <trkpt lat="43.73101" lon="3.57862">
        <ele>302.697</ele>
        <time>2008-08-20T09:44:37Z</time>
      </trkpt>
      <trkpt lat="43.73125" lon="3.57858">
        <ele>302.947</ele>
        <time>2008-08-20T09:44:54Z</time>
      </trkpt>
      <trkpt lat="43.73145" lon="3.57848">
        <ele>302.389</ele>
        <time>2008-08-20T09:45:07Z</time>
      </trkpt>
      <trkpt lat="43.73164" lon="3.57839">
        <ele>304.667</ele>
        <time>2008-08-20T09:45:23Z</time>
      </trkpt>
      <trkpt lat="43.73166" lon="3.57839">
        <ele>303.56</ele>
        <time>2008-08-20T09:45:24Z</time>
      </trkpt>
      <trkpt lat="43.73182" lon="3.57847">
        <ele>306.811</ele>
        <time>2008-08-20T09:45:37Z</time>
      </trkpt>
      <trkpt lat="43.73197" lon="3.57858">
        <ele>306.555</ele>
        <time>2008-08-20T09:45:52Z</time>
      </trkpt>
      <trkpt lat="43.7321" lon="3.57865">
        <ele>306.06</ele>
        <time>2008-08-20T09:46:03Z</time>
      </trkpt>
      <trkpt lat="43.73223" lon="3.57875">
        <ele>306.169</ele>
        <time>2008-08-20T09:46:14Z</time>
      </trkpt>
      <trkpt lat="43.73238" lon="3.57897">
        <ele>306.895</ele>
        <time>2008-08-20T09:46:29Z</time>
      </trkpt>
      <trkpt lat="43.73256" lon="3.57911">
        <ele>309.609</ele>
        <time>2008-08-20T09:46:41Z</time>
      </trkpt>
      <trkpt lat="43.73271" lon="3.57921">
        <ele>308.929</ele>
        <time>2008-08-20T09:46:54Z</time>
      </trkpt>
      <trkpt lat="43.73277" lon="3.57931">
        <ele>307.956</ele>
        <time>2008-08-20T09:47:00Z</time>
      </trkpt>
      <trkpt lat="43.73282" lon="3.57936">
        <ele>307.515</ele>
        <time>2008-08-20T09:47:05Z</time>
      </trkpt>
      <trkpt lat="43.73288" lon="3.57939">
        <ele>307.258</ele>
        <time>2008-08-20T09:47:09Z</time>
      </trkpt>
      <trkpt lat="43.73305" lon="3.57942">
        <ele>308.585</ele>
        <time>2008-08-20T09:47:21Z</time>
      </trkpt>
      <trkpt lat="43.73319" lon="3.57953">
        <ele>308.361</ele>
        <time>2008-08-20T09:47:34Z</time>
      </trkpt>
      <trkpt lat="43.7332" lon="3.57956">
        <ele>308.362</ele>
        <time>2008-08-20T09:47:36Z</time>
      </trkpt>
      <trkpt lat="43.73325" lon="3.5796">
        <ele>308.867</ele>
        <time>2008-08-20T09:47:40Z</time>
      </trkpt>
      <trkpt lat="43.73334" lon="3.57962">
        <ele>309.524</ele>
        <time>2008-08-20T09:47:47Z</time>
      </trkpt>
      <trkpt lat="43.73346" lon="3.57955">
        <ele>310.047</ele>
        <time>2008-08-20T09:47:57Z</time>
      </trkpt>
      <trkpt lat="43.73359" lon="3.57949">
        <ele>310.336</ele>
        <time>2008-08-20T09:48:07Z</time>
      </trkpt>
      <trkpt lat="43.73365" lon="3.57949">
        <ele>310.328</ele>
        <time>2008-08-20T09:48:11Z</time>
      </trkpt>
      <trkpt lat="43.73377" lon="3.57953">
        <ele>311.096</ele>
        <time>2008-08-20T09:48:22Z</time>
      </trkpt>
      <trkpt lat="43.73391" lon="3.57964">
        <ele>311.923</ele>
        <time>2008-08-20T09:48:35Z</time>
      </trkpt>
      <trkpt lat="43.73407" lon="3.57981">
        <ele>312.164</ele>
        <time>2008-08-20T09:48:50Z</time>
      </trkpt>
      <trkpt lat="43.73411" lon="3.57983">
        <ele>312.478</ele>
        <time>2008-08-20T09:48:53Z</time>
      </trkpt>
      <trkpt lat="43.73425" lon="3.57992">
        <ele>314.521</ele>
        <time>2008-08-20T09:49:05Z</time>
      </trkpt>
      <trkpt lat="43.73442" lon="3.57999">
        <ele>314.852</ele>
        <time>2008-08-20T09:49:20Z</time>
      </trkpt>
      <trkpt lat="43.73451" lon="3.58003">
        <ele>315.72</ele>
        <time>2008-08-20T09:49:26Z</time>
      </trkpt>
      <trkpt lat="43.73455" lon="3.58008">
        <ele>316.635</ele>
        <time>2008-08-20T09:49:31Z</time>
      </trkpt>
      <trkpt lat="43.7347" lon="3.58011">
        <ele>317.571</ele>
        <time>2008-08-20T09:49:43Z</time>
      </trkpt>
      <trkpt lat="43.7349" lon="3.58014">
        <ele>318.527</ele>
        <time>2008-08-20T09:49:56Z</time>
      </trkpt>
      <trkpt lat="43.73497" lon="3.58017">
        <ele>317.545</ele>
        <time>2008-08-20T09:50:02Z</time>
      </trkpt>
      <trkpt lat="43.73509" lon="3.58037">
        <ele>317.727</ele>
        <time>2008-08-20T09:50:17Z</time>
      </trkpt>
      <trkpt lat="43.7352" lon="3.58043">
        <ele>318.172</ele>
        <time>2008-08-20T09:50:25Z</time>
      </trkpt>
      <trkpt lat="43.73533" lon="3.58057">
        <ele>319.832</ele>
        <time>2008-08-20T09:50:38Z</time>
      </trkpt>
      <trkpt lat="43.73541" lon="3.58069">
        <ele>320.716</ele>
        <time>2008-08-20T09:50:47Z</time>
      </trkpt>
      <trkpt lat="43.73553" lon="3.58076">
        <ele>322.092</ele>
        <time>2008-08-20T09:50:57Z</time>
      </trkpt>
      <trkpt lat="43.73556" lon="3.58075">
        <ele>322.32</ele>
        <time>2008-08-20T09:50:59Z</time>
      </trkpt>
      <trkpt lat="43.73558" lon="3.58077">
        <ele>321.609</ele>
        <time>2008-08-20T09:51:01Z</time>
      </trkpt>
      <trkpt lat="43.73566" lon="3.58079">
        <ele>322.146</ele>
        <time>2008-08-20T09:51:07Z</time>
      </trkpt>
      <trkpt lat="43.7358" lon="3.58086">
        <ele>322.81</ele>
        <time>2008-08-20T09:51:19Z</time>
      </trkpt>
      <trkpt lat="43.73585" lon="3.58087">
        <ele>324.646</ele>
        <time>2008-08-20T09:51:22Z</time>
      </trkpt>
      <trkpt lat="43.73589" lon="3.58087">
        <ele>323.034</ele>
        <time>2008-08-20T09:51:26Z</time>
      </trkpt>
      <trkpt lat="43.73592" lon="3.58088">
        <ele>324.792</ele>
        <time>2008-08-20T09:51:28Z</time>
      </trkpt>
      <trkpt lat="43.73599" lon="3.58084">
        <ele>324.73</ele>
        <time>2008-08-20T09:51:33Z</time>
      </trkpt>
      <trkpt lat="43.73614" lon="3.58083">
        <ele>323.792</ele>
        <time>2008-08-20T09:51:44Z</time>
      </trkpt>
      <trkpt lat="43.73625" lon="3.58089">
        <ele>324.548</ele>
        <time>2008-08-20T09:51:55Z</time>
      </trkpt>
      <trkpt lat="43.73635" lon="3.58088">
        <ele>324.631</ele>
        <time>2008-08-20T09:52:02Z</time>
      </trkpt>
      <trkpt lat="43.73651" lon="3.58089">
        <ele>324.265</ele>
        <time>2008-08-20T09:52:14Z</time>
      </trkpt>
      <trkpt lat="43.73655" lon="3.58088">
        <ele>323.947</ele>
        <time>2008-08-20T09:52:17Z</time>
      </trkpt>
      <trkpt lat="43.73657" lon="3.58089">
        <ele>323.788</ele>
        <time>2008-08-20T09:52:20Z</time>
      </trkpt>
      <trkpt lat="43.7367" lon="3.5808">
        <ele>322.903</ele>
        <time>2008-08-20T09:52:30Z</time>
      </trkpt>
      <trkpt lat="43.73678" lon="3.58077">
        <ele>322.625</ele>
        <time>2008-08-20T09:52:38Z</time>
      </trkpt>
      <trkpt lat="43.73681" lon="3.58079">
        <ele>322.379</ele>
        <time>2008-08-20T09:52:40Z</time>
      </trkpt>
      <trkpt lat="43.73692" lon="3.58077">
        <ele>322.686</ele>
        <time>2008-08-20T09:52:47Z</time>
      </trkpt>
      <trkpt lat="43.73709" lon="3.58076">
        <ele>322.155</ele>
        <time>2008-08-20T09:53:00Z</time>
      </trkpt>
      <trkpt lat="43.7371" lon="3.58077">
        <ele>321.673</ele>
        <time>2008-08-20T09:53:01Z</time>
      </trkpt>
      <trkpt lat="43.73719" lon="3.58073">
        <ele>321.402</ele>
        <time>2008-08-20T09:53:09Z</time>
      </trkpt>
      <trkpt lat="43.73736" lon="3.58069">
        <ele>321.838</ele>
        <time>2008-08-20T09:53:21Z</time>
      </trkpt>
      <trkpt lat="43.73743" lon="3.58069">
        <ele>321.66</ele>
        <time>2008-08-20T09:53:26Z</time>
      </trkpt>
      <trkpt lat="43.73761" lon="3.58065">
        <ele>322.002</ele>
        <time>2008-08-20T09:53:39Z</time>
      </trkpt>
      <trkpt lat="43.73771" lon="3.58062">
        <ele>321.579</ele>
        <time>2008-08-20T09:53:48Z</time>
      </trkpt>
      <trkpt lat="43.73775" lon="3.58061">
        <ele>321.729</ele>
        <time>2008-08-20T09:53:50Z</time>
      </trkpt>
      <trkpt lat="43.73782" lon="3.58058">
        <ele>321.867</ele>
        <time>2008-08-20T09:53:56Z</time>
      </trkpt>
      <trkpt lat="43.73799" lon="3.5804">
        <ele>322.124</ele>
        <time>2008-08-20T09:54:10Z</time>
      </trkpt>
      <trkpt lat="43.73802" lon="3.58037">
        <ele>321.86</ele>
        <time>2008-08-20T09:54:13Z</time>
      </trkpt>
      <trkpt lat="43.73805" lon="3.58035">
        <ele>323.187</ele>
        <time>2008-08-20T09:54:16Z</time>
      </trkpt>
      <trkpt lat="43.73819" lon="3.58034">
        <ele>323.366</ele>
        <time>2008-08-20T09:54:27Z</time>
      </trkpt>
      <trkpt lat="43.73838" lon="3.58049">
        <ele>324.93</ele>
        <time>2008-08-20T09:54:44Z</time>
      </trkpt>
      <trkpt lat="43.73849" lon="3.58066">
        <ele>325.845</ele>
        <time>2008-08-20T09:54:58Z</time>
      </trkpt>
      <trkpt lat="43.73851" lon="3.58069">
        <ele>326.077</ele>
        <time>2008-08-20T09:55:00Z</time>
      </trkpt>
      <trkpt lat="43.73856" lon="3.58074">
        <ele>326.149</ele>
        <time>2008-08-20T09:55:04Z</time>
      </trkpt>
      <trkpt lat="43.73871" lon="3.58088">
        <ele>327.242</ele>
        <time>2008-08-20T09:55:18Z</time>
      </trkpt>
      <trkpt lat="43.73874" lon="3.5809">
        <ele>327.256</ele>
        <time>2008-08-20T09:55:23Z</time>
      </trkpt>
      <trkpt lat="43.73878" lon="3.58085">
        <ele>326.891</ele>
        <time>2008-08-20T09:55:29Z</time>
      </trkpt>
      <trkpt lat="43.73884" lon="3.58088">
        <ele>326.852</ele>
        <time>2008-08-20T09:55:35Z</time>
      </trkpt>
      <trkpt lat="43.73895" lon="3.5809">
        <ele>326.51</ele>
        <time>2008-08-20T09:55:43Z</time>
      </trkpt>
      <trkpt lat="43.73905" lon="3.58082">
        <ele>324.317</ele>
        <time>2008-08-20T09:55:58Z</time>
      </trkpt>
      <trkpt lat="43.73906" lon="3.5808">
        <ele>324.093</ele>
        <time>2008-08-20T09:56:18Z</time>
      </trkpt>
      <trkpt lat="43.73907" lon="3.5808">
        <ele>323.977</ele>
        <time>2008-08-20T09:56:19Z</time>
      </trkpt>
      <trkpt lat="43.73913" lon="3.58081">
        <ele>323.679</ele>
        <time>2008-08-20T09:56:23Z</time>
      </trkpt>
      <trkpt lat="43.73918" lon="3.58076">
        <ele>324.138</ele>
        <time>2008-08-20T09:56:35Z</time>
      </trkpt>
      <trkpt lat="43.73917" lon="3.58075">
        <ele>324.029</ele>
        <time>2008-08-20T09:56:50Z</time>
      </trkpt>
      <trkpt lat="43.73916" lon="3.58071">
        <ele>324.68</ele>
        <time>2008-08-20T09:57:14Z</time>
      </trkpt>
      <trkpt lat="43.73915" lon="3.58071">
        <ele>326.097</ele>
        <time>2008-08-20T09:57:26Z</time>
      </trkpt>
      <trkpt lat="43.73915" lon="3.58074">
        <ele>325.226</ele>
        <time>2008-08-20T09:57:43Z</time>
      </trkpt>
      <trkpt lat="43.73915" lon="3.58073">
        <ele>325.035</ele>
        <time>2008-08-20T09:58:06Z</time>
      </trkpt>
      <trkpt lat="43.73918" lon="3.58074">
        <ele>325.12</ele>
        <time>2008-08-20T09:58:08Z</time>
      </trkpt>
      <trkpt lat="43.73923" lon="3.58072">
        <ele>324.62</ele>
        <time>2008-08-20T09:58:12Z</time>
      </trkpt>
      <trkpt lat="43.73927" lon="3.58066">
        <ele>323.424</ele>
        <time>2008-08-20T09:58:22Z</time>
      </trkpt>
      <trkpt lat="43.73925" lon="3.58073">
        <ele>323.999</ele>
        <time>2008-08-20T09:58:31Z</time>
      </trkpt>
      <trkpt lat="43.73915" lon="3.58077">
        <ele>324.344</ele>
        <time>2008-08-20T09:58:40Z</time>
      </trkpt>
      <trkpt lat="43.73911" lon="3.58078">
        <ele>323.538</ele>
        <time>2008-08-20T09:58:44Z</time>
      </trkpt>
      <trkpt lat="43.73908" lon="3.58078">
        <ele>323.359</ele>
        <time>2008-08-20T09:58:47Z</time>
      </trkpt>
      <trkpt lat="43.73895" lon="3.58083">
        <ele>324.54</ele>
        <time>2008-08-20T09:58:58Z</time>
      </trkpt>
      <trkpt lat="43.7389" lon="3.58083">
        <ele>324.343</ele>
        <time>2008-08-20T09:59:03Z</time>
      </trkpt>
      <trkpt lat="43.73877" lon="3.58082">
        <ele>325.178</ele>
        <time>2008-08-20T09:59:15Z</time>
      </trkpt>
      <trkpt lat="43.73877" lon="3.58097">
        <ele>325.737</ele>
        <time>2008-08-20T09:59:25Z</time>
      </trkpt>
      <trkpt lat="43.73883" lon="3.58109">
        <ele>325.681</ele>
        <time>2008-08-20T09:59:34Z</time>
      </trkpt>
      <trkpt lat="43.73887" lon="3.58115">
        <ele>326.233</ele>
        <time>2008-08-20T09:59:39Z</time>
      </trkpt>
      <trkpt lat="43.73892" lon="3.58137">
        <ele>329.395</ele>
        <time>2008-08-20T09:59:52Z</time>
      </trkpt>
      <trkpt lat="43.73893" lon="3.5814">
        <ele>329.606</ele>
        <time>2008-08-20T09:59:54Z</time>
      </trkpt>
      <trkpt lat="43.73898" lon="3.58153">
        <ele>332.379</ele>
        <time>2008-08-20T10:00:01Z</time>
      </trkpt>
      <trkpt lat="43.73898" lon="3.58154">
        <ele>332.658</ele>
        <time>2008-08-20T10:00:02Z</time>
      </trkpt>
      <trkpt lat="43.73903" lon="3.58166">
        <ele>331.579</ele>
        <time>2008-08-20T10:00:10Z</time>
      </trkpt>
      <trkpt lat="43.7391" lon="3.58178">
        <ele>331.49</ele>
        <time>2008-08-20T10:00:19Z</time>
      </trkpt>
      <trkpt lat="43.73912" lon="3.58189">
        <ele>331.908</ele>
        <time>2008-08-20T10:00:26Z</time>
      </trkpt>
      <trkpt lat="43.73918" lon="3.58201">
        <ele>332.91</ele>
        <time>2008-08-20T10:00:33Z</time>
      </trkpt>
      <trkpt lat="43.73926" lon="3.58215">
        <ele>333.315</ele>
        <time>2008-08-20T10:00:43Z</time>
      </trkpt>
      <trkpt lat="43.73928" lon="3.58219">
        <ele>334.768</ele>
        <time>2008-08-20T10:00:46Z</time>
      </trkpt>
      <trkpt lat="43.73931" lon="3.58221">
        <ele>334.41</ele>
        <time>2008-08-20T10:00:48Z</time>
      </trkpt>
      <trkpt lat="43.73934" lon="3.58229">
        <ele>333.767</ele>
        <time>2008-08-20T10:00:54Z</time>
      </trkpt>
      <trkpt lat="43.73935" lon="3.58234">
        <ele>334.778</ele>
        <time>2008-08-20T10:00:57Z</time>
      </trkpt>
      <trkpt lat="43.73941" lon="3.58246">
        <ele>335.174</ele>
        <time>2008-08-20T10:01:09Z</time>
      </trkpt>
      <trkpt lat="43.73941" lon="3.58247">
        <ele>335.38</ele>
        <time>2008-08-20T10:01:15Z</time>
      </trkpt>
      <trkpt lat="43.73943" lon="3.58251">
        <ele>334.189</ele>
        <time>2008-08-20T10:01:20Z</time>
      </trkpt>
      <trkpt lat="43.73946" lon="3.58256">
        <ele>333.503</ele>
        <time>2008-08-20T10:01:24Z</time>
      </trkpt>
      <trkpt lat="43.73949" lon="3.5826">
        <ele>334.287</ele>
        <time>2008-08-20T10:01:29Z</time>
      </trkpt>
      <trkpt lat="43.73951" lon="3.58267">
        <ele>332.896</ele>
        <time>2008-08-20T10:01:43Z</time>
      </trkpt>
      <trkpt lat="43.73954" lon="3.58277">
        <ele>332.801</ele>
        <time>2008-08-20T10:01:49Z</time>
      </trkpt>
      <trkpt lat="43.73963" lon="3.58296">
        <ele>332.539</ele>
        <time>2008-08-20T10:02:02Z</time>
      </trkpt>
      <trkpt lat="43.73972" lon="3.58308">
        <ele>332.864</ele>
        <time>2008-08-20T10:02:12Z</time>
      </trkpt>
      <trkpt lat="43.73987" lon="3.58326">
        <ele>331.93</ele>
        <time>2008-08-20T10:02:28Z</time>
      </trkpt>
      <trkpt lat="43.73994" lon="3.58335">
        <ele>331.244</ele>
        <time>2008-08-20T10:02:36Z</time>
      </trkpt>
      <trkpt lat="43.74006" lon="3.58351">
        <ele>331.304</ele>
        <time>2008-08-20T10:02:50Z</time>
      </trkpt>
      <trkpt lat="43.74006" lon="3.58353">
        <ele>330.659</ele>
        <time>2008-08-20T10:02:52Z</time>
      </trkpt>
      <trkpt lat="43.74016" lon="3.58376">
        <ele>330.578</ele>
        <time>2008-08-20T10:03:08Z</time>
      </trkpt>
      <trkpt lat="43.74021" lon="3.58392">
        <ele>330.053</ele>
        <time>2008-08-20T10:03:21Z</time>
      </trkpt>
      <trkpt lat="43.74023" lon="3.58409">
        <ele>329.382</ele>
        <time>2008-08-20T10:03:33Z</time>
      </trkpt>
      <trkpt lat="43.74024" lon="3.58427">
        <ele>328.11</ele>
        <time>2008-08-20T10:03:44Z</time>
      </trkpt>
      <trkpt lat="43.74032" lon="3.58441">
        <ele>328.06</ele>
        <time>2008-08-20T10:04:00Z</time>
      </trkpt>
      <trkpt lat="43.74036" lon="3.58467">
        <ele>326.829</ele>
        <time>2008-08-20T10:04:19Z</time>
      </trkpt>
      <trkpt lat="43.74037" lon="3.58497">
        <ele>325.674</ele>
        <time>2008-08-20T10:04:40Z</time>
      </trkpt>
      <trkpt lat="43.74038" lon="3.58502">
        <ele>323.47</ele>
        <time>2008-08-20T10:04:53Z</time>
      </trkpt>
      <trkpt lat="43.74041" lon="3.58524">
        <ele>322.55</ele>
        <time>2008-08-20T10:05:10Z</time>
      </trkpt>
      <trkpt lat="43.74043" lon="3.58527">
        <ele>322.186</ele>
        <time>2008-08-20T10:05:24Z</time>
      </trkpt>
      <trkpt lat="43.74044" lon="3.58527">
        <ele>320.945</ele>
        <time>2008-08-20T10:05:45Z</time>
      </trkpt>
      <trkpt lat="43.74044" lon="3.58527">
        <ele>322.125</ele>
        <time>2008-08-20T10:05:54Z</time>
      </trkpt>
      <trkpt lat="43.74043" lon="3.58526">
        <ele>321.46</ele>
        <time>2008-08-20T10:06:25Z</time>
      </trkpt>
      <trkpt lat="43.74043" lon="3.58525">
        <ele>320.837</ele>
        <time>2008-08-20T10:06:38Z</time>
      </trkpt>
      <trkpt lat="43.74042" lon="3.58525">
        <ele>318.907</ele>
        <time>2008-08-20T10:06:59Z</time>
      </trkpt>
      <trkpt lat="43.7404" lon="3.58524">
        <ele>319.727</ele>
        <time>2008-08-20T10:07:21Z</time>
      </trkpt>
      <trkpt lat="43.74041" lon="3.58524">
        <ele>322.585</ele>
        <time>2008-08-20T10:08:07Z</time>
      </trkpt>
      <trkpt lat="43.74041" lon="3.58524">
        <ele>322.731</ele>
        <time>2008-08-20T10:08:08Z</time>
      </trkpt>
      <trkpt lat="43.74045" lon="3.58527">
        <ele>320.57</ele>
        <time>2008-08-20T10:08:24Z</time>
      </trkpt>
      <trkpt lat="43.74046" lon="3.58526">
        <ele>321.071</ele>
        <time>2008-08-20T10:08:49Z</time>
      </trkpt>
      <trkpt lat="43.74044" lon="3.58527">
        <ele>322.295</ele>
        <time>2008-08-20T10:09:07Z</time>
      </trkpt>
      <trkpt lat="43.74044" lon="3.58528">
        <ele>322.487</ele>
        <time>2008-08-20T10:09:18Z</time>
      </trkpt>
      <trkpt lat="43.74043" lon="3.58529">
        <ele>317.965</ele>
        <time>2008-08-20T10:09:24Z</time>
      </trkpt>
      <trkpt lat="43.74043" lon="3.58529">
        <ele>322.819</ele>
        <time>2008-08-20T10:09:25Z</time>
      </trkpt>
      <trkpt lat="43.74043" lon="3.58534">
        <ele>321.984</ele>
        <time>2008-08-20T10:09:40Z</time>
      </trkpt>
      <trkpt lat="43.74043" lon="3.58536">
        <ele>322.022</ele>
        <time>2008-08-20T10:09:42Z</time>
      </trkpt>
      <trkpt lat="43.74024" lon="3.58553">
        <ele>320.096</ele>
        <time>2008-08-20T10:10:02Z</time>
      </trkpt>
      <trkpt lat="43.74001" lon="3.58562">
        <ele>319.31</ele>
        <time>2008-08-20T10:10:21Z</time>
      </trkpt>
      <trkpt lat="43.73997" lon="3.58563">
        <ele>320.742</ele>
        <time>2008-08-20T10:10:24Z</time>
      </trkpt>
      <trkpt lat="43.73969" lon="3.58566">
        <ele>322.353</ele>
        <time>2008-08-20T10:10:45Z</time>
      </trkpt>
      <trkpt lat="43.73952" lon="3.58573">
        <ele>324.013</ele>
        <time>2008-08-20T10:11:00Z</time>
      </trkpt>
      <trkpt lat="43.73942" lon="3.58577">
        <ele>323.95</ele>
        <time>2008-08-20T10:11:10Z</time>
      </trkpt>
      <trkpt lat="43.73932" lon="3.5858">
        <ele>325.259</ele>
        <time>2008-08-20T10:11:20Z</time>
      </trkpt>
      <trkpt lat="43.73915" lon="3.58588">
        <ele>324.254</ele>
        <time>2008-08-20T10:11:38Z</time>
      </trkpt>
      <trkpt lat="43.73904" lon="3.58598">
        <ele>324.476</ele>
        <time>2008-08-20T10:11:49Z</time>
      </trkpt>
      <trkpt lat="43.73899" lon="3.58606">
        <ele>323.061</ele>
        <time>2008-08-20T10:11:56Z</time>
      </trkpt>
      <trkpt lat="43.73885" lon="3.58614">
        <ele>323.667</ele>
        <time>2008-08-20T10:12:07Z</time>
      </trkpt>
      <trkpt lat="43.73882" lon="3.58617">
        <ele>322.809</ele>
        <time>2008-08-20T10:12:10Z</time>
      </trkpt>
      <trkpt lat="43.73876" lon="3.58626">
        <ele>322.169</ele>
        <time>2008-08-20T10:12:17Z</time>
      </trkpt>
      <trkpt lat="43.73871" lon="3.58633">
        <ele>321.972</ele>
        <time>2008-08-20T10:12:31Z</time>
      </trkpt>
      <trkpt lat="43.73854" lon="3.58644">
        <ele>321.275</ele>
        <time>2008-08-20T10:12:49Z</time>
      </trkpt>
      <trkpt lat="43.73839" lon="3.58653">
        <ele>319.876</ele>
        <time>2008-08-20T10:13:03Z</time>
      </trkpt>
      <trkpt lat="43.73837" lon="3.58656">
        <ele>320.688</ele>
        <time>2008-08-20T10:13:05Z</time>
      </trkpt>
      <trkpt lat="43.73834" lon="3.58658">
        <ele>319.546</ele>
        <time>2008-08-20T10:13:08Z</time>
      </trkpt>
      <trkpt lat="43.73825" lon="3.58672">
        <ele>317.922</ele>
        <time>2008-08-20T10:13:19Z</time>
      </trkpt>
      <trkpt lat="43.73801" lon="3.58693">
        <ele>316.097</ele>
        <time>2008-08-20T10:13:43Z</time>
      </trkpt>
      <trkpt lat="43.73784" lon="3.58709">
        <ele>314.198</ele>
        <time>2008-08-20T10:14:01Z</time>
      </trkpt>
      <trkpt lat="43.73781" lon="3.58712">
        <ele>313.598</ele>
        <time>2008-08-20T10:14:03Z</time>
      </trkpt>
      <trkpt lat="43.73778" lon="3.58712">
        <ele>312.809</ele>
        <time>2008-08-20T10:14:06Z</time>
      </trkpt>
      <trkpt lat="43.73754" lon="3.58725">
        <ele>310.999</ele>
        <time>2008-08-20T10:14:27Z</time>
      </trkpt>
      <trkpt lat="43.73747" lon="3.58733">
        <ele>310.155</ele>
        <time>2008-08-20T10:14:34Z</time>
      </trkpt>
      <trkpt lat="43.73738" lon="3.58737">
        <ele>309.373</ele>
        <time>2008-08-20T10:14:41Z</time>
      </trkpt>
      <trkpt lat="43.7372" lon="3.58755">
        <ele>307.479</ele>
        <time>2008-08-20T10:14:58Z</time>
      </trkpt>
      <trkpt lat="43.73709" lon="3.5877">
        <ele>305.665</ele>
        <time>2008-08-20T10:15:08Z</time>
      </trkpt>
      <trkpt lat="43.73703" lon="3.58775">
        <ele>304.994</ele>
        <time>2008-08-20T10:15:14Z</time>
      </trkpt>
      <trkpt lat="43.73695" lon="3.58777">
        <ele>303.741</ele>
        <time>2008-08-20T10:15:20Z</time>
      </trkpt>
      <trkpt lat="43.73685" lon="3.58781">
        <ele>303.187</ele>
        <time>2008-08-20T10:15:27Z</time>
      </trkpt>
      <trkpt lat="43.73676" lon="3.58786">
        <ele>303.186</ele>
        <time>2008-08-20T10:15:35Z</time>
      </trkpt>
      <trkpt lat="43.73666" lon="3.58793">
        <ele>302.154</ele>
        <time>2008-08-20T10:15:46Z</time>
      </trkpt>
      <trkpt lat="43.73663" lon="3.58798">
        <ele>301.806</ele>
        <time>2008-08-20T10:15:51Z</time>
      </trkpt>
      <trkpt lat="43.73642" lon="3.58815">
        <ele>300.061</ele>
        <time>2008-08-20T10:16:12Z</time>
      </trkpt>
      <trkpt lat="43.73629" lon="3.58827">
        <ele>297.917</ele>
        <time>2008-08-20T10:16:27Z</time>
      </trkpt>
      <trkpt lat="43.73628" lon="3.58829">
        <ele>299.068</ele>
        <time>2008-08-20T10:16:29Z</time>
      </trkpt>
      <trkpt lat="43.73627" lon="3.58832">
        <ele>298.989</ele>
        <time>2008-08-20T10:16:31Z</time>
      </trkpt>
      <trkpt lat="43.73626" lon="3.58835">
        <ele>298.28</ele>
        <time>2008-08-20T10:16:33Z</time>
      </trkpt>
      <trkpt lat="43.73612" lon="3.58853">
        <ele>296.308</ele>
        <time>2008-08-20T10:16:51Z</time>
      </trkpt>
      <trkpt lat="43.73592" lon="3.58879">
        <ele>294.851</ele>
        <time>2008-08-20T10:17:14Z</time>
      </trkpt>
      <trkpt lat="43.73583" lon="3.58884">
        <ele>294.85</ele>
        <time>2008-08-20T10:17:31Z</time>
      </trkpt>
      <trkpt lat="43.7358" lon="3.5888">
        <ele>295.691</ele>
        <time>2008-08-20T10:18:11Z</time>
      </trkpt>
      <trkpt lat="43.73575" lon="3.58894">
        <ele>295.283</ele>
        <time>2008-08-20T10:19:04Z</time>
      </trkpt>
      <trkpt lat="43.73568" lon="3.58913">
        <ele>293.972</ele>
        <time>2008-08-20T10:19:17Z</time>
      </trkpt>
      <trkpt lat="43.73567" lon="3.58915">
        <ele>293.537</ele>
        <time>2008-08-20T10:19:19Z</time>
      </trkpt>
      <trkpt lat="43.73557" lon="3.5893">
        <ele>292.093</ele>
        <time>2008-08-20T10:19:31Z</time>
      </trkpt>
      <trkpt lat="43.73547" lon="3.58947">
        <ele>291.397</ele>
        <time>2008-08-20T10:19:45Z</time>
      </trkpt>
      <trkpt lat="43.73546" lon="3.58952">
        <ele>291.212</ele>
        <time>2008-08-20T10:19:48Z</time>
      </trkpt>
      <trkpt lat="43.73543" lon="3.58958">
        <ele>290.29</ele>
        <time>2008-08-20T10:19:52Z</time>
      </trkpt>
      <trkpt lat="43.73532" lon="3.58979">
        <ele>289.895</ele>
        <time>2008-08-20T10:20:07Z</time>
      </trkpt>
      <trkpt lat="43.73521" lon="3.58999">
        <ele>290.101</ele>
        <time>2008-08-20T10:20:20Z</time>
      </trkpt>
      <trkpt lat="43.73514" lon="3.59009">
        <ele>289.981</ele>
        <time>2008-08-20T10:20:27Z</time>
      </trkpt>
      <trkpt lat="43.7351" lon="3.59014">
        <ele>289.834</ele>
        <time>2008-08-20T10:20:30Z</time>
      </trkpt>
      <trkpt lat="43.73507" lon="3.59016">
        <ele>289.116</ele>
        <time>2008-08-20T10:20:33Z</time>
      </trkpt>
      <trkpt lat="43.73489" lon="3.59033">
        <ele>287.921</ele>
        <time>2008-08-20T10:20:48Z</time>
      </trkpt>
      <trkpt lat="43.73486" lon="3.59038">
        <ele>288.436</ele>
        <time>2008-08-20T10:20:51Z</time>
      </trkpt>
      <trkpt lat="43.73477" lon="3.59045">
        <ele>288.191</ele>
        <time>2008-08-20T10:20:58Z</time>
      </trkpt>
      <trkpt lat="43.73468" lon="3.59053">
        <ele>287.985</ele>
        <time>2008-08-20T10:21:07Z</time>
      </trkpt>
      <trkpt lat="43.73453" lon="3.59067">
        <ele>288.091</ele>
        <time>2008-08-20T10:21:21Z</time>
      </trkpt>
      <trkpt lat="43.73437" lon="3.59082">
        <ele>288.037</ele>
        <time>2008-08-20T10:21:34Z</time>
      </trkpt>
      <trkpt lat="43.73429" lon="3.59089">
        <ele>287.669</ele>
        <time>2008-08-20T10:21:41Z</time>
      </trkpt>
      <trkpt lat="43.73409" lon="3.59106">
        <ele>287.732</ele>
        <time>2008-08-20T10:21:58Z</time>
      </trkpt>
      <trkpt lat="43.73401" lon="3.5911">
        <ele>286.933</ele>
        <time>2008-08-20T10:22:13Z</time>
      </trkpt>
      <trkpt lat="43.73393" lon="3.59123">
        <ele>286.14</ele>
        <time>2008-08-20T10:22:25Z</time>
      </trkpt>
      <trkpt lat="43.73383" lon="3.59139">
        <ele>285.893</ele>
        <time>2008-08-20T10:22:38Z</time>
      </trkpt>
      <trkpt lat="43.73378" lon="3.59151">
        <ele>286.348</ele>
        <time>2008-08-20T10:22:47Z</time>
      </trkpt>
      <trkpt lat="43.73371" lon="3.59145">
        <ele>286.733</ele>
        <time>2008-08-20T10:22:54Z</time>
      </trkpt>
      <trkpt lat="43.73361" lon="3.59137">
        <ele>287.01</ele>
        <time>2008-08-20T10:23:04Z</time>
      </trkpt>
      <trkpt lat="43.73356" lon="3.59132">
        <ele>286.696</ele>
        <time>2008-08-20T10:23:09Z</time>
      </trkpt>
      <trkpt lat="43.73344" lon="3.59125">
        <ele>287.079</ele>
        <time>2008-08-20T10:23:20Z</time>
      </trkpt>
      <trkpt lat="43.73329" lon="3.59118">
        <ele>287.371</ele>
        <time>2008-08-20T10:23:32Z</time>
      </trkpt>
      <trkpt lat="43.73322" lon="3.59117">
        <ele>288.114</ele>
        <time>2008-08-20T10:23:38Z</time>
      </trkpt>
      <trkpt lat="43.73321" lon="3.59116">
        <ele>287.825</ele>
        <time>2008-08-20T10:23:39Z</time>
      </trkpt>
      <trkpt lat="43.73303" lon="3.59111">
        <ele>288.048</ele>
        <time>2008-08-20T10:23:52Z</time>
      </trkpt>
      <trkpt lat="43.73286" lon="3.59111">
        <ele>287.488</ele>
        <time>2008-08-20T10:24:04Z</time>
      </trkpt>
      <trkpt lat="43.73276" lon="3.59111">
        <ele>287.249</ele>
        <time>2008-08-20T10:24:11Z</time>
      </trkpt>
      <trkpt lat="43.73257" lon="3.5911">
        <ele>287.949</ele>
        <time>2008-08-20T10:24:23Z</time>
      </trkpt>
      <trkpt lat="43.7325" lon="3.59109">
        <ele>288.066</ele>
        <time>2008-08-20T10:24:28Z</time>
      </trkpt>
      <trkpt lat="43.73244" lon="3.59109">
        <ele>288.562</ele>
        <time>2008-08-20T10:24:34Z</time>
      </trkpt>
      <trkpt lat="43.73227" lon="3.591">
        <ele>288.135</ele>
        <time>2008-08-20T10:24:45Z</time>
      </trkpt>
      <trkpt lat="43.73219" lon="3.59093">
        <ele>287.75</ele>
        <time>2008-08-20T10:24:51Z</time>
      </trkpt>
      <trkpt lat="43.7321" lon="3.59087">
        <ele>287.193</ele>
        <time>2008-08-20T10:24:57Z</time>
      </trkpt>
      <trkpt lat="43.73197" lon="3.59075">
        <ele>286.932</ele>
        <time>2008-08-20T10:25:08Z</time>
      </trkpt>
      <trkpt lat="43.73194" lon="3.5907">
        <ele>286.487</ele>
        <time>2008-08-20T10:25:12Z</time>
      </trkpt>
      <trkpt lat="43.7318" lon="3.59058">
        <ele>286.598</ele>
        <time>2008-08-20T10:25:26Z</time>
      </trkpt>
      <trkpt lat="43.73173" lon="3.59052">
        <ele>284.963</ele>
        <time>2008-08-20T10:25:35Z</time>
      </trkpt>
      <trkpt lat="43.73158" lon="3.59042">
        <ele>285.031</ele>
        <time>2008-08-20T10:25:48Z</time>
      </trkpt>
      <trkpt lat="43.73142" lon="3.59033">
        <ele>285.26</ele>
        <time>2008-08-20T10:26:02Z</time>
      </trkpt>
      <trkpt lat="43.73129" lon="3.59026">
        <ele>284.007</ele>
        <time>2008-08-20T10:26:12Z</time>
      </trkpt>
      <trkpt lat="43.73116" lon="3.5902">
        <ele>283.06</ele>
        <time>2008-08-20T10:26:23Z</time>
      </trkpt>
      <trkpt lat="43.73112" lon="3.59017">
        <ele>282.917</ele>
        <time>2008-08-20T10:26:27Z</time>
      </trkpt>
      <trkpt lat="43.73094" lon="3.59014">
        <ele>284.19</ele>
        <time>2008-08-20T10:26:40Z</time>
      </trkpt>
      <trkpt lat="43.73089" lon="3.59012">
        <ele>283.99</ele>
        <time>2008-08-20T10:26:45Z</time>
      </trkpt>
      <trkpt lat="43.73073" lon="3.59007">
        <ele>284.238</ele>
        <time>2008-08-20T10:26:57Z</time>
      </trkpt>
      <trkpt lat="43.73054" lon="3.59002">
        <ele>282.294</ele>
        <time>2008-08-20T10:27:10Z</time>
      </trkpt>
      <trkpt lat="43.73051" lon="3.59002">
        <ele>282.266</ele>
        <time>2008-08-20T10:27:12Z</time>
      </trkpt>
      <trkpt lat="43.73045" lon="3.59001">
        <ele>282.441</ele>
        <time>2008-08-20T10:27:16Z</time>
      </trkpt>
      <trkpt lat="43.73028" lon="3.58994">
        <ele>280.895</ele>
        <time>2008-08-20T10:27:27Z</time>
      </trkpt>
      <trkpt lat="43.73021" lon="3.58993">
        <ele>281.584</ele>
        <time>2008-08-20T10:27:32Z</time>
      </trkpt>
      <trkpt lat="43.73013" lon="3.5899">
        <ele>281.049</ele>
        <time>2008-08-20T10:27:38Z</time>
      </trkpt>
      <trkpt lat="43.72996" lon="3.58988">
        <ele>280.984</ele>
        <time>2008-08-20T10:27:52Z</time>
      </trkpt>
      <trkpt lat="43.72982" lon="3.58987">
        <ele>279.989</ele>
        <time>2008-08-20T10:28:05Z</time>
      </trkpt>
      <trkpt lat="43.72978" lon="3.58985">
        <ele>280.615</ele>
        <time>2008-08-20T10:28:09Z</time>
      </trkpt>
      <trkpt lat="43.72957" lon="3.5899">
        <ele>280.506</ele>
        <time>2008-08-20T10:28:25Z</time>
      </trkpt>
      <trkpt lat="43.72955" lon="3.58989">
        <ele>279.371</ele>
        <time>2008-08-20T10:28:37Z</time>
      </trkpt>
      <trkpt lat="43.72956" lon="3.58973">
        <ele>279.136</ele>
        <time>2008-08-20T10:28:49Z</time>
      </trkpt>
      <trkpt lat="43.72956" lon="3.58969">
        <ele>281.205</ele>
        <time>2008-08-20T10:29:00Z</time>
      </trkpt>
      <trkpt lat="43.72956" lon="3.58957">
        <ele>280.573</ele>
        <time>2008-08-20T10:29:27Z</time>
      </trkpt>
      <trkpt lat="43.72956" lon="3.58914">
        <ele>280.146</ele>
        <time>2008-08-20T10:29:48Z</time>
      </trkpt>
      <trkpt lat="43.72955" lon="3.58896">
        <ele>279.942</ele>
        <time>2008-08-20T10:29:57Z</time>
      </trkpt>
      <trkpt lat="43.72944" lon="3.58882">
        <ele>279.392</ele>
        <time>2008-08-20T10:30:10Z</time>
      </trkpt>
      <trkpt lat="43.72944" lon="3.58874">
        <ele>279.598</ele>
        <time>2008-08-20T10:30:15Z</time>
      </trkpt>
      <trkpt lat="43.72934" lon="3.58843">
        <ele>278.716</ele>
        <time>2008-08-20T10:30:35Z</time>
      </trkpt>
      <trkpt lat="43.72927" lon="3.58836">
        <ele>278.604</ele>
        <time>2008-08-20T10:30:42Z</time>
      </trkpt>
      <trkpt lat="43.72918" lon="3.5883">
        <ele>278.712</ele>
        <time>2008-08-20T10:30:51Z</time>
      </trkpt>
      <trkpt lat="43.72904" lon="3.58823">
        <ele>277.811</ele>
        <time>2008-08-20T10:31:02Z</time>
      </trkpt>
      <trkpt lat="43.72898" lon="3.58822">
        <ele>277.761</ele>
        <time>2008-08-20T10:31:06Z</time>
      </trkpt>
      <trkpt lat="43.72887" lon="3.58819">
        <ele>277.498</ele>
        <time>2008-08-20T10:31:15Z</time>
      </trkpt>
      <trkpt lat="43.72882" lon="3.58817">
        <ele>278.53</ele>
        <time>2008-08-20T10:31:20Z</time>
      </trkpt>
      <trkpt lat="43.72867" lon="3.58814">
        <ele>277.383</ele>
        <time>2008-08-20T10:31:31Z</time>
      </trkpt>
      <trkpt lat="43.72866" lon="3.58814">
        <ele>277.382</ele>
        <time>2008-08-20T10:31:32Z</time>
      </trkpt>
      <trkpt lat="43.72864" lon="3.58809">
        <ele>276.96</ele>
        <time>2008-08-20T10:31:36Z</time>
      </trkpt>
      <trkpt lat="43.72868" lon="3.58786">
        <ele>278.394</ele>
        <time>2008-08-20T10:31:51Z</time>
      </trkpt>
      <trkpt lat="43.72874" lon="3.5878">
        <ele>278.727</ele>
        <time>2008-08-20T10:31:58Z</time>
      </trkpt>
      <trkpt lat="43.72883" lon="3.58769">
        <ele>279.054</ele>
        <time>2008-08-20T10:32:09Z</time>
      </trkpt>
      <trkpt lat="43.72885" lon="3.58765">
        <ele>279.411</ele>
        <time>2008-08-20T10:32:12Z</time>
      </trkpt>
      <trkpt lat="43.7289" lon="3.58754">
        <ele>278.756</ele>
        <time>2008-08-20T10:32:21Z</time>
      </trkpt>
      <trkpt lat="43.72877" lon="3.58741">
        <ele>279.372</ele>
        <time>2008-08-20T10:32:35Z</time>
      </trkpt>
      <trkpt lat="43.72873" lon="3.58738">
        <ele>278.077</ele>
        <time>2008-08-20T10:32:53Z</time>
      </trkpt>
      <trkpt lat="43.72872" lon="3.58738">
        <ele>278.546</ele>
        <time>2008-08-20T10:33:24Z</time>
      </trkpt>
      <trkpt lat="43.72868" lon="3.58738">
        <ele>277.753</ele>
        <time>2008-08-20T10:33:38Z</time>
      </trkpt>
      <trkpt lat="43.72859" lon="3.58737">
        <ele>275.124</ele>
        <time>2008-08-20T10:33:51Z</time>
      </trkpt>
      <trkpt lat="43.7286" lon="3.58736">
        <ele>275.03</ele>
        <time>2008-08-20T10:33:57Z</time>
      </trkpt>
      <trkpt lat="43.72863" lon="3.58721">
        <ele>276.119</ele>
        <time>2008-08-20T10:34:13Z</time>
      </trkpt>
      <trkpt lat="43.72863" lon="3.58714">
        <ele>275.597</ele>
        <time>2008-08-20T10:34:26Z</time>
      </trkpt>
      <trkpt lat="43.72859" lon="3.58713">
        <ele>273.155</ele>
        <time>2008-08-20T10:34:42Z</time>
      </trkpt>
      <trkpt lat="43.72856" lon="3.58711">
        <ele>270.297</ele>
        <time>2008-08-20T10:34:52Z</time>
      </trkpt>
      <trkpt lat="43.72855" lon="3.58711">
        <ele>268.688</ele>
        <time>2008-08-20T10:34:55Z</time>
      </trkpt>
      <trkpt lat="43.72852" lon="3.58716">
        <ele>268.684</ele>
        <time>2008-08-20T10:35:06Z</time>
      </trkpt>
      <trkpt lat="43.72848" lon="3.58719">
        <ele>267.149</ele>
        <time>2008-08-20T10:35:16Z</time>
      </trkpt>
      <trkpt lat="43.72847" lon="3.58718">
        <ele>266.907</ele>
        <time>2008-08-20T10:35:23Z</time>
      </trkpt>
      <trkpt lat="43.7285" lon="3.58723">
        <ele>269.352</ele>
        <time>2008-08-20T10:35:34Z</time>
      </trkpt>
      <trkpt lat="43.7285" lon="3.58723">
        <ele>267.919</ele>
        <time>2008-08-20T10:35:54Z</time>
      </trkpt>
      <trkpt lat="43.72847" lon="3.58723">
        <ele>268.985</ele>
        <time>2008-08-20T10:36:12Z</time>
      </trkpt>
      <trkpt lat="43.72845" lon="3.58727">
        <ele>268.676</ele>
        <time>2008-08-20T10:36:24Z</time>
      </trkpt>
      <trkpt lat="43.72844" lon="3.58727">
        <ele>267.261</ele>
        <time>2008-08-20T10:36:39Z</time>
      </trkpt>
      <trkpt lat="43.72844" lon="3.58728">
        <ele>266.264</ele>
        <time>2008-08-20T10:36:57Z</time>
      </trkpt>
      <trkpt lat="43.7284" lon="3.58733">
        <ele>263.761</ele>
        <time>2008-08-20T10:37:09Z</time>
      </trkpt>
      <trkpt lat="43.72839" lon="3.58733">
        <ele>258.871</ele>
        <time>2008-08-20T10:37:12Z</time>
      </trkpt>
      <trkpt lat="43.72838" lon="3.58733">
        <ele>262.919</ele>
        <time>2008-08-20T10:37:13Z</time>
      </trkpt>
      <trkpt lat="43.72838" lon="3.58734">
        <ele>267.127</ele>
        <time>2008-08-20T10:37:15Z</time>
      </trkpt>
      <trkpt lat="43.72837" lon="3.58734">
        <ele>264.881</ele>
        <time>2008-08-20T10:37:16Z</time>
      </trkpt>
      <trkpt lat="43.72834" lon="3.58736">
        <ele>264.209</ele>
        <time>2008-08-20T10:37:22Z</time>
      </trkpt>
      <trkpt lat="43.72824" lon="3.58732">
        <ele>260.625</ele>
        <time>2008-08-20T10:37:33Z</time>
      </trkpt>
      <trkpt lat="43.72824" lon="3.58733">
        <ele>260.327</ele>
        <time>2008-08-20T10:37:35Z</time>
      </trkpt>
      <trkpt lat="43.72817" lon="3.58728">
        <ele>258.551</ele>
        <time>2008-08-20T10:37:45Z</time>
      </trkpt>
      <trkpt lat="43.72813" lon="3.58727">
        <ele>257.673</ele>
        <time>2008-08-20T10:37:51Z</time>
      </trkpt>
      <trkpt lat="43.72812" lon="3.58724">
        <ele>258.233</ele>
        <time>2008-08-20T10:37:54Z</time>
      </trkpt>
      <trkpt lat="43.72804" lon="3.58723">
        <ele>257.468</ele>
        <time>2008-08-20T10:38:06Z</time>
      </trkpt>
      <trkpt lat="43.72801" lon="3.58729">
        <ele>255.209</ele>
        <time>2008-08-20T10:38:11Z</time>
      </trkpt>
      <trkpt lat="43.72791" lon="3.58744">
        <ele>254.317</ele>
        <time>2008-08-20T10:38:24Z</time>
      </trkpt>
      <trkpt lat="43.72781" lon="3.58755">
        <ele>252.639</ele>
        <time>2008-08-20T10:38:34Z</time>
      </trkpt>
      <trkpt lat="43.72775" lon="3.58756">
        <ele>251.646</ele>
        <time>2008-08-20T10:38:45Z</time>
      </trkpt>
      <trkpt lat="43.72772" lon="3.58758">
        <ele>251.965</ele>
        <time>2008-08-20T10:38:49Z</time>
      </trkpt>
      <trkpt lat="43.72768" lon="3.58759">
        <ele>251.821</ele>
        <time>2008-08-20T10:38:52Z</time>
      </trkpt>
      <trkpt lat="43.72766" lon="3.58761">
        <ele>251.354</ele>
        <time>2008-08-20T10:38:55Z</time>
      </trkpt>
      <trkpt lat="43.72762" lon="3.58766">
        <ele>251.663</ele>
        <time>2008-08-20T10:38:59Z</time>
      </trkpt>
      <trkpt lat="43.72756" lon="3.58775">
        <ele>249.933</ele>
        <time>2008-08-20T10:39:11Z</time>
      </trkpt>
      <trkpt lat="43.72747" lon="3.58786">
        <ele>248.677</ele>
        <time>2008-08-20T10:39:19Z</time>
      </trkpt>
      <trkpt lat="43.72739" lon="3.5879">
        <ele>247.391</ele>
        <time>2008-08-20T10:39:29Z</time>
      </trkpt>
      <trkpt lat="43.72737" lon="3.58792">
        <ele>243.575</ele>
        <time>2008-08-20T10:39:34Z</time>
      </trkpt>
      <trkpt lat="43.72737" lon="3.58793">
        <ele>244.439</ele>
        <time>2008-08-20T10:39:35Z</time>
      </trkpt>
      <trkpt lat="43.72737" lon="3.58794">
        <ele>247.976</ele>
        <time>2008-08-20T10:39:37Z</time>
      </trkpt>
      <trkpt lat="43.72736" lon="3.58794">
        <ele>246.705</ele>
        <time>2008-08-20T10:39:38Z</time>
      </trkpt>
      <trkpt lat="43.72735" lon="3.58797">
        <ele>246.609</ele>
        <time>2008-08-20T10:39:41Z</time>
      </trkpt>
      <trkpt lat="43.7273" lon="3.58799">
        <ele>244.987</ele>
        <time>2008-08-20T10:39:47Z</time>
      </trkpt>
      <trkpt lat="43.72722" lon="3.58803">
        <ele>244.433</ele>
        <time>2008-08-20T10:40:03Z</time>
      </trkpt>
      <trkpt lat="43.72716" lon="3.58808">
        <ele>243.946</ele>
        <time>2008-08-20T10:40:09Z</time>
      </trkpt>
      <trkpt lat="43.72713" lon="3.58809">
        <ele>243.419</ele>
        <time>2008-08-20T10:40:11Z</time>
      </trkpt>
      <trkpt lat="43.72709" lon="3.58816">
        <ele>243.593</ele>
        <time>2008-08-20T10:40:23Z</time>
      </trkpt>
      <trkpt lat="43.72705" lon="3.58823">
        <ele>240.52</ele>
        <time>2008-08-20T10:40:32Z</time>
      </trkpt>
      <trkpt lat="43.727" lon="3.58827">
        <ele>240.273</ele>
        <time>2008-08-20T10:40:48Z</time>
      </trkpt>
      <trkpt lat="43.72698" lon="3.58832">
        <ele>239.439</ele>
        <time>2008-08-20T10:40:56Z</time>
      </trkpt>
      <trkpt lat="43.72699" lon="3.58837">
        <ele>237.759</ele>
        <time>2008-08-20T10:41:01Z</time>
      </trkpt>
      <trkpt lat="43.727" lon="3.5884">
        <ele>237.97</ele>
        <time>2008-08-20T10:41:08Z</time>
      </trkpt>
      <trkpt lat="43.727" lon="3.5885">
        <ele>237.544</ele>
        <time>2008-08-20T10:41:20Z</time>
      </trkpt>
      <trkpt lat="43.727" lon="3.58851">
        <ele>236.135</ele>
        <time>2008-08-20T10:41:21Z</time>
      </trkpt>
      <trkpt lat="43.72699" lon="3.58861">
        <ele>236.883</ele>
        <time>2008-08-20T10:41:32Z</time>
      </trkpt>
      <trkpt lat="43.72695" lon="3.58862">
        <ele>232.502</ele>
        <time>2008-08-20T10:41:39Z</time>
      </trkpt>
      <trkpt lat="43.72695" lon="3.58862">
        <ele>232.568</ele>
        <time>2008-08-20T10:41:40Z</time>
      </trkpt>
      <trkpt lat="43.72694" lon="3.58862">
        <ele>243.261</ele>
        <time>2008-08-20T10:41:41Z</time>
      </trkpt>
      <trkpt lat="43.72694" lon="3.58862">
        <ele>233.799</ele>
        <time>2008-08-20T10:41:42Z</time>
      </trkpt>
      <trkpt lat="43.72694" lon="3.58862">
        <ele>239.897</ele>
        <time>2008-08-20T10:41:43Z</time>
      </trkpt>
      <trkpt lat="43.72694" lon="3.58862">
        <ele>236.211</ele>
        <time>2008-08-20T10:41:44Z</time>
      </trkpt>
      <trkpt lat="43.72693" lon="3.58862">
        <ele>239.64</ele>
        <time>2008-08-20T10:41:45Z</time>
      </trkpt>
      <trkpt lat="43.72692" lon="3.58862">
        <ele>235.989</ele>
        <time>2008-08-20T10:41:46Z</time>
      </trkpt>
      <trkpt lat="43.72692" lon="3.58862">
        <ele>231.844</ele>
        <time>2008-08-20T10:41:47Z</time>
      </trkpt>
      <trkpt lat="43.72691" lon="3.58862">
        <ele>240.871</ele>
        <time>2008-08-20T10:41:48Z</time>
      </trkpt>
      <trkpt lat="43.72691" lon="3.58862">
        <ele>237.137</ele>
        <time>2008-08-20T10:41:49Z</time>
      </trkpt>
      <trkpt lat="43.72697" lon="3.5887">
        <ele>233.084</ele>
        <time>2008-08-20T10:41:58Z</time>
      </trkpt>
      <trkpt lat="43.72697" lon="3.58869">
        <ele>236.649</ele>
        <time>2008-08-20T10:41:59Z</time>
      </trkpt>
      <trkpt lat="43.72692" lon="3.58876">
        <ele>234.685</ele>
        <time>2008-08-20T10:42:09Z</time>
      </trkpt>
      <trkpt lat="43.72693" lon="3.58883">
        <ele>234.602</ele>
        <time>2008-08-20T10:42:20Z</time>
      </trkpt>
      <trkpt lat="43.72691" lon="3.58884">
        <ele>232.493</ele>
        <time>2008-08-20T10:42:33Z</time>
      </trkpt>
      <trkpt lat="43.72689" lon="3.58892">
        <ele>232.37</ele>
        <time>2008-08-20T10:42:53Z</time>
      </trkpt>
      <trkpt lat="43.72688" lon="3.58901">
        <ele>232.379</ele>
        <time>2008-08-20T10:43:08Z</time>
      </trkpt>
      <trkpt lat="43.72681" lon="3.5891">
        <ele>230.3</ele>
        <time>2008-08-20T10:43:24Z</time>
      </trkpt>
      <trkpt lat="43.72679" lon="3.58912">
        <ele>230.087</ele>
        <time>2008-08-20T10:43:27Z</time>
      </trkpt>
      <trkpt lat="43.72672" lon="3.58923">
        <ele>228.946</ele>
        <time>2008-08-20T10:43:38Z</time>
      </trkpt>
      <trkpt lat="43.72672" lon="3.58936">
        <ele>228.061</ele>
        <time>2008-08-20T10:43:52Z</time>
      </trkpt>
      <trkpt lat="43.72668" lon="3.58948">
        <ele>226.904</ele>
        <time>2008-08-20T10:44:07Z</time>
      </trkpt>
      <trkpt lat="43.72666" lon="3.58952">
        <ele>227.049</ele>
        <time>2008-08-20T10:44:20Z</time>
      </trkpt>
      <trkpt lat="43.72666" lon="3.58952">
        <ele>226.934</ele>
        <time>2008-08-20T10:44:22Z</time>
      </trkpt>
      <trkpt lat="43.72662" lon="3.5896">
        <ele>226.758</ele>
        <time>2008-08-20T10:44:36Z</time>
      </trkpt>
      <trkpt lat="43.72659" lon="3.58964">
        <ele>226.599</ele>
        <time>2008-08-20T10:44:47Z</time>
      </trkpt>
      <trkpt lat="43.72655" lon="3.58975">
        <ele>226.82</ele>
        <time>2008-08-20T10:45:08Z</time>
      </trkpt>
      <trkpt lat="43.72647" lon="3.58981">
        <ele>226.446</ele>
        <time>2008-08-20T10:45:20Z</time>
      </trkpt>
      <trkpt lat="43.72652" lon="3.58986">
        <ele>226.382</ele>
        <time>2008-08-20T10:45:32Z</time>
      </trkpt>
      <trkpt lat="43.72652" lon="3.58989">
        <ele>225.602</ele>
        <time>2008-08-20T10:45:37Z</time>
      </trkpt>
      <trkpt lat="43.72648" lon="3.58998">
        <ele>225.07</ele>
        <time>2008-08-20T10:45:47Z</time>
      </trkpt>
      <trkpt lat="43.72645" lon="3.59007">
        <ele>223.123</ele>
        <time>2008-08-20T10:45:59Z</time>
      </trkpt>
      <trkpt lat="43.72636" lon="3.59012">
        <ele>220.149</ele>
        <time>2008-08-20T10:46:10Z</time>
      </trkpt>
      <trkpt lat="43.72624" lon="3.59012">
        <ele>220.53</ele>
        <time>2008-08-20T10:46:19Z</time>
      </trkpt>
      <trkpt lat="43.72613" lon="3.59016">
        <ele>218.751</ele>
        <time>2008-08-20T10:46:36Z</time>
      </trkpt>
      <trkpt lat="43.72613" lon="3.59017">
        <ele>218.169</ele>
        <time>2008-08-20T10:46:39Z</time>
      </trkpt>
      <trkpt lat="43.72613" lon="3.5902">
        <ele>218.646</ele>
        <time>2008-08-20T10:46:41Z</time>
      </trkpt>
      <trkpt lat="43.72613" lon="3.59023">
        <ele>220.157</ele>
        <time>2008-08-20T10:46:44Z</time>
      </trkpt>
      <trkpt lat="43.7261" lon="3.59024">
        <ele>217.708</ele>
        <time>2008-08-20T10:46:50Z</time>
      </trkpt>
      <trkpt lat="43.72605" lon="3.59025">
        <ele>217.761</ele>
        <time>2008-08-20T10:46:52Z</time>
      </trkpt>
      <trkpt lat="43.72598" lon="3.59029">
        <ele>217.848</ele>
        <time>2008-08-20T10:47:02Z</time>
      </trkpt>
      <trkpt lat="43.72599" lon="3.59034">
        <ele>215.736</ele>
        <time>2008-08-20T10:47:06Z</time>
      </trkpt>
      <trkpt lat="43.72595" lon="3.59047">
        <ele>216.099</ele>
        <time>2008-08-20T10:47:18Z</time>
      </trkpt>
      <trkpt lat="43.72582" lon="3.59049">
        <ele>214.892</ele>
        <time>2008-08-20T10:47:28Z</time>
      </trkpt>
      <trkpt lat="43.72577" lon="3.59051">
        <ele>213.551</ele>
        <time>2008-08-20T10:47:37Z</time>
      </trkpt>
      <trkpt lat="43.72578" lon="3.59055">
        <ele>213.9</ele>
        <time>2008-08-20T10:47:41Z</time>
      </trkpt>
      <trkpt lat="43.72576" lon="3.59063">
        <ele>215.302</ele>
        <time>2008-08-20T10:47:47Z</time>
      </trkpt>
      <trkpt lat="43.72577" lon="3.59066">
        <ele>213.86</ele>
        <time>2008-08-20T10:47:51Z</time>
      </trkpt>
      <trkpt lat="43.72578" lon="3.59073">
        <ele>215.092</ele>
        <time>2008-08-20T10:47:55Z</time>
      </trkpt>
      <trkpt lat="43.72578" lon="3.59076">
        <ele>215.375</ele>
        <time>2008-08-20T10:47:58Z</time>
      </trkpt>
      <trkpt lat="43.72575" lon="3.5908">
        <ele>214.181</ele>
        <time>2008-08-20T10:48:01Z</time>
      </trkpt>
      <trkpt lat="43.72571" lon="3.59082">
        <ele>212.601</ele>
        <time>2008-08-20T10:48:07Z</time>
      </trkpt>
      <trkpt lat="43.72568" lon="3.59085">
        <ele>212.22</ele>
        <time>2008-08-20T10:48:16Z</time>
      </trkpt>
      <trkpt lat="43.72561" lon="3.59087">
        <ele>213.071</ele>
        <time>2008-08-20T10:48:32Z</time>
      </trkpt>
      <trkpt lat="43.72561" lon="3.59094">
        <ele>211.602</ele>
        <time>2008-08-20T10:48:50Z</time>
      </trkpt>
      <trkpt lat="43.72554" lon="3.59096">
        <ele>211.223</ele>
        <time>2008-08-20T10:48:55Z</time>
      </trkpt>
      <trkpt lat="43.72551" lon="3.59102">
        <ele>211.523</ele>
        <time>2008-08-20T10:49:00Z</time>
      </trkpt>
      <trkpt lat="43.7254" lon="3.59104">
        <ele>211.614</ele>
        <time>2008-08-20T10:49:05Z</time>
      </trkpt>
      <trkpt lat="43.72539" lon="3.59111">
        <ele>211.987</ele>
        <time>2008-08-20T10:49:16Z</time>
      </trkpt>
      <trkpt lat="43.72535" lon="3.59115">
        <ele>208.77</ele>
        <time>2008-08-20T10:49:25Z</time>
      </trkpt>
      <trkpt lat="43.72533" lon="3.59113">
        <ele>208.465</ele>
        <time>2008-08-20T10:49:33Z</time>
      </trkpt>
      <trkpt lat="43.7253" lon="3.59128">
        <ele>208.334</ele>
        <time>2008-08-20T10:49:45Z</time>
      </trkpt>
      <trkpt lat="43.72528" lon="3.59135">
        <ele>208.061</ele>
        <time>2008-08-20T10:49:54Z</time>
      </trkpt>
      <trkpt lat="43.72525" lon="3.59142">
        <ele>206.751</ele>
        <time>2008-08-20T10:50:11Z</time>
      </trkpt>
      <trkpt lat="43.72521" lon="3.59148">
        <ele>204.693</ele>
        <time>2008-08-20T10:50:21Z</time>
      </trkpt>
      <trkpt lat="43.7252" lon="3.59149">
        <ele>207.21</ele>
        <time>2008-08-20T10:50:24Z</time>
      </trkpt>
      <trkpt lat="43.72518" lon="3.59149">
        <ele>203.08</ele>
        <time>2008-08-20T10:50:27Z</time>
      </trkpt>
      <trkpt lat="43.72517" lon="3.59149">
        <ele>203.215</ele>
        <time>2008-08-20T10:50:28Z</time>
      </trkpt>
      <trkpt lat="43.72513" lon="3.59151">
        <ele>199.917</ele>
        <time>2008-08-20T10:50:34Z</time>
      </trkpt>
      <trkpt lat="43.72514" lon="3.59153">
        <ele>202.936</ele>
        <time>2008-08-20T10:50:37Z</time>
      </trkpt>
      <trkpt lat="43.72512" lon="3.59153">
        <ele>196.577</ele>
        <time>2008-08-20T10:50:38Z</time>
      </trkpt>
      <trkpt lat="43.72511" lon="3.59153">
        <ele>198.206</ele>
        <time>2008-08-20T10:50:39Z</time>
      </trkpt>
      <trkpt lat="43.72509" lon="3.59153">
        <ele>202.583</ele>
        <time>2008-08-20T10:50:40Z</time>
      </trkpt>
      <trkpt lat="43.72502" lon="3.59156">
        <ele>202.319</ele>
        <time>2008-08-20T10:50:46Z</time>
      </trkpt>
      <trkpt lat="43.72499" lon="3.5916">
        <ele>203.098</ele>
        <time>2008-08-20T10:50:52Z</time>
      </trkpt>
      <trkpt lat="43.72495" lon="3.59166">
        <ele>200.804</ele>
        <time>2008-08-20T10:51:00Z</time>
      </trkpt>
      <trkpt lat="43.7249" lon="3.59171">
        <ele>200.851</ele>
        <time>2008-08-20T10:51:06Z</time>
      </trkpt>
      <trkpt lat="43.72488" lon="3.59179">
        <ele>201.634</ele>
        <time>2008-08-20T10:51:13Z</time>
      </trkpt>
      <trkpt lat="43.72488" lon="3.59181">
        <ele>204.906</ele>
        <time>2008-08-20T10:51:16Z</time>
      </trkpt>
      <trkpt lat="43.72488" lon="3.59181">
        <ele>201.619</ele>
        <time>2008-08-20T10:51:17Z</time>
      </trkpt>
      <trkpt lat="43.72489" lon="3.59182">
        <ele>200.118</ele>
        <time>2008-08-20T10:51:19Z</time>
      </trkpt>
      <trkpt lat="43.72487" lon="3.59183">
        <ele>203.133</ele>
        <time>2008-08-20T10:51:21Z</time>
      </trkpt>
      <trkpt lat="43.72486" lon="3.59182">
        <ele>198.89</ele>
        <time>2008-08-20T10:51:23Z</time>
      </trkpt>
      <trkpt lat="43.72483" lon="3.59183">
        <ele>197.583</ele>
        <time>2008-08-20T10:51:26Z</time>
      </trkpt>
      <trkpt lat="43.7248" lon="3.59186">
        <ele>195.334</ele>
        <time>2008-08-20T10:51:30Z</time>
      </trkpt>
      <trkpt lat="43.72477" lon="3.59193">
        <ele>197.489</ele>
        <time>2008-08-20T10:51:35Z</time>
      </trkpt>
      <trkpt lat="43.72472" lon="3.59201">
        <ele>197.119</ele>
        <time>2008-08-20T10:51:44Z</time>
      </trkpt>
      <trkpt lat="43.72469" lon="3.59204">
        <ele>197.849</ele>
        <time>2008-08-20T10:51:46Z</time>
      </trkpt>
      <trkpt lat="43.72468" lon="3.59206">
        <ele>200.87</ele>
        <time>2008-08-20T10:51:47Z</time>
      </trkpt>
      <trkpt lat="43.72465" lon="3.59207">
        <ele>197.843</ele>
        <time>2008-08-20T10:51:49Z</time>
      </trkpt>
      <trkpt lat="43.72463" lon="3.59208">
        <ele>197.615</ele>
        <time>2008-08-20T10:51:52Z</time>
      </trkpt>
      <trkpt lat="43.72461" lon="3.59211">
        <ele>191.942</ele>
        <time>2008-08-20T10:51:55Z</time>
      </trkpt>
      <trkpt lat="43.72461" lon="3.59213">
        <ele>192.38</ele>
        <time>2008-08-20T10:51:56Z</time>
      </trkpt>
      <trkpt lat="43.72458" lon="3.59217">
        <ele>197.803</ele>
        <time>2008-08-20T10:52:02Z</time>
      </trkpt>
      <trkpt lat="43.72462" lon="3.59218">
        <ele>194.781</ele>
        <time>2008-08-20T10:52:21Z</time>
      </trkpt>
      <trkpt lat="43.7246" lon="3.59218">
        <ele>191.75</ele>
        <time>2008-08-20T10:52:24Z</time>
      </trkpt>
      <trkpt lat="43.7246" lon="3.59218">
        <ele>197.427</ele>
        <time>2008-08-20T10:52:25Z</time>
      </trkpt>
      <trkpt lat="43.7246" lon="3.59219">
        <ele>197.2</ele>
        <time>2008-08-20T10:52:26Z</time>
      </trkpt>
      <trkpt lat="43.72452" lon="3.5922">
        <ele>194.966</ele>
        <time>2008-08-20T10:53:00Z</time>
      </trkpt>
      <trkpt lat="43.72443" lon="3.59228">
        <ele>194.201</ele>
        <time>2008-08-20T10:53:12Z</time>
      </trkpt>
      <trkpt lat="43.72442" lon="3.59235">
        <ele>192.457</ele>
        <time>2008-08-20T10:53:18Z</time>
      </trkpt>
      <trkpt lat="43.72445" lon="3.59251">
        <ele>191.056</ele>
        <time>2008-08-20T10:53:28Z</time>
      </trkpt>
      <trkpt lat="43.72445" lon="3.59257">
        <ele>191.495</ele>
        <time>2008-08-20T10:53:31Z</time>
      </trkpt>
      <trkpt lat="43.72445" lon="3.59273">
        <ele>190.329</ele>
        <time>2008-08-20T10:53:43Z</time>
      </trkpt>
      <trkpt lat="43.72444" lon="3.59286">
        <ele>188.867</ele>
        <time>2008-08-20T10:53:55Z</time>
      </trkpt>
      <trkpt lat="43.72442" lon="3.59295">
        <ele>187.855</ele>
        <time>2008-08-20T10:54:08Z</time>
      </trkpt>
      <trkpt lat="43.72445" lon="3.59296">
        <ele>188.248</ele>
        <time>2008-08-20T10:54:22Z</time>
      </trkpt>
      <trkpt lat="43.72446" lon="3.593">
        <ele>188.312</ele>
        <time>2008-08-20T10:54:31Z</time>
      </trkpt>
      <trkpt lat="43.72447" lon="3.59306">
        <ele>188.443</ele>
        <time>2008-08-20T10:54:36Z</time>
      </trkpt>
      <trkpt lat="43.72447" lon="3.59312">
        <ele>187.593</ele>
        <time>2008-08-20T10:54:42Z</time>
      </trkpt>
      <trkpt lat="43.72441" lon="3.59324">
        <ele>186.925</ele>
        <time>2008-08-20T10:54:53Z</time>
      </trkpt>
      <trkpt lat="43.7244" lon="3.59333">
        <ele>185.317</ele>
        <time>2008-08-20T10:54:59Z</time>
      </trkpt>
      <trkpt lat="43.72435" lon="3.59343">
        <ele>184.498</ele>
        <time>2008-08-20T10:55:09Z</time>
      </trkpt>
      <trkpt lat="43.72431" lon="3.59356">
        <ele>183.64</ele>
        <time>2008-08-20T10:55:19Z</time>
      </trkpt>
      <trkpt lat="43.72428" lon="3.59358">
        <ele>182.802</ele>
        <time>2008-08-20T10:55:25Z</time>
      </trkpt>
      <trkpt lat="43.72422" lon="3.59364">
        <ele>181.532</ele>
        <time>2008-08-20T10:55:35Z</time>
      </trkpt>
      <trkpt lat="43.7242" lon="3.59366">
        <ele>181.522</ele>
        <time>2008-08-20T10:55:38Z</time>
      </trkpt>
      <trkpt lat="43.72418" lon="3.59371">
        <ele>182.448</ele>
        <time>2008-08-20T10:55:41Z</time>
      </trkpt>
      <trkpt lat="43.72415" lon="3.5938">
        <ele>181.472</ele>
        <time>2008-08-20T10:55:48Z</time>
      </trkpt>
      <trkpt lat="43.72415" lon="3.59383">
        <ele>181.198</ele>
        <time>2008-08-20T10:55:50Z</time>
      </trkpt>
      <trkpt lat="43.72407" lon="3.59398">
        <ele>179.555</ele>
        <time>2008-08-20T10:56:01Z</time>
      </trkpt>
      <trkpt lat="43.72404" lon="3.59402">
        <ele>178.97</ele>
        <time>2008-08-20T10:56:04Z</time>
      </trkpt>
      <trkpt lat="43.72401" lon="3.59406">
        <ele>179.523</ele>
        <time>2008-08-20T10:56:07Z</time>
      </trkpt>
      <trkpt lat="43.72398" lon="3.59409">
        <ele>179.23</ele>
        <time>2008-08-20T10:56:11Z</time>
      </trkpt>
      <trkpt lat="43.72397" lon="3.59413">
        <ele>178.645</ele>
        <time>2008-08-20T10:56:15Z</time>
      </trkpt>
      <trkpt lat="43.72386" lon="3.59422">
        <ele>177.405</ele>
        <time>2008-08-20T10:56:26Z</time>
      </trkpt>
      <trkpt lat="43.72387" lon="3.59434">
        <ele>177.011</ele>
        <time>2008-08-20T10:56:37Z</time>
      </trkpt>
      <trkpt lat="43.72386" lon="3.59437">
        <ele>177.387</ele>
        <time>2008-08-20T10:56:39Z</time>
      </trkpt>
      <trkpt lat="43.7238" lon="3.59443">
        <ele>176.764</ele>
        <time>2008-08-20T10:56:46Z</time>
      </trkpt>
      <trkpt lat="43.72375" lon="3.59449">
        <ele>176.49</ele>
        <time>2008-08-20T10:56:53Z</time>
      </trkpt>
      <trkpt lat="43.72364" lon="3.5945">
        <ele>176.825</ele>
        <time>2008-08-20T10:57:03Z</time>
      </trkpt>
      <trkpt lat="43.7236" lon="3.59452">
        <ele>173.852</ele>
        <time>2008-08-20T10:57:07Z</time>
      </trkpt>
      <trkpt lat="43.72355" lon="3.59451">
        <ele>176.713</ele>
        <time>2008-08-20T10:57:11Z</time>
      </trkpt>
      <trkpt lat="43.72351" lon="3.59452">
        <ele>175.203</ele>
        <time>2008-08-20T10:57:14Z</time>
      </trkpt>
      <trkpt lat="43.72348" lon="3.59454">
        <ele>173.454</ele>
        <time>2008-08-20T10:57:16Z</time>
      </trkpt>
      <trkpt lat="43.72344" lon="3.59458">
        <ele>175.545</ele>
        <time>2008-08-20T10:57:20Z</time>
      </trkpt>
      <trkpt lat="43.72343" lon="3.59458">
        <ele>174.533</ele>
        <time>2008-08-20T10:57:21Z</time>
      </trkpt>
      <trkpt lat="43.7234" lon="3.59458">
        <ele>172.936</ele>
        <time>2008-08-20T10:57:23Z</time>
      </trkpt>
      <trkpt lat="43.72334" lon="3.59463">
        <ele>173.065</ele>
        <time>2008-08-20T10:57:28Z</time>
      </trkpt>
      <trkpt lat="43.72321" lon="3.59469">
        <ele>172.805</ele>
        <time>2008-08-20T10:57:41Z</time>
      </trkpt>
      <trkpt lat="43.72313" lon="3.59471">
        <ele>172.613</ele>
        <time>2008-08-20T10:57:46Z</time>
      </trkpt>
      <trkpt lat="43.72302" lon="3.59474">
        <ele>172.494</ele>
        <time>2008-08-20T10:57:56Z</time>
      </trkpt>
      <trkpt lat="43.72302" lon="3.59475">
        <ele>172.287</ele>
        <time>2008-08-20T10:57:57Z</time>
      </trkpt>
      <trkpt lat="43.7229" lon="3.59488">
        <ele>171.072</ele>
        <time>2008-08-20T10:58:06Z</time>
      </trkpt>
      <trkpt lat="43.72288" lon="3.59489">
        <ele>170.89</ele>
        <time>2008-08-20T10:58:15Z</time>
      </trkpt>
      <trkpt lat="43.72287" lon="3.59489">
        <ele>168.384</ele>
        <time>2008-08-20T10:58:43Z</time>
      </trkpt>
      <trkpt lat="43.72281" lon="3.59496">
        <ele>167.53</ele>
        <time>2008-08-20T10:58:53Z</time>
      </trkpt>
      <trkpt lat="43.7228" lon="3.59496">
        <ele>168.413</ele>
        <time>2008-08-20T10:58:55Z</time>
      </trkpt>
      <trkpt lat="43.72274" lon="3.59505">
        <ele>166.039</ele>
        <time>2008-08-20T10:59:06Z</time>
      </trkpt>
      <trkpt lat="43.72271" lon="3.5951">
        <ele>165.86</ele>
        <time>2008-08-20T10:59:19Z</time>
      </trkpt>
      <trkpt lat="43.72268" lon="3.59516">
        <ele>165.965</ele>
        <time>2008-08-20T10:59:30Z</time>
      </trkpt>
      <trkpt lat="43.72266" lon="3.59516">
        <ele>166.193</ele>
        <time>2008-08-20T10:59:42Z</time>
      </trkpt>
      <trkpt lat="43.72263" lon="3.59521">
        <ele>165.693</ele>
        <time>2008-08-20T10:59:53Z</time>
      </trkpt>
      <trkpt lat="43.72261" lon="3.59521">
        <ele>166.172</ele>
        <time>2008-08-20T10:59:55Z</time>
      </trkpt>
      <trkpt lat="43.72258" lon="3.5952">
        <ele>164.648</ele>
        <time>2008-08-20T11:00:09Z</time>
      </trkpt>
      <trkpt lat="43.72257" lon="3.59523">
        <ele>164.618</ele>
        <time>2008-08-20T11:00:24Z</time>
      </trkpt>
      <trkpt lat="43.72257" lon="3.59525">
        <ele>164.31</ele>
        <time>2008-08-20T11:00:26Z</time>
      </trkpt>
      <trkpt lat="43.72251" lon="3.59539">
        <ele>163.949</ele>
        <time>2008-08-20T11:00:36Z</time>
      </trkpt>
      <trkpt lat="43.72249" lon="3.59546">
        <ele>164.174</ele>
        <time>2008-08-20T11:00:42Z</time>
      </trkpt>
      <trkpt lat="43.72243" lon="3.59562">
        <ele>162.244</ele>
        <time>2008-08-20T11:00:54Z</time>
      </trkpt>
      <trkpt lat="43.72239" lon="3.59578">
        <ele>161.152</ele>
        <time>2008-08-20T11:01:06Z</time>
      </trkpt>
      <trkpt lat="43.72235" lon="3.59595">
        <ele>160.169</ele>
        <time>2008-08-20T11:01:19Z</time>
      </trkpt>
      <trkpt lat="43.72233" lon="3.596">
        <ele>160.546</ele>
        <time>2008-08-20T11:01:23Z</time>
      </trkpt>
      <trkpt lat="43.72233" lon="3.59603">
        <ele>159.344</ele>
        <time>2008-08-20T11:01:26Z</time>
      </trkpt>
      <trkpt lat="43.7223" lon="3.59606">
        <ele>159.413</ele>
        <time>2008-08-20T11:01:28Z</time>
      </trkpt>
      <trkpt lat="43.72226" lon="3.59625">
        <ele>158.542</ele>
        <time>2008-08-20T11:01:41Z</time>
      </trkpt>
      <trkpt lat="43.72222" lon="3.59639">
        <ele>158.089</ele>
        <time>2008-08-20T11:01:51Z</time>
      </trkpt>
      <trkpt lat="43.72221" lon="3.59643">
        <ele>157.521</ele>
        <time>2008-08-20T11:01:54Z</time>
      </trkpt>
      <trkpt lat="43.72214" lon="3.59658">
        <ele>155.899</ele>
        <time>2008-08-20T11:02:06Z</time>
      </trkpt>
      <trkpt lat="43.72209" lon="3.59672">
        <ele>155.319</ele>
        <time>2008-08-20T11:02:16Z</time>
      </trkpt>
      <trkpt lat="43.72205" lon="3.59684">
        <ele>155.294</ele>
        <time>2008-08-20T11:02:24Z</time>
      </trkpt>
    </trkseg>
  </trk>
</gpx>